PWSweather.com
Personal Weather Stations
Station Observations
OPENSRS
Liberty Village, Toronto, ON M6K 3M1

Liberty VillageToronto, ON M6K 3M1

Lat: 43.63831, Lon: -79.42566

Elevation: 303

Station Type: Davis Instruments Vantage Pro 2

weather.opensrs.com

High Low Average
Temperature 43.8°F6.6°F 24.6°F-4.1°F 36.2°F2.3°F
Dew Point 41.9°F5.5°F 14.9°F-9.5°F 31.1°F-0.5°F
Winds 16.0 mph WSW25.7 mph WSW Calm Calm 4.0 mph 6.4 mph
Wind Gusts 20.0 mph32.2 mph -- 11.9 mph19.2 mph
Humidity 93% 66% 82%
Pressure 30.38 in1028.80 in 29.94 in1013.90 in -
Precipitation 7.62 in193.50 in - -
Hour Temp Dew Point Humidity Winds Wind Gusts Pressure Precip Precip Rate Daily Precip Total
12:00 AM 24.6°F-4.1°C 14.9°F-9.5°C 66% 3.0 mph SW4.8 kmh SW 3.0 mph4.8 kmh 30.38 in1028.8 mb 0.00 in0.0 mm 0.00 in/hr0.0 mm/hr 0.00 in0.0 mm
12:03 AM 24.6°F-4.1°C 14.9°F-9.5°C 66% 4.0 mph SW6.4 kmh SW 8.0 mph12.9 kmh 30.38 in1028.8 mb 0.00 in0.0 mm 0.00 in/hr0.0 mm/hr 0.00 in0.0 mm
12:04 AM 24.6°F-4.1°C 14.9°F-9.5°C 66% 8.0 mph SW12.9 kmh SW 11.0 mph17.7 kmh 30.38 in1028.8 mb 0.00 in0.0 mm 0.00 in/hr0.0 mm/hr 0.00 in0.0 mm
12:05 AM 24.6°F-4.1°C 14.9°F-9.5°C 66% 5.0 mph SW8.0 kmh SW 11.0 mph17.7 kmh 30.38 in1028.8 mb 0.00 in0.0 mm 0.00 in/hr0.0 mm/hr 0.00 in0.0 mm
12:08 AM 24.8°F-4.0°C 15.4°F-9.2°C 67% 7.0 mph SW11.3 kmh SW 11.0 mph17.7 kmh 30.38 in1028.8 mb 0.00 in0.0 mm 0.00 in/hr0.0 mm/hr 0.00 in0.0 mm
12:09 AM 24.8°F-4.0°C 15.4°F-9.2°C 67% 5.0 mph SW8.0 kmh SW 11.0 mph17.7 kmh 30.37 in1028.4 mb 0.00 in0.0 mm 0.00 in/hr0.0 mm/hr 0.00 in0.0 mm
12:10 AM 24.9°F-3.9°C 15.5°F-9.2°C 67% 4.0 mph SW6.4 kmh SW 11.0 mph17.7 kmh 30.38 in1028.8 mb 0.00 in0.0 mm 0.00 in/hr0.0 mm/hr 0.00 in0.0 mm
12:13 AM 25.1°F-3.8°C 15.7°F-9.1°C 67% 4.0 mph SW6.4 kmh SW 11.0 mph17.7 kmh 30.38 in1028.8 mb 0.00 in0.0 mm 0.00 in/hr0.0 mm/hr 0.00 in0.0 mm
12:14 AM 25.1°F-3.8°C 15.7°F-9.1°C 67% 5.0 mph SW8.0 kmh SW 11.0 mph17.7 kmh 30.38 in1028.8 mb 0.00 in0.0 mm 0.00 in/hr0.0 mm/hr 0.00 in0.0 mm
12:15 AM 25.2°F-3.8°C 16.1°F-8.8°C 68% 3.0 mph SW4.8 kmh SW 11.0 mph17.7 kmh 30.37 in1028.4 mb 0.00 in0.0 mm 0.00 in/hr0.0 mm/hr 0.00 in0.0 mm
12:18 AM 25.4°F-3.7°C 16.3°F-8.7°C 68% 7.0 mph SW11.3 kmh SW 11.0 mph17.7 kmh 30.38 in1028.8 mb 0.00 in0.0 mm 0.00 in/hr0.0 mm/hr 0.00 in0.0 mm
12:19 AM 25.3°F-3.7°C 16.2°F-8.8°C 68% 4.0 mph SW6.4 kmh SW 11.0 mph17.7 kmh 30.37 in1028.4 mb 0.00 in0.0 mm 0.00 in/hr0.0 mm/hr 0.00 in0.0 mm
12:20 AM 25.4°F-3.7°C 16.3°F-8.7°C 68% 3.0 mph SW4.8 kmh SW 11.0 mph17.7 kmh 30.37 in1028.4 mb 0.00 in0.0 mm 0.00 in/hr0.0 mm/hr 0.00 in0.0 mm
12:23 AM 25.4°F-3.7°C 16.3°F-8.7°C 68% 2.0 mph SW3.2 kmh SW 12.0 mph19.3 kmh 30.37 in1028.4 mb 0.00 in0.0 mm 0.00 in/hr0.0 mm/hr 0.00 in0.0 mm
12:24 AM 25.3°F-3.7°C 16.2°F-8.8°C 68% 9.0 mph WSW14.5 kmh WSW 12.0 mph19.3 kmh 30.37 in1028.4 mb 0.00 in0.0 mm 0.00 in/hr0.0 mm/hr 0.00 in0.0 mm
12:25 AM 25.4°F-3.7°C 16.7°F-8.5°C 69% 6.0 mph WSW9.7 kmh WSW 12.0 mph19.3 kmh 30.37 in1028.4 mb 0.00 in0.0 mm 0.00 in/hr0.0 mm/hr 0.00 in0.0 mm
12:28 AM 25.4°F-3.7°C 16.7°F-8.5°C 69% 4.0 mph WSW6.4 kmh WSW 12.0 mph19.3 kmh 30.37 in1028.4 mb 0.00 in0.0 mm 0.00 in/hr0.0 mm/hr 0.00 in0.0 mm
12:29 AM 25.4°F-3.7°C 16.7°F-8.5°C 69% 5.0 mph WSW8.0 kmh WSW 12.0 mph19.3 kmh 30.37 in1028.4 mb 0.00 in0.0 mm 0.00 in/hr0.0 mm/hr 0.00 in0.0 mm
12:30 AM 25.4°F-3.7°C 16.7°F-8.5°C 69% 4.0 mph WSW6.4 kmh WSW 12.0 mph19.3 kmh 30.37 in1028.4 mb 0.00 in0.0 mm 0.00 in/hr0.0 mm/hr 0.00 in0.0 mm
12:33 AM 25.3°F-3.7°C 16.6°F-8.6°C 69% 2.0 mph WSW3.2 kmh WSW 12.0 mph19.3 kmh 30.37 in1028.4 mb 0.00 in0.0 mm 0.00 in/hr0.0 mm/hr 0.00 in0.0 mm
12:34 AM 25.4°F-3.7°C 16.7°F-8.5°C 69% 1.0 mph WSW1.6 kmh WSW 12.0 mph19.3 kmh 30.37 in1028.4 mb 0.00 in0.0 mm 0.00 in/hr0.0 mm/hr 0.00 in0.0 mm
12:35 AM 25.4°F-3.7°C 16.7°F-8.5°C 69% 5.0 mph WSW8.0 kmh WSW 12.0 mph19.3 kmh 30.37 in1028.4 mb 0.00 in0.0 mm 0.00 in/hr0.0 mm/hr 0.00 in0.0 mm
12:38 AM 25.3°F-3.7°C 16.6°F-8.6°C 69% Calm Calm 12.0 mph19.3 kmh 30.37 in1028.4 mb 0.00 in0.0 mm 0.00 in/hr0.0 mm/hr 0.00 in0.0 mm
12:39 AM 25.3°F-3.7°C 16.6°F-8.6°C 69% Calm Calm 12.0 mph19.3 kmh 30.37 in1028.4 mb 0.00 in0.0 mm 0.00 in/hr0.0 mm/hr 0.00 in0.0 mm
12:40 AM 25.3°F-3.7°C 16.6°F-8.6°C 69% 5.0 mph SW8.0 kmh SW 12.0 mph19.3 kmh 30.37 in1028.4 mb 0.00 in0.0 mm 0.00 in/hr0.0 mm/hr 0.00 in0.0 mm
12:43 AM 25.2°F-3.8°C 16.5°F-8.6°C 69% 5.0 mph SW8.0 kmh SW 12.0 mph19.3 kmh 30.37 in1028.4 mb 0.00 in0.0 mm 0.00 in/hr0.0 mm/hr 0.00 in0.0 mm
12:44 AM 25.2°F-3.8°C 16.5°F-8.6°C 69% 4.0 mph SW6.4 kmh SW 12.0 mph19.3 kmh 30.37 in1028.4 mb 0.00 in0.0 mm 0.00 in/hr0.0 mm/hr 0.00 in0.0 mm
12:45 AM 25.2°F-3.8°C 16.5°F-8.6°C 69% 4.0 mph SW6.4 kmh SW 12.0 mph19.3 kmh 30.37 in1028.4 mb 0.00 in0.0 mm 0.00 in/hr0.0 mm/hr 0.00 in0.0 mm
12:48 AM 25.2°F-3.8°C 16.8°F-8.4°C 70% 6.0 mph SW9.7 kmh SW 12.0 mph19.3 kmh 30.37 in1028.4 mb 0.00 in0.0 mm 0.00 in/hr0.0 mm/hr 0.00 in0.0 mm
12:49 AM 25.2°F-3.8°C 16.8°F-8.4°C 70% 6.0 mph SW9.7 kmh SW 12.0 mph19.3 kmh 30.37 in1028.4 mb 0.00 in0.0 mm 0.00 in/hr0.0 mm/hr 0.00 in0.0 mm
12:50 AM 25.2°F-3.8°C 16.8°F-8.4°C 70% 9.0 mph SW14.5 kmh SW 12.0 mph19.3 kmh 30.37 in1028.4 mb 0.00 in0.0 mm 0.00 in/hr0.0 mm/hr 0.00 in0.0 mm
12:53 AM 25.3°F-3.7°C 16.9°F-8.4°C 70% 6.0 mph SW9.7 kmh SW 12.0 mph19.3 kmh 30.36 in1028.1 mb 0.00 in0.0 mm 0.00 in/hr0.0 mm/hr 0.00 in0.0 mm
12:54 AM 25.3°F-3.7°C 16.9°F-8.4°C 70% 2.0 mph SW3.2 kmh SW 12.0 mph19.3 kmh 30.36 in1028.1 mb 0.00 in0.0 mm 0.00 in/hr0.0 mm/hr 0.00 in0.0 mm
12:55 AM 25.4°F-3.7°C 17.0°F-8.3°C 70% 1.0 mph SW1.6 kmh SW 12.0 mph19.3 kmh 30.36 in1028.1 mb 0.00 in0.0 mm 0.00 in/hr0.0 mm/hr 0.00 in0.0 mm
12:58 AM 25.5°F-3.6°C 17.1°F-8.3°C 70% 5.0 mph WSW8.0 kmh WSW 12.0 mph19.3 kmh 30.36 in1028.1 mb 0.00 in0.0 mm 0.00 in/hr0.0 mm/hr 0.00 in0.0 mm
12:59 AM 25.5°F-3.6°C 17.1°F-8.3°C 70% 7.0 mph WSW11.3 kmh WSW 12.0 mph19.3 kmh 30.36 in1028.1 mb 0.00 in0.0 mm 0.00 in/hr0.0 mm/hr 0.00 in0.0 mm
01:00 AM 25.6°F-3.6°C 17.5°F-8.1°C 71% 4.0 mph WSW6.4 kmh WSW 6.0 mph9.7 kmh 30.36 in1028.1 mb 0.00 in0.0 mm 0.00 in/hr0.0 mm/hr 0.00 in0.0 mm
01:03 AM 25.7°F-3.5°C 17.6°F-8.0°C 71% 7.0 mph SW11.3 kmh SW 11.0 mph17.7 kmh 30.36 in1028.1 mb 0.00 in0.0 mm 0.00 in/hr0.0 mm/hr 0.00 in0.0 mm
01:04 AM 25.8°F-3.4°C 17.7°F-7.9°C 71% 8.0 mph SW12.9 kmh SW 11.0 mph17.7 kmh 30.36 in1028.1 mb 0.00 in0.0 mm 0.00 in/hr0.0 mm/hr 0.00 in0.0 mm
01:05 AM 25.8°F-3.4°C 17.7°F-7.9°C 71% 2.0 mph SW3.2 kmh SW 11.0 mph17.7 kmh 30.36 in1028.1 mb 0.00 in0.0 mm 0.00 in/hr0.0 mm/hr 0.00 in0.0 mm
01:08 AM 25.8°F-3.4°C 17.7°F-7.9°C 71% 9.0 mph SW14.5 kmh SW 11.0 mph17.7 kmh 30.35 in1027.8 mb 0.00 in0.0 mm 0.00 in/hr0.0 mm/hr 0.00 in0.0 mm
01:09 AM 25.8°F-3.4°C 17.7°F-7.9°C 71% 6.0 mph SW9.7 kmh SW 11.0 mph17.7 kmh 30.35 in1027.8 mb 0.00 in0.0 mm 0.00 in/hr0.0 mm/hr 0.00 in0.0 mm
01:10 AM 25.8°F-3.4°C 19.3°F-7.1°C 76% 5.0 mph SW8.0 kmh SW 12.0 mph19.3 kmh 30.35 in1027.8 mb 0.00 in0.0 mm 0.00 in/hr0.0 mm/hr 0.00 in0.0 mm
01:13 AM 25.8°F-3.4°C 17.7°F-7.9°C 71% 4.0 mph SW6.4 kmh SW 12.0 mph19.3 kmh 30.35 in1027.8 mb 0.00 in0.0 mm 0.00 in/hr0.0 mm/hr 0.00 in0.0 mm
01:14 AM 25.9°F-3.4°C 17.8°F-7.9°C 71% 1.0 mph SW1.6 kmh SW 12.0 mph19.3 kmh 30.35 in1027.8 mb 0.00 in0.0 mm 0.00 in/hr0.0 mm/hr 0.00 in0.0 mm
01:15 AM 25.9°F-3.4°C 17.8°F-7.9°C 71% 4.0 mph SW6.4 kmh SW 12.0 mph19.3 kmh 30.35 in1027.8 mb 0.00 in0.0 mm 0.00 in/hr0.0 mm/hr 0.00 in0.0 mm
01:18 AM 25.9°F-3.4°C 17.8°F-7.9°C 71% 3.0 mph WSW4.8 kmh WSW 12.0 mph19.3 kmh 30.35 in1027.8 mb 0.00 in0.0 mm 0.00 in/hr0.0 mm/hr 0.00 in0.0 mm
01:19 AM 26.0°F-3.3°C 17.9°F-7.8°C 71% 2.0 mph WSW3.2 kmh WSW 12.0 mph19.3 kmh 30.35 in1027.8 mb 0.00 in0.0 mm 0.00 in/hr0.0 mm/hr 0.00 in0.0 mm
01:20 AM 26.0°F-3.3°C 17.9°F-7.8°C 71% 2.0 mph WSW3.2 kmh WSW 12.0 mph19.3 kmh 30.35 in1027.8 mb 0.00 in0.0 mm 0.00 in/hr0.0 mm/hr 0.00 in0.0 mm
01:23 AM 26.0°F-3.3°C 17.9°F-7.8°C 71% 6.0 mph WSW9.7 kmh WSW 12.0 mph19.3 kmh 30.35 in1027.8 mb 0.00 in0.0 mm 0.00 in/hr0.0 mm/hr 0.00 in0.0 mm
01:24 AM 26.0°F-3.3°C 17.9°F-7.8°C 71% 3.0 mph WSW4.8 kmh WSW 12.0 mph19.3 kmh 30.35 in1027.8 mb 0.00 in0.0 mm 0.00 in/hr0.0 mm/hr 0.00 in0.0 mm
01:25 AM 26.0°F-3.3°C 17.9°F-7.8°C 71% 5.0 mph SW8.0 kmh SW 12.0 mph19.3 kmh 30.35 in1027.8 mb 0.00 in0.0 mm 0.00 in/hr0.0 mm/hr 0.00 in0.0 mm
01:28 AM 26.0°F-3.3°C 17.9°F-7.8°C 71% 3.0 mph SW4.8 kmh SW 12.0 mph19.3 kmh 30.35 in1027.8 mb 0.00 in0.0 mm 0.00 in/hr0.0 mm/hr 0.00 in0.0 mm
01:29 AM 26.0°F-3.3°C 17.9°F-7.8°C 71% 5.0 mph SW8.0 kmh SW 12.0 mph19.3 kmh 30.35 in1027.8 mb 0.00 in0.0 mm 0.00 in/hr0.0 mm/hr 0.00 in0.0 mm
01:30 AM 25.9°F-3.4°C 17.8°F-7.9°C 71% 5.0 mph SW8.0 kmh SW 12.0 mph19.3 kmh 30.35 in1027.8 mb 0.00 in0.0 mm 0.00 in/hr0.0 mm/hr 0.00 in0.0 mm
01:33 AM 25.8°F-3.4°C 17.7°F-7.9°C 71% Calm Calm 12.0 mph19.3 kmh 30.35 in1027.8 mb 0.00 in0.0 mm 0.00 in/hr0.0 mm/hr 0.00 in0.0 mm
01:34 AM 25.8°F-3.4°C 17.7°F-7.9°C 71% 9.0 mph SW14.5 kmh SW 12.0 mph19.3 kmh 30.35 in1027.8 mb 0.00 in0.0 mm 0.00 in/hr0.0 mm/hr 0.00 in0.0 mm
01:35 AM 25.8°F-3.4°C 17.7°F-7.9°C 71% 5.0 mph SW8.0 kmh SW 12.0 mph19.3 kmh 30.35 in1027.8 mb 0.00 in0.0 mm 0.00 in/hr0.0 mm/hr 0.00 in0.0 mm
01:38 AM 25.9°F-3.4°C 17.8°F-7.9°C 71% 5.0 mph SW8.0 kmh SW 12.0 mph19.3 kmh 30.35 in1027.8 mb 0.00 in0.0 mm 0.00 in/hr0.0 mm/hr 0.00 in0.0 mm
01:39 AM 25.8°F-3.4°C 17.7°F-7.9°C 71% 2.0 mph SW3.2 kmh SW 12.0 mph19.3 kmh 30.34 in1027.4 mb 0.00 in0.0 mm 0.00 in/hr0.0 mm/hr 0.00 in0.0 mm
01:40 AM 25.9°F-3.4°C 17.8°F-7.9°C 71% 1.0 mph SW1.6 kmh SW 12.0 mph19.3 kmh 30.35 in1027.8 mb 0.00 in0.0 mm 0.00 in/hr0.0 mm/hr 0.00 in0.0 mm
01:43 AM 25.9°F-3.4°C 18.1°F-7.7°C 72% 2.0 mph SW3.2 kmh SW 12.0 mph19.3 kmh 30.34 in1027.4 mb 0.00 in0.0 mm 0.00 in/hr0.0 mm/hr 0.00 in0.0 mm
01:44 AM 25.9°F-3.4°C 17.8°F-7.9°C 71% 10.0 mph SW16.1 kmh SW 12.0 mph19.3 kmh 30.34 in1027.4 mb 0.00 in0.0 mm 0.00 in/hr0.0 mm/hr 0.00 in0.0 mm
01:45 AM 25.9°F-3.4°C 17.8°F-7.9°C 71% 10.0 mph SW16.1 kmh SW 12.0 mph19.3 kmh 30.34 in1027.4 mb 0.00 in0.0 mm 0.00 in/hr0.0 mm/hr 0.00 in0.0 mm
01:48 AM 25.8°F-3.4°C 17.7°F-7.9°C 71% 5.0 mph SW8.0 kmh SW 12.0 mph19.3 kmh 30.34 in1027.4 mb 0.00 in0.0 mm 0.00 in/hr0.0 mm/hr 0.00 in0.0 mm
01:49 AM 25.8°F-3.4°C 17.7°F-7.9°C 71% 4.0 mph SW6.4 kmh SW 12.0 mph19.3 kmh 30.34 in1027.4 mb 0.00 in0.0 mm 0.00 in/hr0.0 mm/hr 0.00 in0.0 mm
01:50 AM 25.8°F-3.4°C 18.0°F-7.8°C 72% 6.0 mph SW9.7 kmh SW 12.0 mph19.3 kmh 30.34 in1027.4 mb 0.00 in0.0 mm 0.00 in/hr0.0 mm/hr 0.00 in0.0 mm
01:53 AM 25.9°F-3.4°C 18.1°F-7.7°C 72% 4.0 mph SW6.4 kmh SW 12.0 mph19.3 kmh 30.34 in1027.4 mb 0.00 in0.0 mm 0.00 in/hr0.0 mm/hr 0.00 in0.0 mm
01:54 AM 25.9°F-3.4°C 18.1°F-7.7°C 72% 1.0 mph SW1.6 kmh SW 12.0 mph19.3 kmh 30.34 in1027.4 mb 0.00 in0.0 mm 0.00 in/hr0.0 mm/hr 0.00 in0.0 mm
01:55 AM 25.9°F-3.4°C 18.1°F-7.7°C 72% 1.0 mph SW1.6 kmh SW 12.0 mph19.3 kmh 30.34 in1027.4 mb 0.00 in0.0 mm 0.00 in/hr0.0 mm/hr 0.00 in0.0 mm
01:58 AM 26.1°F-3.3°C 18.3°F-7.6°C 72% 1.0 mph SW1.6 kmh SW 12.0 mph19.3 kmh 30.34 in1027.4 mb 0.00 in0.0 mm 0.00 in/hr0.0 mm/hr 0.00 in0.0 mm
01:59 AM 26.1°F-3.3°C 18.3°F-7.6°C 72% 2.0 mph SW3.2 kmh SW 12.0 mph19.3 kmh 30.34 in1027.4 mb 0.00 in0.0 mm 0.00 in/hr0.0 mm/hr 0.00 in0.0 mm
02:00 AM 26.1°F-3.3°C 18.3°F-7.6°C 72% Calm Calm 1.0 mph1.6 kmh 30.33 in1027.1 mb 0.00 in0.0 mm 0.00 in/hr0.0 mm/hr 0.00 in0.0 mm
02:03 AM 26.2°F-3.2°C 18.4°F-7.6°C 72% 3.0 mph SW4.8 kmh SW 6.0 mph9.7 kmh 30.33 in1027.1 mb 0.00 in0.0 mm 0.00 in/hr0.0 mm/hr 0.00 in0.0 mm
02:04 AM 26.2°F-3.2°C 18.4°F-7.6°C 72% 2.0 mph SW3.2 kmh SW 7.0 mph11.3 kmh 30.33 in1027.1 mb 0.00 in0.0 mm 0.00 in/hr0.0 mm/hr 0.00 in0.0 mm
02:05 AM 26.3°F-3.2°C 18.5°F-7.5°C 72% 3.0 mph SW4.8 kmh SW 7.0 mph11.3 kmh 30.33 in1027.1 mb 0.00 in0.0 mm 0.00 in/hr0.0 mm/hr 0.00 in0.0 mm
02:08 AM 26.4°F-3.1°C 18.9°F-7.3°C 73% Calm Calm 7.0 mph11.3 kmh 30.33 in1027.1 mb 0.00 in0.0 mm 0.00 in/hr0.0 mm/hr 0.00 in0.0 mm
02:09 AM 26.4°F-3.1°C 18.6°F-7.4°C 72% 4.0 mph SW6.4 kmh SW 7.0 mph11.3 kmh 30.33 in1027.1 mb 0.00 in0.0 mm 0.00 in/hr0.0 mm/hr 0.00 in0.0 mm
02:10 AM 26.5°F-3.1°C 19.0°F-7.2°C 73% 2.0 mph SW3.2 kmh SW 7.0 mph11.3 kmh 30.33 in1027.1 mb 0.00 in0.0 mm 0.00 in/hr0.0 mm/hr 0.00 in0.0 mm
02:13 AM 26.6°F-3.0°C 19.1°F-7.2°C 73% 5.0 mph SW8.0 kmh SW 7.0 mph11.3 kmh 30.33 in1027.1 mb 0.00 in0.0 mm 0.00 in/hr0.0 mm/hr 0.00 in0.0 mm
02:14 AM 26.7°F-2.9°C 19.2°F-7.1°C 73% 3.0 mph SW4.8 kmh SW 11.0 mph17.7 kmh 30.33 in1027.1 mb 0.00 in0.0 mm 0.00 in/hr0.0 mm/hr 0.00 in0.0 mm
02:15 AM 26.7°F-2.9°C 19.2°F-7.1°C 73% 6.0 mph SW9.7 kmh SW 11.0 mph17.7 kmh 30.33 in1027.1 mb 0.00 in0.0 mm 0.00 in/hr0.0 mm/hr 0.00 in0.0 mm
02:18 AM 26.7°F-2.9°C 19.2°F-7.1°C 73% 2.0 mph SW3.2 kmh SW 13.0 mph20.9 kmh 30.33 in1027.1 mb 0.00 in0.0 mm 0.00 in/hr0.0 mm/hr 0.00 in0.0 mm
02:19 AM 26.7°F-2.9°C 19.2°F-7.1°C 73% 2.0 mph SW3.2 kmh SW 13.0 mph20.9 kmh 30.33 in1027.1 mb 0.00 in0.0 mm 0.00 in/hr0.0 mm/hr 0.00 in0.0 mm
02:20 AM 26.7°F-2.9°C 19.2°F-7.1°C 73% 5.0 mph SW8.0 kmh SW 13.0 mph20.9 kmh 30.33 in1027.1 mb 0.00 in0.0 mm 0.00 in/hr0.0 mm/hr 0.00 in0.0 mm
02:23 AM 26.8°F-2.9°C 19.3°F-7.1°C 73% 4.0 mph SW6.4 kmh SW 13.0 mph20.9 kmh 30.33 in1027.1 mb 0.00 in0.0 mm 0.00 in/hr0.0 mm/hr 0.00 in0.0 mm
02:24 AM 26.9°F-2.8°C 19.4°F-7.0°C 73% Calm Calm 13.0 mph20.9 kmh 30.33 in1027.1 mb 0.00 in0.0 mm 0.00 in/hr0.0 mm/hr 0.00 in0.0 mm
02:25 AM 27.0°F-2.8°C 19.5°F-6.9°C 73% Calm Calm 13.0 mph20.9 kmh 30.33 in1027.1 mb 0.00 in0.0 mm 0.00 in/hr0.0 mm/hr 0.00 in0.0 mm
02:28 AM 27.2°F-2.7°C 20.0°F-6.7°C 74% 6.0 mph SW9.7 kmh SW 13.0 mph20.9 kmh 30.33 in1027.1 mb 0.00 in0.0 mm 0.00 in/hr0.0 mm/hr 0.00 in0.0 mm
02:29 AM 27.3°F-2.6°C 20.1°F-6.6°C 74% 8.0 mph SW12.9 kmh SW 14.0 mph22.5 kmh 30.33 in1027.1 mb 0.00 in0.0 mm 0.00 in/hr0.0 mm/hr 0.00 in0.0 mm
02:30 AM 27.4°F-2.6°C 20.2°F-6.6°C 74% 10.0 mph SW16.1 kmh SW 14.0 mph22.5 kmh 30.33 in1027.1 mb 0.00 in0.0 mm 0.00 in/hr0.0 mm/hr 0.00 in0.0 mm
02:33 AM 27.6°F-2.4°C 20.4°F-6.4°C 74% 3.0 mph WSW4.8 kmh WSW 14.0 mph22.5 kmh 30.33 in1027.1 mb 0.00 in0.0 mm 0.00 in/hr0.0 mm/hr 0.00 in0.0 mm
02:34 AM 27.7°F-2.4°C 20.5°F-6.4°C 74% 4.0 mph WSW6.4 kmh WSW 14.0 mph22.5 kmh 30.33 in1027.1 mb 0.00 in0.0 mm 0.00 in/hr0.0 mm/hr 0.00 in0.0 mm
02:35 AM 27.8°F-2.3°C 20.6°F-6.3°C 74% 2.0 mph WSW3.2 kmh WSW 14.0 mph22.5 kmh 30.33 in1027.1 mb 0.00 in0.0 mm 0.00 in/hr0.0 mm/hr 0.00 in0.0 mm
02:38 AM 27.9°F-2.3°C 20.7°F-6.3°C 74% 3.0 mph SW4.8 kmh SW 14.0 mph22.5 kmh 30.33 in1027.1 mb 0.00 in0.0 mm 0.00 in/hr0.0 mm/hr 0.00 in0.0 mm
02:39 AM 27.9°F-2.3°C 20.7°F-6.3°C 74% 4.0 mph SW6.4 kmh SW 14.0 mph22.5 kmh 30.33 in1027.1 mb 0.00 in0.0 mm 0.00 in/hr0.0 mm/hr 0.00 in0.0 mm
02:40 AM 27.9°F-2.3°C 20.7°F-6.3°C 74% 8.0 mph SW12.9 kmh SW 14.0 mph22.5 kmh 30.33 in1027.1 mb 0.00 in0.0 mm 0.00 in/hr0.0 mm/hr 0.00 in0.0 mm
02:43 AM 27.9°F-2.3°C 20.7°F-6.3°C 74% 9.0 mph WSW14.5 kmh WSW 14.0 mph22.5 kmh 30.33 in1027.1 mb 0.00 in0.0 mm 0.00 in/hr0.0 mm/hr 0.00 in0.0 mm
02:44 AM 27.9°F-2.3°C 20.7°F-6.3°C 74% 2.0 mph WSW3.2 kmh WSW 14.0 mph22.5 kmh 30.33 in1027.1 mb 0.00 in0.0 mm 0.00 in/hr0.0 mm/hr 0.00 in0.0 mm
02:45 AM 27.9°F-2.3°C 20.7°F-6.3°C 74% 6.0 mph WSW9.7 kmh WSW 14.0 mph22.5 kmh 30.32 in1026.8 mb 0.00 in0.0 mm 0.00 in/hr0.0 mm/hr 0.00 in0.0 mm
02:48 AM 28.0°F-2.2°C 20.8°F-6.2°C 74% 9.0 mph SW14.5 kmh SW 16.0 mph25.7 kmh 30.33 in1027.1 mb 0.00 in0.0 mm 0.00 in/hr0.0 mm/hr 0.00 in0.0 mm
02:49 AM 28.0°F-2.2°C 20.8°F-6.2°C 74% 6.0 mph SW9.7 kmh SW 16.0 mph25.7 kmh 30.32 in1026.8 mb 0.00 in0.0 mm 0.00 in/hr0.0 mm/hr 0.00 in0.0 mm
02:50 AM 28.0°F-2.2°C 20.8°F-6.2°C 74% 7.0 mph SW11.3 kmh SW 16.0 mph25.7 kmh 30.32 in1026.8 mb 0.00 in0.0 mm 0.00 in/hr0.0 mm/hr 0.00 in0.0 mm
02:53 AM 28.1°F-2.2°C 20.9°F-6.2°C 74% 2.0 mph SW3.2 kmh SW 16.0 mph25.7 kmh 30.32 in1026.8 mb 0.00 in0.0 mm 0.00 in/hr0.0 mm/hr 0.00 in0.0 mm
02:54 AM 28.0°F-2.2°C 20.8°F-6.2°C 74% 4.0 mph SW6.4 kmh SW 16.0 mph25.7 kmh 30.32 in1026.8 mb 0.00 in0.0 mm 0.00 in/hr0.0 mm/hr 0.00 in0.0 mm
02:55 AM 28.0°F-2.2°C 20.8°F-6.2°C 74% 1.0 mph SW1.6 kmh SW 16.0 mph25.7 kmh 30.32 in1026.8 mb 0.00 in0.0 mm 0.00 in/hr0.0 mm/hr 0.00 in0.0 mm
02:58 AM 28.0°F-2.2°C 20.8°F-6.2°C 74% 7.0 mph SW11.3 kmh SW 16.0 mph25.7 kmh 30.32 in1026.8 mb 0.00 in0.0 mm 0.00 in/hr0.0 mm/hr 0.00 in0.0 mm
02:59 AM 28.0°F-2.2°C 20.8°F-6.2°C 74% 4.0 mph SW6.4 kmh SW 16.0 mph25.7 kmh 30.32 in1026.8 mb 0.00 in0.0 mm 0.00 in/hr0.0 mm/hr 0.00 in0.0 mm
03:00 AM 27.9°F-2.3°C 20.7°F-6.3°C 74% 4.0 mph SW6.4 kmh SW 6.0 mph9.7 kmh 30.32 in1026.8 mb 0.00 in0.0 mm 0.00 in/hr0.0 mm/hr 0.00 in0.0 mm
03:03 AM 27.9°F-2.3°C 20.7°F-6.3°C 74% 9.0 mph SW14.5 kmh SW 9.0 mph14.5 kmh 30.32 in1026.8 mb 0.00 in0.0 mm 0.00 in/hr0.0 mm/hr 0.00 in0.0 mm
03:04 AM 27.9°F-2.3°C 20.7°F-6.3°C 74% 9.0 mph SW14.5 kmh SW 10.0 mph16.1 kmh 30.32 in1026.8 mb 0.00 in0.0 mm 0.00 in/hr0.0 mm/hr 0.00 in0.0 mm
03:05 AM 27.9°F-2.3°C 20.7°F-6.3°C 74% 6.0 mph SW9.7 kmh SW 10.0 mph16.1 kmh 30.32 in1026.8 mb 0.00 in0.0 mm 0.00 in/hr0.0 mm/hr 0.00 in0.0 mm
03:08 AM 27.9°F-2.3°C 20.7°F-6.3°C 74% 3.0 mph SW4.8 kmh SW 10.0 mph16.1 kmh 30.32 in1026.8 mb 0.00 in0.0 mm 0.00 in/hr0.0 mm/hr 0.00 in0.0 mm
03:09 AM 28.0°F-2.2°C 21.1°F-6.1°C 75% 5.0 mph SW8.0 kmh SW 11.0 mph17.7 kmh 30.32 in1026.8 mb 0.00 in0.0 mm 0.00 in/hr0.0 mm/hr 0.00 in0.0 mm
03:10 AM 28.0°F-2.2°C 21.1°F-6.1°C 75% 5.0 mph SW8.0 kmh SW 11.0 mph17.7 kmh 30.32 in1026.8 mb 0.00 in0.0 mm 0.00 in/hr0.0 mm/hr 0.00 in0.0 mm
03:13 AM 28.0°F-2.2°C 20.8°F-6.2°C 74% 2.0 mph SW3.2 kmh SW 11.0 mph17.7 kmh 30.32 in1026.8 mb 0.00 in0.0 mm 0.00 in/hr0.0 mm/hr 0.00 in0.0 mm
03:14 AM 28.0°F-2.2°C 20.8°F-6.2°C 74% 3.0 mph SW4.8 kmh SW 11.0 mph17.7 kmh 30.31 in1026.4 mb 0.00 in0.0 mm 0.00 in/hr0.0 mm/hr 0.00 in0.0 mm
03:15 AM 28.0°F-2.2°C 20.8°F-6.2°C 74% 5.0 mph SW8.0 kmh SW 11.0 mph17.7 kmh 30.31 in1026.4 mb 0.00 in0.0 mm 0.00 in/hr0.0 mm/hr 0.00 in0.0 mm
03:18 AM 28.0°F-2.2°C 21.1°F-6.1°C 75% 5.0 mph W8.0 kmh W 11.0 mph17.7 kmh 30.32 in1026.8 mb 0.00 in0.0 mm 0.00 in/hr0.0 mm/hr 0.00 in0.0 mm
03:19 AM 28.0°F-2.2°C 21.1°F-6.1°C 75% 5.0 mph WSW8.0 kmh WSW 11.0 mph17.7 kmh 30.31 in1026.4 mb 0.00 in0.0 mm 0.00 in/hr0.0 mm/hr 0.00 in0.0 mm
03:20 AM 28.0°F-2.2°C 21.1°F-6.1°C 75% 5.0 mph SW8.0 kmh SW 11.0 mph17.7 kmh 30.31 in1026.4 mb 0.00 in0.0 mm 0.00 in/hr0.0 mm/hr 0.00 in0.0 mm
03:23 AM 28.0°F-2.2°C 20.8°F-6.2°C 74% 5.0 mph SW8.0 kmh SW 11.0 mph17.7 kmh 30.31 in1026.4 mb 0.00 in0.0 mm 0.00 in/hr0.0 mm/hr 0.00 in0.0 mm
03:24 AM 28.0°F-2.2°C 20.8°F-6.2°C 74% 6.0 mph SW9.7 kmh SW 11.0 mph17.7 kmh 30.31 in1026.4 mb 0.00 in0.0 mm 0.00 in/hr0.0 mm/hr 0.00 in0.0 mm
03:25 AM 27.9°F-2.3°C 20.7°F-6.3°C 74% 4.0 mph SW6.4 kmh SW 11.0 mph17.7 kmh 30.31 in1026.4 mb 0.00 in0.0 mm 0.00 in/hr0.0 mm/hr 0.00 in0.0 mm
03:28 AM 27.9°F-2.3°C 20.7°F-6.3°C 74% 4.0 mph SW6.4 kmh SW 11.0 mph17.7 kmh 30.31 in1026.4 mb 0.00 in0.0 mm 0.00 in/hr0.0 mm/hr 0.00 in0.0 mm
03:29 AM 27.9°F-2.3°C 20.7°F-6.3°C 74% 3.0 mph SW4.8 kmh SW 11.0 mph17.7 kmh 30.31 in1026.4 mb 0.00 in0.0 mm 0.00 in/hr0.0 mm/hr 0.00 in0.0 mm
03:30 AM 27.9°F-2.3°C 20.7°F-6.3°C 74% 6.0 mph SW9.7 kmh SW 11.0 mph17.7 kmh 30.31 in1026.4 mb 0.00 in0.0 mm 0.00 in/hr0.0 mm/hr 0.00 in0.0 mm
03:33 AM 28.0°F-2.2°C 21.1°F-6.1°C 75% 3.0 mph SW4.8 kmh SW 11.0 mph17.7 kmh 30.31 in1026.4 mb 0.00 in0.0 mm 0.00 in/hr0.0 mm/hr 0.00 in0.0 mm
03:34 AM 28.0°F-2.2°C 21.1°F-6.1°C 75% Calm Calm 11.0 mph17.7 kmh 30.31 in1026.4 mb 0.00 in0.0 mm 0.00 in/hr0.0 mm/hr 0.00 in0.0 mm
03:35 AM 28.0°F-2.2°C 21.1°F-6.1°C 75% 6.0 mph SW9.7 kmh SW 11.0 mph17.7 kmh 30.31 in1026.4 mb 0.00 in0.0 mm 0.00 in/hr0.0 mm/hr 0.00 in0.0 mm
03:38 AM 28.0°F-2.2°C 20.8°F-6.2°C 74% 2.0 mph SW3.2 kmh SW 11.0 mph17.7 kmh 30.31 in1026.4 mb 0.00 in0.0 mm 0.00 in/hr0.0 mm/hr 0.00 in0.0 mm
03:39 AM 28.0°F-2.2°C 21.1°F-6.1°C 75% 1.0 mph SW1.6 kmh SW 11.0 mph17.7 kmh 30.31 in1026.4 mb 0.00 in0.0 mm 0.00 in/hr0.0 mm/hr 0.00 in0.0 mm
03:40 AM 28.0°F-2.2°C 21.1°F-6.1°C 75% 6.0 mph SW9.7 kmh SW 11.0 mph17.7 kmh 30.31 in1026.4 mb 0.00 in0.0 mm 0.00 in/hr0.0 mm/hr 0.00 in0.0 mm
03:43 AM 28.0°F-2.2°C 21.1°F-6.1°C 75% 1.0 mph SW1.6 kmh SW 11.0 mph17.7 kmh 30.31 in1026.4 mb 0.00 in0.0 mm 0.00 in/hr0.0 mm/hr 0.00 in0.0 mm
03:44 AM 28.0°F-2.2°C 21.1°F-6.1°C 75% 6.0 mph SW9.7 kmh SW 11.0 mph17.7 kmh 30.31 in1026.4 mb 0.00 in0.0 mm 0.00 in/hr0.0 mm/hr 0.00 in0.0 mm
03:45 AM 28.1°F-2.2°C 21.2°F-6.0°C 75% 3.0 mph SW4.8 kmh SW 11.0 mph17.7 kmh 30.30 in1026.1 mb 0.00 in0.0 mm 0.00 in/hr0.0 mm/hr 0.00 in0.0 mm
03:48 AM 28.1°F-2.2°C 21.2°F-6.0°C 75% 2.0 mph SW3.2 kmh SW 11.0 mph17.7 kmh 30.30 in1026.1 mb 0.00 in0.0 mm 0.00 in/hr0.0 mm/hr 0.00 in0.0 mm
03:49 AM 28.1°F-2.2°C 21.2°F-6.0°C 75% 3.0 mph SW4.8 kmh SW 11.0 mph17.7 kmh 30.30 in1026.1 mb 0.00 in0.0 mm 0.00 in/hr0.0 mm/hr 0.00 in0.0 mm
03:50 AM 28.1°F-2.2°C 21.2°F-6.0°C 75% 4.0 mph SW6.4 kmh SW 11.0 mph17.7 kmh 30.30 in1026.1 mb 0.00 in0.0 mm 0.00 in/hr0.0 mm/hr 0.00 in0.0 mm
03:53 AM 28.2°F-2.1°C 21.3°F-5.9°C 75% Calm Calm 11.0 mph17.7 kmh 30.30 in1026.1 mb 0.00 in0.0 mm 0.00 in/hr0.0 mm/hr 0.00 in0.0 mm
03:54 AM 28.2°F-2.1°C 21.3°F-5.9°C 75% 4.0 mph SW6.4 kmh SW 11.0 mph17.7 kmh 30.30 in1026.1 mb 0.00 in0.0 mm 0.00 in/hr0.0 mm/hr 0.00 in0.0 mm
03:55 AM 28.2°F-2.1°C 21.3°F-5.9°C 75% 8.0 mph SW12.9 kmh SW 11.0 mph17.7 kmh 30.30 in1026.1 mb 0.00 in0.0 mm 0.00 in/hr0.0 mm/hr 0.00 in0.0 mm
03:58 AM 28.1°F-2.2°C 21.2°F-6.0°C 75% Calm Calm 11.0 mph17.7 kmh 30.29 in1025.7 mb 0.00 in0.0 mm 0.00 in/hr0.0 mm/hr 0.00 in0.0 mm
03:59 AM 28.1°F-2.2°C 21.2°F-6.0°C 75% 1.0 mph SW1.6 kmh SW 11.0 mph17.7 kmh 30.29 in1025.7 mb 0.00 in0.0 mm 0.00 in/hr0.0 mm/hr 0.00 in0.0 mm
04:00 AM 28.1°F-2.2°C 21.2°F-6.0°C 75% 3.0 mph SW4.8 kmh SW 3.0 mph4.8 kmh 30.29 in1025.7 mb 0.00 in0.0 mm 0.00 in/hr0.0 mm/hr 0.00 in0.0 mm
04:03 AM 28.1°F-2.2°C 21.2°F-6.0°C 75% 4.0 mph SW6.4 kmh SW 8.0 mph12.9 kmh 30.29 in1025.7 mb 0.00 in0.0 mm 0.00 in/hr0.0 mm/hr 0.00 in0.0 mm
04:04 AM 28.1°F-2.2°C 21.2°F-6.0°C 75% 5.0 mph SW8.0 kmh SW 8.0 mph12.9 kmh 30.29 in1025.7 mb 0.00 in0.0 mm 0.00 in/hr0.0 mm/hr 0.00 in0.0 mm
04:05 AM 28.1°F-2.2°C 21.2°F-6.0°C 75% 8.0 mph SW12.9 kmh SW 8.0 mph12.9 kmh 30.29 in1025.7 mb 0.00 in0.0 mm 0.00 in/hr0.0 mm/hr 0.00 in0.0 mm
04:08 AM 28.1°F-2.2°C 21.2°F-6.0°C 75% Calm Calm 8.0 mph12.9 kmh 30.29 in1025.7 mb 0.00 in0.0 mm 0.00 in/hr0.0 mm/hr 0.00 in0.0 mm
04:09 AM 28.1°F-2.2°C 21.2°F-6.0°C 75% 2.0 mph SW3.2 kmh SW 8.0 mph12.9 kmh 30.29 in1025.7 mb 0.00 in0.0 mm 0.00 in/hr0.0 mm/hr 0.00 in0.0 mm
04:10 AM 28.1°F-2.2°C 21.2°F-6.0°C 75% 8.0 mph SW12.9 kmh SW 8.0 mph12.9 kmh 30.29 in1025.7 mb 0.00 in0.0 mm 0.00 in/hr0.0 mm/hr 0.00 in0.0 mm
04:13 AM 28.1°F-2.2°C 21.2°F-6.0°C 75% 2.0 mph SW3.2 kmh SW 8.0 mph12.9 kmh 30.29 in1025.7 mb 0.00 in0.0 mm 0.00 in/hr0.0 mm/hr 0.00 in0.0 mm
04:14 AM 28.1°F-2.2°C 21.2°F-6.0°C 75% 1.0 mph SW1.6 kmh SW 8.0 mph12.9 kmh 30.29 in1025.7 mb 0.00 in0.0 mm 0.00 in/hr0.0 mm/hr 0.00 in0.0 mm
04:15 AM 28.1°F-2.2°C 21.2°F-6.0°C 75% 3.0 mph SW4.8 kmh SW 8.0 mph12.9 kmh 30.29 in1025.7 mb 0.00 in0.0 mm 0.00 in/hr0.0 mm/hr 0.00 in0.0 mm
04:18 AM 28.1°F-2.2°C 21.2°F-6.0°C 75% 5.0 mph SW8.0 kmh SW 9.0 mph14.5 kmh 30.29 in1025.7 mb 0.00 in0.0 mm 0.00 in/hr0.0 mm/hr 0.00 in0.0 mm
04:19 AM 28.0°F-2.2°C 21.1°F-6.1°C 75% 2.0 mph SW3.2 kmh SW 9.0 mph14.5 kmh 30.29 in1025.7 mb 0.00 in0.0 mm 0.00 in/hr0.0 mm/hr 0.00 in0.0 mm
04:20 AM 28.1°F-2.2°C 21.2°F-6.0°C 75% 1.0 mph SW1.6 kmh SW 9.0 mph14.5 kmh 30.29 in1025.7 mb 0.00 in0.0 mm 0.00 in/hr0.0 mm/hr 0.00 in0.0 mm
04:23 AM 28.2°F-2.1°C 21.3°F-5.9°C 75% 4.0 mph SW6.4 kmh SW 9.0 mph14.5 kmh 30.29 in1025.7 mb 0.00 in0.0 mm 0.00 in/hr0.0 mm/hr 0.00 in0.0 mm
04:24 AM 28.1°F-2.2°C 21.2°F-6.0°C 75% 5.0 mph SW8.0 kmh SW 9.0 mph14.5 kmh 30.29 in1025.7 mb 0.00 in0.0 mm 0.00 in/hr0.0 mm/hr 0.00 in0.0 mm
04:25 AM 28.2°F-2.1°C 21.3°F-5.9°C 75% 2.0 mph SW3.2 kmh SW 9.0 mph14.5 kmh 30.29 in1025.7 mb 0.00 in0.0 mm 0.00 in/hr0.0 mm/hr 0.00 in0.0 mm
04:28 AM 28.2°F-2.1°C 21.3°F-5.9°C 75% 1.0 mph SW1.6 kmh SW 9.0 mph14.5 kmh 30.29 in1025.7 mb 0.00 in0.0 mm 0.00 in/hr0.0 mm/hr 0.00 in0.0 mm
04:29 AM 28.2°F-2.1°C 21.3°F-5.9°C 75% 3.0 mph SW4.8 kmh SW 9.0 mph14.5 kmh 30.28 in1025.4 mb 0.00 in0.0 mm 0.00 in/hr0.0 mm/hr 0.00 in0.0 mm
04:30 AM 28.2°F-2.1°C 21.3°F-5.9°C 75% 2.0 mph SW3.2 kmh SW 9.0 mph14.5 kmh 30.28 in1025.4 mb 0.00 in0.0 mm 0.00 in/hr0.0 mm/hr 0.00 in0.0 mm
04:33 AM 28.2°F-2.1°C 21.3°F-5.9°C 75% 1.0 mph SW1.6 kmh SW 9.0 mph14.5 kmh 30.28 in1025.4 mb 0.00 in0.0 mm 0.00 in/hr0.0 mm/hr 0.00 in0.0 mm
04:34 AM 28.2°F-2.1°C 21.3°F-5.9°C 75% Calm Calm 9.0 mph14.5 kmh 30.28 in1025.4 mb 0.00 in0.0 mm 0.00 in/hr0.0 mm/hr 0.00 in0.0 mm
04:35 AM 28.2°F-2.1°C 21.3°F-5.9°C 75% 4.0 mph SW6.4 kmh SW 9.0 mph14.5 kmh 30.28 in1025.4 mb 0.00 in0.0 mm 0.00 in/hr0.0 mm/hr 0.00 in0.0 mm
04:38 AM 28.3°F-2.1°C 21.7°F-5.7°C 76% 6.0 mph SW9.7 kmh SW 9.0 mph14.5 kmh 30.28 in1025.4 mb 0.00 in0.0 mm 0.00 in/hr0.0 mm/hr 0.00 in0.0 mm
04:39 AM 28.3°F-2.1°C 21.7°F-5.7°C 76% 1.0 mph SW1.6 kmh SW 9.0 mph14.5 kmh 30.28 in1025.4 mb 0.00 in0.0 mm 0.00 in/hr0.0 mm/hr 0.00 in0.0 mm
04:40 AM 28.4°F-2.0°C 21.8°F-5.7°C 76% 4.0 mph SW6.4 kmh SW 9.0 mph14.5 kmh 30.27 in1025.1 mb 0.00 in0.0 mm 0.00 in/hr0.0 mm/hr 0.00 in0.0 mm
04:43 AM 28.4°F-2.0°C 21.8°F-5.7°C 76% 3.0 mph SW4.8 kmh SW 9.0 mph14.5 kmh 30.27 in1025.1 mb 0.00 in0.0 mm 0.00 in/hr0.0 mm/hr 0.00 in0.0 mm
04:44 AM 28.4°F-2.0°C 21.8°F-5.7°C 76% 1.0 mph SW1.6 kmh SW 9.0 mph14.5 kmh 30.27 in1025.1 mb 0.00 in0.0 mm 0.00 in/hr0.0 mm/hr 0.00 in0.0 mm
04:45 AM 28.4°F-2.0°C 21.8°F-5.7°C 76% 2.0 mph SW3.2 kmh SW 9.0 mph14.5 kmh 30.27 in1025.1 mb 0.00 in0.0 mm 0.00 in/hr0.0 mm/hr 0.00 in0.0 mm
04:48 AM 28.4°F-2.0°C 21.8°F-5.7°C 76% 2.0 mph SW3.2 kmh SW 9.0 mph14.5 kmh 30.27 in1025.1 mb 0.00 in0.0 mm 0.00 in/hr0.0 mm/hr 0.00 in0.0 mm
04:49 AM 28.4°F-2.0°C 21.8°F-5.7°C 76% 1.0 mph SW1.6 kmh SW 9.0 mph14.5 kmh 30.27 in1025.1 mb 0.00 in0.0 mm 0.00 in/hr0.0 mm/hr 0.00 in0.0 mm
04:50 AM 28.4°F-2.0°C 21.8°F-5.7°C 76% Calm Calm 9.0 mph14.5 kmh 30.27 in1025.1 mb 0.00 in0.0 mm 0.00 in/hr0.0 mm/hr 0.00 in0.0 mm
04:53 AM 28.5°F-1.9°C 21.9°F-5.6°C 76% 4.0 mph SW6.4 kmh SW 9.0 mph14.5 kmh 30.27 in1025.1 mb 0.00 in0.0 mm 0.00 in/hr0.0 mm/hr 0.00 in0.0 mm
04:54 AM 28.5°F-1.9°C 21.9°F-5.6°C 76% 4.0 mph SW6.4 kmh SW 9.0 mph14.5 kmh 30.27 in1025.1 mb 0.00 in0.0 mm 0.00 in/hr0.0 mm/hr 0.00 in0.0 mm
04:55 AM 28.5°F-1.9°C 21.9°F-5.6°C 76% Calm Calm 9.0 mph14.5 kmh 30.27 in1025.1 mb 0.00 in0.0 mm 0.00 in/hr0.0 mm/hr 0.00 in0.0 mm
04:58 AM 28.6°F-1.9°C 22.3°F-5.4°C 77% 3.0 mph SW4.8 kmh SW 9.0 mph14.5 kmh 30.27 in1025.1 mb 0.00 in0.0 mm 0.00 in/hr0.0 mm/hr 0.00 in0.0 mm
04:59 AM 28.6°F-1.9°C 22.3°F-5.4°C 77% 1.0 mph SW1.6 kmh SW 9.0 mph14.5 kmh 30.27 in1025.1 mb 0.00 in0.0 mm 0.00 in/hr0.0 mm/hr 0.00 in0.0 mm
05:00 AM 28.8°F-1.8°C 22.5°F-5.3°C 77% Calm Calm -- 30.26 in1024.7 mb 0.00 in0.0 mm 0.00 in/hr0.0 mm/hr 0.00 in0.0 mm
05:03 AM 28.8°F-1.8°C 22.5°F-5.3°C 77% 3.0 mph SW4.8 kmh SW 3.0 mph4.8 kmh 30.26 in1024.7 mb 0.00 in0.0 mm 0.00 in/hr0.0 mm/hr 0.00 in0.0 mm
05:04 AM 28.8°F-1.8°C 22.5°F-5.3°C 77% 1.0 mph SW1.6 kmh SW 5.0 mph8.0 kmh 30.26 in1024.7 mb 0.00 in0.0 mm 0.00 in/hr0.0 mm/hr 0.00 in0.0 mm
05:05 AM 28.9°F-1.7°C 22.6°F-5.2°C 77% 1.0 mph SW1.6 kmh SW 5.0 mph8.0 kmh 30.26 in1024.7 mb 0.00 in0.0 mm 0.00 in/hr0.0 mm/hr 0.00 in0.0 mm
05:08 AM 28.9°F-1.7°C 22.6°F-5.2°C 77% 1.0 mph SW1.6 kmh SW 7.0 mph11.3 kmh 30.26 in1024.7 mb 0.00 in0.0 mm 0.00 in/hr0.0 mm/hr 0.00 in0.0 mm
05:09 AM 28.9°F-1.7°C 22.6°F-5.2°C 77% 2.0 mph SW3.2 kmh SW 7.0 mph11.3 kmh 30.26 in1024.7 mb 0.00 in0.0 mm 0.00 in/hr0.0 mm/hr 0.00 in0.0 mm
05:10 AM 29.0°F-1.7°C 22.7°F-5.2°C 77% Calm Calm 7.0 mph11.3 kmh 30.26 in1024.7 mb 0.00 in0.0 mm 0.00 in/hr0.0 mm/hr 0.00 in0.0 mm
05:13 AM 29.0°F-1.7°C 22.7°F-5.2°C 77% Calm Calm 7.0 mph11.3 kmh 30.26 in1024.7 mb 0.00 in0.0 mm 0.00 in/hr0.0 mm/hr 0.00 in0.0 mm
05:14 AM 29.0°F-1.7°C 22.7°F-5.2°C 77% 5.0 mph SW8.0 kmh SW 7.0 mph11.3 kmh 30.25 in1024.4 mb 0.00 in0.0 mm 0.00 in/hr0.0 mm/hr 0.00 in0.0 mm
05:15 AM 29.1°F-1.6°C 22.8°F-5.1°C 77% 4.0 mph SW6.4 kmh SW 7.0 mph11.3 kmh 30.25 in1024.4 mb 0.00 in0.0 mm 0.00 in/hr0.0 mm/hr 0.00 in0.0 mm
05:18 AM 29.1°F-1.6°C 22.8°F-5.1°C 77% 5.0 mph SW8.0 kmh SW 7.0 mph11.3 kmh 30.25 in1024.4 mb 0.00 in0.0 mm 0.00 in/hr0.0 mm/hr 0.00 in0.0 mm
05:19 AM 29.0°F-1.7°C 22.7°F-5.2°C 77% 4.0 mph SW6.4 kmh SW 7.0 mph11.3 kmh 30.25 in1024.4 mb 0.00 in0.0 mm 0.00 in/hr0.0 mm/hr 0.00 in0.0 mm
05:20 AM 29.0°F-1.7°C 22.7°F-5.2°C 77% 3.0 mph SW4.8 kmh SW 7.0 mph11.3 kmh 30.25 in1024.4 mb 0.00 in0.0 mm 0.00 in/hr0.0 mm/hr 0.00 in0.0 mm
05:23 AM 29.1°F-1.6°C 23.1°F-4.9°C 78% 5.0 mph SW8.0 kmh SW 7.0 mph11.3 kmh 30.25 in1024.4 mb 0.00 in0.0 mm 0.00 in/hr0.0 mm/hr 0.00 in0.0 mm
05:24 AM 29.2°F-1.6°C 23.2°F-4.9°C 78% 2.0 mph SW3.2 kmh SW 7.0 mph11.3 kmh 30.25 in1024.4 mb 0.00 in0.0 mm 0.00 in/hr0.0 mm/hr 0.00 in0.0 mm
05:25 AM 29.3°F-1.5°C 23.3°F-4.8°C 78% 3.0 mph SW4.8 kmh SW 7.0 mph11.3 kmh 30.25 in1024.4 mb 0.00 in0.0 mm 0.00 in/hr0.0 mm/hr 0.00 in0.0 mm
05:28 AM 29.4°F-1.4°C 23.4°F-4.8°C 78% 3.0 mph SW4.8 kmh SW 7.0 mph11.3 kmh 30.25 in1024.4 mb 0.00 in0.0 mm 0.00 in/hr0.0 mm/hr 0.00 in0.0 mm
05:29 AM 29.4°F-1.4°C 23.4°F-4.8°C 78% 1.0 mph SW1.6 kmh SW 7.0 mph11.3 kmh 30.25 in1024.4 mb 0.00 in0.0 mm 0.00 in/hr0.0 mm/hr 0.00 in0.0 mm
05:30 AM 29.5°F-1.4°C 23.5°F-4.7°C 78% Calm Calm 7.0 mph11.3 kmh 30.25 in1024.4 mb 0.00 in0.0 mm 0.00 in/hr0.0 mm/hr 0.00 in0.0 mm
05:33 AM 29.6°F-1.3°C 23.6°F-4.7°C 78% 5.0 mph SW8.0 kmh SW 7.0 mph11.3 kmh 30.24 in1024.0 mb 0.00 in0.0 mm 0.00 in/hr0.0 mm/hr 0.00 in0.0 mm
05:34 AM 29.6°F-1.3°C 23.6°F-4.7°C 78% 2.0 mph SW3.2 kmh SW 7.0 mph11.3 kmh 30.24 in1024.0 mb 0.00 in0.0 mm 0.00 in/hr0.0 mm/hr 0.00 in0.0 mm
05:35 AM 29.6°F-1.3°C 23.6°F-4.7°C 78% 3.0 mph SW4.8 kmh SW 7.0 mph11.3 kmh 30.24 in1024.0 mb 0.00 in0.0 mm 0.00 in/hr0.0 mm/hr 0.00 in0.0 mm
05:38 AM 29.8°F-1.2°C 23.8°F-4.6°C 78% 3.0 mph SW4.8 kmh SW 7.0 mph11.3 kmh 30.24 in1024.0 mb 0.00 in0.0 mm 0.00 in/hr0.0 mm/hr 0.00 in0.0 mm
05:39 AM 29.8°F-1.2°C 24.1°F-4.4°C 79% 5.0 mph SW8.0 kmh SW 7.0 mph11.3 kmh 30.24 in1024.0 mb 0.00 in0.0 mm 0.00 in/hr0.0 mm/hr 0.00 in0.0 mm
05:40 AM 29.8°F-1.2°C 24.1°F-4.4°C 79% 2.0 mph SW3.2 kmh SW 7.0 mph11.3 kmh 30.24 in1024.0 mb 0.00 in0.0 mm 0.00 in/hr0.0 mm/hr 0.00 in0.0 mm
05:43 AM 29.9°F-1.2°C 24.2°F-4.3°C 79% 5.0 mph SW8.0 kmh SW 7.0 mph11.3 kmh 30.24 in1024.0 mb 0.00 in0.0 mm 0.00 in/hr0.0 mm/hr 0.00 in0.0 mm
05:44 AM 29.9°F-1.2°C 24.2°F-4.3°C 79% 1.0 mph SW1.6 kmh SW 7.0 mph11.3 kmh 30.24 in1024.0 mb 0.00 in0.0 mm 0.00 in/hr0.0 mm/hr 0.00 in0.0 mm
05:45 AM 29.9°F-1.2°C 24.2°F-4.3°C 79% 4.0 mph SW6.4 kmh SW 7.0 mph11.3 kmh 30.24 in1024.0 mb 0.00 in0.0 mm 0.00 in/hr0.0 mm/hr 0.00 in0.0 mm
05:48 AM 30.0°F-1.1°C 24.3°F-4.3°C 79% 1.0 mph SW1.6 kmh SW 7.0 mph11.3 kmh 30.23 in1023.7 mb 0.00 in0.0 mm 0.00 in/hr0.0 mm/hr 0.00 in0.0 mm
05:49 AM 30.0°F-1.1°C 24.3°F-4.3°C 79% 2.0 mph SW3.2 kmh SW 7.0 mph11.3 kmh 30.23 in1023.7 mb 0.00 in0.0 mm 0.00 in/hr0.0 mm/hr 0.00 in0.0 mm
05:50 AM 30.0°F-1.1°C 24.3°F-4.3°C 79% 3.0 mph SW4.8 kmh SW 7.0 mph11.3 kmh 30.23 in1023.7 mb 0.00 in0.0 mm 0.00 in/hr0.0 mm/hr 0.00 in0.0 mm
05:53 AM 30.1°F-1.1°C 24.4°F-4.2°C 79% 1.0 mph SW1.6 kmh SW 7.0 mph11.3 kmh 30.23 in1023.7 mb 0.00 in0.0 mm 0.00 in/hr0.0 mm/hr 0.00 in0.0 mm
05:54 AM 30.1°F-1.1°C 24.4°F-4.2°C 79% 6.0 mph SW9.7 kmh SW 7.0 mph11.3 kmh 30.23 in1023.7 mb 0.00 in0.0 mm 0.00 in/hr0.0 mm/hr 0.00 in0.0 mm
05:55 AM 30.1°F-1.1°C 24.4°F-4.2°C 79% 1.0 mph SW1.6 kmh SW 7.0 mph11.3 kmh 30.23 in1023.7 mb 0.00 in0.0 mm 0.00 in/hr0.0 mm/hr 0.00 in0.0 mm
05:58 AM 30.2°F-1.0°C 24.5°F-4.2°C 79% 3.0 mph SW4.8 kmh SW 7.0 mph11.3 kmh 30.23 in1023.7 mb 0.00 in0.0 mm 0.00 in/hr0.0 mm/hr 0.00 in0.0 mm
05:59 AM 30.2°F-1.0°C 24.5°F-4.2°C 79% 3.0 mph SW4.8 kmh SW 7.0 mph11.3 kmh 30.23 in1023.7 mb 0.00 in0.0 mm 0.00 in/hr0.0 mm/hr 0.00 in0.0 mm
06:00 AM 30.3°F-0.9°C 24.6°F-4.1°C 79% 2.0 mph SW3.2 kmh SW 3.0 mph4.8 kmh 30.23 in1023.7 mb 0.00 in0.0 mm 0.00 in/hr0.0 mm/hr 0.00 in0.0 mm
06:03 AM 30.4°F-0.9°C 24.7°F-4.1°C 79% Calm Calm 4.0 mph6.4 kmh 30.23 in1023.7 mb 0.00 in0.0 mm 0.00 in/hr0.0 mm/hr 0.00 in0.0 mm
06:04 AM 30.4°F-0.9°C 25.0°F-3.9°C 80% 4.0 mph SW6.4 kmh SW 5.0 mph8.0 kmh 30.23 in1023.7 mb 0.00 in0.0 mm 0.00 in/hr0.0 mm/hr 0.00 in0.0 mm
06:05 AM 30.5°F-0.8°C 24.8°F-4.0°C 79% 4.0 mph SW6.4 kmh SW 8.0 mph12.9 kmh 30.23 in1023.7 mb 0.00 in0.0 mm 0.00 in/hr0.0 mm/hr 0.00 in0.0 mm
06:08 AM 30.4°F-0.9°C 24.7°F-4.1°C 79% 2.0 mph SW3.2 kmh SW 8.0 mph12.9 kmh 30.23 in1023.7 mb 0.00 in0.0 mm 0.00 in/hr0.0 mm/hr 0.00 in0.0 mm
06:09 AM 30.5°F-0.8°C 24.8°F-4.0°C 79% 1.0 mph SW1.6 kmh SW 8.0 mph12.9 kmh 30.23 in1023.7 mb 0.00 in0.0 mm 0.00 in/hr0.0 mm/hr 0.00 in0.0 mm
06:10 AM 30.5°F-0.8°C 24.8°F-4.0°C 79% 3.0 mph SW4.8 kmh SW 8.0 mph12.9 kmh 30.23 in1023.7 mb 0.00 in0.0 mm 0.00 in/hr0.0 mm/hr 0.00 in0.0 mm
06:13 AM 30.5°F-0.8°C 24.8°F-4.0°C 79% 4.0 mph SW6.4 kmh SW 8.0 mph12.9 kmh 30.22 in1023.4 mb 0.00 in0.0 mm 0.00 in/hr0.0 mm/hr 0.00 in0.0 mm
06:14 AM 30.5°F-0.8°C 24.8°F-4.0°C 79% 3.0 mph SW4.8 kmh SW 8.0 mph12.9 kmh 30.22 in1023.4 mb 0.00 in0.0 mm 0.00 in/hr0.0 mm/hr 0.00 in0.0 mm
06:15 AM 30.6°F-0.8°C 24.9°F-3.9°C 79% 5.0 mph SW8.0 kmh SW 8.0 mph12.9 kmh 30.22 in1023.4 mb 0.00 in0.0 mm 0.00 in/hr0.0 mm/hr 0.00 in0.0 mm
06:18 AM 30.6°F-0.8°C 25.2°F-3.8°C 80% 5.0 mph SW8.0 kmh SW 8.0 mph12.9 kmh 30.22 in1023.4 mb 0.00 in0.0 mm 0.00 in/hr0.0 mm/hr 0.00 in0.0 mm
06:19 AM 30.6°F-0.8°C 25.2°F-3.8°C 80% 6.0 mph SW9.7 kmh SW 8.0 mph12.9 kmh 30.22 in1023.4 mb 0.00 in0.0 mm 0.00 in/hr0.0 mm/hr 0.00 in0.0 mm
06:20 AM 30.7°F-0.7°C 25.3°F-3.7°C 80% 5.0 mph SW8.0 kmh SW 9.0 mph14.5 kmh 30.22 in1023.4 mb 0.00 in0.0 mm 0.00 in/hr0.0 mm/hr 0.00 in0.0 mm
06:23 AM 30.8°F-0.7°C 25.4°F-3.7°C 80% 7.0 mph SW11.3 kmh SW 9.0 mph14.5 kmh 30.21 in1023.0 mb 0.00 in0.0 mm 0.00 in/hr0.0 mm/hr 0.00 in0.0 mm
06:24 AM 30.8°F-0.7°C 25.4°F-3.7°C 80% 2.0 mph SW3.2 kmh SW 9.0 mph14.5 kmh 30.22 in1023.4 mb 0.00 in0.0 mm 0.00 in/hr0.0 mm/hr 0.00 in0.0 mm
06:25 AM 30.8°F-0.7°C 25.4°F-3.7°C 80% Calm Calm 9.0 mph14.5 kmh 30.22 in1023.4 mb 0.00 in0.0 mm 0.00 in/hr0.0 mm/hr 0.00 in0.0 mm
06:28 AM 30.9°F-0.6°C 25.5°F-3.6°C 80% 4.0 mph SW6.4 kmh SW 9.0 mph14.5 kmh 30.22 in1023.4 mb 0.00 in0.0 mm 0.00 in/hr0.0 mm/hr 0.00 in0.0 mm
06:29 AM 31.0°F-0.6°C 25.6°F-3.6°C 80% 9.0 mph SW14.5 kmh SW 9.0 mph14.5 kmh 30.22 in1023.4 mb 0.00 in0.0 mm 0.00 in/hr0.0 mm/hr 0.00 in0.0 mm
06:30 AM 31.1°F-0.5°C 25.7°F-3.5°C 80% 4.0 mph SW6.4 kmh SW 9.0 mph14.5 kmh 30.22 in1023.4 mb 0.00 in0.0 mm 0.00 in/hr0.0 mm/hr 0.00 in0.0 mm
06:33 AM 31.5°F-0.3°C 26.4°F-3.1°C 81% 7.0 mph SW11.3 kmh SW 11.0 mph17.7 kmh 30.22 in1023.4 mb 0.00 in0.0 mm 0.00 in/hr0.0 mm/hr 0.00 in0.0 mm
06:34 AM 31.6°F-0.2°C 26.5°F-3.1°C 81% 2.0 mph SW3.2 kmh SW 11.0 mph17.7 kmh 30.22 in1023.4 mb 0.00 in0.0 mm 0.00 in/hr0.0 mm/hr 0.00 in0.0 mm
06:35 AM 31.8°F-0.1°C 26.7°F-2.9°C 81% 1.0 mph SW1.6 kmh SW 11.0 mph17.7 kmh 30.21 in1023.0 mb 0.00 in0.0 mm 0.00 in/hr0.0 mm/hr 0.00 in0.0 mm
06:38 AM 32.2°F0.1°C 27.0°F-2.8°C 81% 4.0 mph SW6.4 kmh SW 11.0 mph17.7 kmh 30.21 in1023.0 mb 0.00 in0.0 mm 0.00 in/hr0.0 mm/hr 0.00 in0.0 mm
06:39 AM 32.3°F0.2°C 27.1°F-2.7°C 81% 12.0 mph SW19.3 kmh SW 12.0 mph19.3 kmh 30.21 in1023.0 mb 0.00 in0.0 mm 0.00 in/hr0.0 mm/hr 0.00 in0.0 mm
06:40 AM 32.4°F0.2°C 27.2°F-2.7°C 81% 3.0 mph SW4.8 kmh SW 13.0 mph20.9 kmh 30.21 in1023.0 mb 0.00 in0.0 mm 0.00 in/hr0.0 mm/hr 0.00 in0.0 mm
06:43 AM 32.8°F0.4°C 27.6°F-2.4°C 81% 7.0 mph SSW11.3 kmh SSW 13.0 mph20.9 kmh 30.21 in1023.0 mb 0.00 in0.0 mm 0.00 in/hr0.0 mm/hr 0.00 in0.0 mm
06:44 AM 32.9°F0.5°C 27.4°F-2.6°C 80% 3.0 mph SSW4.8 kmh SSW 13.0 mph20.9 kmh 30.21 in1023.0 mb 0.00 in0.0 mm 0.00 in/hr0.0 mm/hr 0.00 in0.0 mm
06:45 AM 33.0°F0.6°C 27.5°F-2.5°C 80% 3.0 mph SSW4.8 kmh SSW 13.0 mph20.9 kmh 30.21 in1023.0 mb 0.00 in0.0 mm 0.00 in/hr0.0 mm/hr 0.00 in0.0 mm
06:48 AM 33.3°F0.7°C 27.8°F-2.3°C 80% 13.0 mph SW20.9 kmh SW 13.0 mph20.9 kmh 30.21 in1023.0 mb 0.00 in0.0 mm 0.00 in/hr0.0 mm/hr 0.00 in0.0 mm
06:49 AM 33.4°F0.8°C 27.9°F-2.3°C 80% 3.0 mph SW4.8 kmh SW 13.0 mph20.9 kmh 30.21 in1023.0 mb 0.00 in0.0 mm 0.00 in/hr0.0 mm/hr 0.00 in0.0 mm
06:50 AM 33.4°F0.8°C 27.9°F-2.3°C 80% Calm Calm 13.0 mph20.9 kmh 30.21 in1023.0 mb 0.00 in0.0 mm 0.00 in/hr0.0 mm/hr 0.00 in0.0 mm
06:53 AM 33.5°F0.8°C 27.7°F-2.4°C 79% 2.0 mph S3.2 kmh S 16.0 mph25.7 kmh 30.21 in1023.0 mb 0.00 in0.0 mm 0.00 in/hr0.0 mm/hr 0.00 in0.0 mm
06:54 AM 33.5°F0.8°C 27.7°F-2.4°C 79% 4.0 mph SW6.4 kmh SW 16.0 mph25.7 kmh 30.21 in1023.0 mb 0.00 in0.0 mm 0.00 in/hr0.0 mm/hr 0.00 in0.0 mm
06:55 AM 33.5°F0.8°C 27.7°F-2.4°C 79% 1.0 mph SSW1.6 kmh SSW 16.0 mph25.7 kmh 30.21 in1023.0 mb 0.00 in0.0 mm 0.00 in/hr0.0 mm/hr 0.00 in0.0 mm
06:58 AM 33.6°F0.9°C 27.8°F-2.3°C 79% 4.0 mph SW6.4 kmh SW 16.0 mph25.7 kmh 30.21 in1023.0 mb 0.00 in0.0 mm 0.00 in/hr0.0 mm/hr 0.00 in0.0 mm
06:59 AM 33.6°F0.9°C 27.8°F-2.3°C 79% 2.0 mph SW3.2 kmh SW 16.0 mph25.7 kmh 30.21 in1023.0 mb 0.00 in0.0 mm 0.00 in/hr0.0 mm/hr 0.00 in0.0 mm
07:00 AM 33.6°F0.9°C 27.5°F-2.5°C 78% 4.0 mph SW6.4 kmh SW 4.0 mph6.4 kmh 30.21 in1023.0 mb 0.00 in0.0 mm 0.00 in/hr0.0 mm/hr 0.00 in0.0 mm
07:03 AM 33.6°F0.9°C 27.5°F-2.5°C 78% 4.0 mph SSW6.4 kmh SSW 12.0 mph19.3 kmh 30.20 in1022.7 mb 0.00 in0.0 mm 0.00 in/hr0.0 mm/hr 0.00 in0.0 mm
07:04 AM 33.6°F0.9°C 27.5°F-2.5°C 78% 4.0 mph SSW6.4 kmh SSW 12.0 mph19.3 kmh 30.20 in1022.7 mb 0.00 in0.0 mm 0.00 in/hr0.0 mm/hr 0.00 in0.0 mm
07:05 AM 33.6°F0.9°C 27.5°F-2.5°C 78% 8.0 mph WSW12.9 kmh WSW 12.0 mph19.3 kmh 30.20 in1022.7 mb 0.00 in0.0 mm 0.00 in/hr0.0 mm/hr 0.00 in0.0 mm
07:08 AM 33.8°F1.0°C 27.7°F-2.4°C 78% 4.0 mph S6.4 kmh S 13.0 mph20.9 kmh 30.20 in1022.7 mb 0.00 in0.0 mm 0.00 in/hr0.0 mm/hr 0.00 in0.0 mm
07:09 AM 33.8°F1.0°C 27.7°F-2.4°C 78% 3.0 mph SSW4.8 kmh SSW 13.0 mph20.9 kmh 30.20 in1022.7 mb 0.00 in0.0 mm 0.00 in/hr0.0 mm/hr 0.00 in0.0 mm
07:10 AM 33.8°F1.0°C 27.4°F-2.6°C 77% 5.0 mph SSW8.0 kmh SSW 13.0 mph20.9 kmh 30.21 in1023.0 mb 0.00 in0.0 mm 0.00 in/hr0.0 mm/hr 0.00 in0.0 mm
07:13 AM 33.8°F1.0°C 27.4°F-2.6°C 77% 12.0 mph WSW19.3 kmh WSW 14.0 mph22.5 kmh 30.21 in1023.0 mb 0.00 in0.0 mm 0.00 in/hr0.0 mm/hr 0.00 in0.0 mm
07:14 AM 33.8°F1.0°C 27.4°F-2.6°C 77% 9.0 mph WSW14.5 kmh WSW 14.0 mph22.5 kmh 30.21 in1023.0 mb 0.00 in0.0 mm 0.00 in/hr0.0 mm/hr 0.00 in0.0 mm
07:15 AM 33.8°F1.0°C 27.1°F-2.7°C 76% 6.0 mph SW9.7 kmh SW 14.0 mph22.5 kmh 30.21 in1023.0 mb 0.00 in0.0 mm 0.00 in/hr0.0 mm/hr 0.00 in0.0 mm
07:18 AM 33.8°F1.0°C 27.1°F-2.7°C 76% 4.0 mph SW6.4 kmh SW 14.0 mph22.5 kmh 30.21 in1023.0 mb 0.00 in0.0 mm 0.00 in/hr0.0 mm/hr 0.00 in0.0 mm
07:19 AM 33.8°F1.0°C 27.1°F-2.7°C 76% 4.0 mph SW6.4 kmh SW 17.0 mph27.4 kmh 30.21 in1023.0 mb 0.00 in0.0 mm 0.00 in/hr0.0 mm/hr 0.00 in0.0 mm
07:20 AM 33.8°F1.0°C 27.1°F-2.7°C 76% 11.0 mph WSW17.7 kmh WSW 17.0 mph27.4 kmh 30.21 in1023.0 mb 0.00 in0.0 mm 0.00 in/hr0.0 mm/hr 0.00 in0.0 mm
07:23 AM 33.7°F0.9°C 27.0°F-2.8°C 76% 3.0 mph SSW4.8 kmh SSW 17.0 mph27.4 kmh 30.21 in1023.0 mb 0.00 in0.0 mm 0.00 in/hr0.0 mm/hr 0.00 in0.0 mm
07:24 AM 33.7°F0.9°C 27.0°F-2.8°C 76% 5.0 mph SW8.0 kmh SW 17.0 mph27.4 kmh 30.20 in1022.7 mb 0.00 in0.0 mm 0.00 in/hr0.0 mm/hr 0.00 in0.0 mm
07:25 AM 33.7°F0.9°C 27.0°F-2.8°C 76% 6.0 mph WSW9.7 kmh WSW 17.0 mph27.4 kmh 30.20 in1022.7 mb 0.00 in0.0 mm 0.00 in/hr0.0 mm/hr 0.00 in0.0 mm
07:28 AM 33.6°F0.9°C 26.5°F-3.1°C 75% 1.0 mph S1.6 kmh S 17.0 mph27.4 kmh 30.20 in1022.7 mb 0.00 in0.0 mm 0.00 in/hr0.0 mm/hr 0.00 in0.0 mm
07:29 AM 33.6°F0.9°C 26.5°F-3.1°C 75% 1.0 mph S1.6 kmh S 17.0 mph27.4 kmh 30.20 in1022.7 mb 0.00 in0.0 mm 0.00 in/hr0.0 mm/hr 0.00 in0.0 mm
07:30 AM 33.6°F0.9°C 26.5°F-3.1°C 75% Calm Calm 17.0 mph27.4 kmh 30.20 in1022.7 mb 0.00 in0.0 mm 0.00 in/hr0.0 mm/hr 0.00 in0.0 mm
07:33 AM 33.5°F0.8°C 26.4°F-3.1°C 75% 7.0 mph SSE11.3 kmh SSE 17.0 mph27.4 kmh 30.20 in1022.7 mb 0.00 in0.0 mm 0.00 in/hr0.0 mm/hr 0.00 in0.0 mm
07:34 AM 33.5°F0.8°C 26.4°F-3.1°C 75% 6.0 mph SW9.7 kmh SW 17.0 mph27.4 kmh 30.20 in1022.7 mb 0.00 in0.0 mm 0.00 in/hr0.0 mm/hr 0.00 in0.0 mm
07:35 AM 33.5°F0.8°C 26.4°F-3.1°C 75% 9.0 mph WSW14.5 kmh WSW 17.0 mph27.4 kmh 30.19 in1022.4 mb 0.00 in0.0 mm 0.00 in/hr0.0 mm/hr 0.00 in0.0 mm
07:38 AM 33.5°F0.8°C 26.4°F-3.1°C 75% 5.0 mph WSW8.0 kmh WSW 17.0 mph27.4 kmh 30.19 in1022.4 mb 0.00 in0.0 mm 0.00 in/hr0.0 mm/hr 0.00 in0.0 mm
07:39 AM 33.5°F0.8°C 26.4°F-3.1°C 75% 3.0 mph WSW4.8 kmh WSW 17.0 mph27.4 kmh 30.19 in1022.4 mb 0.00 in0.0 mm 0.00 in/hr0.0 mm/hr 0.00 in0.0 mm
07:40 AM 33.5°F0.8°C 26.4°F-3.1°C 75% 2.0 mph WSW3.2 kmh WSW 17.0 mph27.4 kmh 30.19 in1022.4 mb 0.00 in0.0 mm 0.00 in/hr0.0 mm/hr 0.00 in0.0 mm
07:43 AM 33.5°F0.8°C 26.4°F-3.1°C 75% 2.0 mph WSW3.2 kmh WSW 17.0 mph27.4 kmh 30.19 in1022.4 mb 0.00 in0.0 mm 0.00 in/hr0.0 mm/hr 0.00 in0.0 mm
07:44 AM 33.5°F0.8°C 26.4°F-3.1°C 75% 2.0 mph WSW3.2 kmh WSW 17.0 mph27.4 kmh 30.19 in1022.4 mb 0.00 in0.0 mm 0.00 in/hr0.0 mm/hr 0.00 in0.0 mm
07:45 AM 33.5°F0.8°C 26.4°F-3.1°C 75% 2.0 mph WSW3.2 kmh WSW 17.0 mph27.4 kmh 30.19 in1022.4 mb 0.00 in0.0 mm 0.00 in/hr0.0 mm/hr 0.00 in0.0 mm
07:48 AM 33.5°F0.8°C 26.1°F-3.3°C 74% 5.0 mph SSW8.0 kmh SSW 17.0 mph27.4 kmh 30.19 in1022.4 mb 0.00 in0.0 mm 0.00 in/hr0.0 mm/hr 0.00 in0.0 mm
07:49 AM 33.5°F0.8°C 26.1°F-3.3°C 74% 5.0 mph SSW8.0 kmh SSW 17.0 mph27.4 kmh 30.18 in1022.0 mb 0.00 in0.0 mm 0.00 in/hr0.0 mm/hr 0.00 in0.0 mm
07:50 AM 33.6°F0.9°C 26.2°F-3.2°C 74% 3.0 mph S4.8 kmh S 17.0 mph27.4 kmh 30.18 in1022.0 mb 0.00 in0.0 mm 0.00 in/hr0.0 mm/hr 0.00 in0.0 mm
07:53 AM 33.6°F0.9°C 26.2°F-3.2°C 74% 3.0 mph WSW4.8 kmh WSW 17.0 mph27.4 kmh 30.19 in1022.4 mb 0.00 in0.0 mm 0.00 in/hr0.0 mm/hr 0.00 in0.0 mm
07:54 AM 33.6°F0.9°C 26.2°F-3.2°C 74% 3.0 mph WSW4.8 kmh WSW 17.0 mph27.4 kmh 30.18 in1022.0 mb 0.00 in0.0 mm 0.00 in/hr0.0 mm/hr 0.00 in0.0 mm
07:55 AM 33.6°F0.9°C 26.2°F-3.2°C 74% 8.0 mph S12.9 kmh S 17.0 mph27.4 kmh 30.18 in1022.0 mb 0.00 in0.0 mm 0.00 in/hr0.0 mm/hr 0.00 in0.0 mm
07:58 AM 33.7°F0.9°C 26.3°F-3.2°C 74% 2.0 mph WSW3.2 kmh WSW 17.0 mph27.4 kmh 30.19 in1022.4 mb 0.00 in0.0 mm 0.00 in/hr0.0 mm/hr 0.00 in0.0 mm
07:59 AM 33.7°F0.9°C 26.3°F-3.2°C 74% 2.0 mph WSW3.2 kmh WSW 17.0 mph27.4 kmh 30.19 in1022.4 mb 0.00 in0.0 mm 0.00 in/hr0.0 mm/hr 0.00 in0.0 mm
08:00 AM 33.7°F0.9°C 26.3°F-3.2°C 74% 9.0 mph WSW14.5 kmh WSW 9.0 mph14.5 kmh 30.18 in1022.0 mb 0.00 in0.0 mm 0.00 in/hr0.0 mm/hr 0.00 in0.0 mm
08:03 AM 33.6°F0.9°C 25.9°F-3.4°C 73% 7.0 mph WSW11.3 kmh WSW 18.0 mph29.0 kmh 30.19 in1022.4 mb 0.00 in0.0 mm 0.00 in/hr0.0 mm/hr 0.00 in0.0 mm
08:04 AM 33.6°F0.9°C 25.9°F-3.4°C 73% 8.0 mph WSW12.9 kmh WSW 18.0 mph29.0 kmh 30.18 in1022.0 mb 0.00 in0.0 mm 0.00 in/hr0.0 mm/hr 0.00 in0.0 mm
08:05 AM 33.6°F0.9°C 25.9°F-3.4°C 73% 3.0 mph WSW4.8 kmh WSW 18.0 mph29.0 kmh 30.18 in1022.0 mb 0.00 in0.0 mm 0.00 in/hr0.0 mm/hr 0.00 in0.0 mm
08:08 AM 33.7°F0.9°C 26.0°F-3.3°C 73% 1.0 mph SSW1.6 kmh SSW 18.0 mph29.0 kmh 30.18 in1022.0 mb 0.00 in0.0 mm 0.00 in/hr0.0 mm/hr 0.00 in0.0 mm
08:09 AM 33.8°F1.0°C 26.1°F-3.3°C 73% 5.0 mph SSW8.0 kmh SSW 18.0 mph29.0 kmh 30.19 in1022.4 mb 0.00 in0.0 mm 0.00 in/hr0.0 mm/hr 0.00 in0.0 mm
08:10 AM 33.8°F1.0°C 26.1°F-3.3°C 73% 5.0 mph WSW8.0 kmh WSW 18.0 mph29.0 kmh 30.18 in1022.0 mb 0.00 in0.0 mm 0.00 in/hr0.0 mm/hr 0.00 in0.0 mm
08:13 AM 33.9°F1.1°C 26.2°F-3.2°C 73% 1.0 mph WSW1.6 kmh WSW 18.0 mph29.0 kmh 30.18 in1022.0 mb 0.00 in0.0 mm 0.00 in/hr0.0 mm/hr 0.00 in0.0 mm
08:14 AM 33.9°F1.1°C 26.2°F-3.2°C 73% 2.0 mph S3.2 kmh S 18.0 mph29.0 kmh 30.18 in1022.0 mb 0.00 in0.0 mm 0.00 in/hr0.0 mm/hr 0.00 in0.0 mm
08:15 AM 34.0°F1.1°C 26.3°F-3.2°C 73% 4.0 mph SW6.4 kmh SW 18.0 mph29.0 kmh 30.18 in1022.0 mb 0.00 in0.0 mm 0.00 in/hr0.0 mm/hr 0.00 in0.0 mm
08:18 AM 34.0°F1.1°C 26.3°F-3.2°C 73% 3.0 mph SW4.8 kmh SW 18.0 mph29.0 kmh 30.18 in1022.0 mb 0.00 in0.0 mm 0.00 in/hr0.0 mm/hr 0.00 in0.0 mm
08:19 AM 34.1°F1.2°C 26.4°F-3.1°C 73% 10.0 mph SW16.1 kmh SW 18.0 mph29.0 kmh 30.17 in1021.7 mb 0.00 in0.0 mm 0.00 in/hr0.0 mm/hr 0.00 in0.0 mm
08:20 AM 34.1°F1.2°C 26.4°F-3.1°C 73% 6.0 mph SW9.7 kmh SW 18.0 mph29.0 kmh 30.18 in1022.0 mb 0.00 in0.0 mm 0.00 in/hr0.0 mm/hr 0.00 in0.0 mm
08:23 AM 34.2°F1.2°C 26.5°F-3.1°C 73% 2.0 mph SW3.2 kmh SW 18.0 mph29.0 kmh 30.17 in1021.7 mb 0.00 in0.0 mm 0.00 in/hr0.0 mm/hr 0.00 in0.0 mm
08:24 AM 34.2°F1.2°C 26.5°F-3.1°C 73% 4.0 mph SW6.4 kmh SW 18.0 mph29.0 kmh 30.17 in1021.7 mb 0.00 in0.0 mm 0.00 in/hr0.0 mm/hr 0.00 in0.0 mm
08:25 AM 34.3°F1.3°C 26.6°F-3.0°C 73% 5.0 mph S8.0 kmh S 18.0 mph29.0 kmh 30.17 in1021.7 mb 0.00 in0.0 mm 0.00 in/hr0.0 mm/hr 0.00 in0.0 mm
08:28 AM 34.3°F1.3°C 26.6°F-3.0°C 73% 10.0 mph S16.1 kmh S 18.0 mph29.0 kmh 30.17 in1021.7 mb 0.00 in0.0 mm 0.00 in/hr0.0 mm/hr 0.00 in0.0 mm
08:29 AM 34.3°F1.3°C 26.6°F-3.0°C 73% 3.0 mph SSW4.8 kmh SSW 18.0 mph29.0 kmh 30.17 in1021.7 mb 0.00 in0.0 mm 0.00 in/hr0.0 mm/hr 0.00 in0.0 mm
08:30 AM 34.3°F1.3°C 26.6°F-3.0°C 73% 6.0 mph SSW9.7 kmh SSW 18.0 mph29.0 kmh 30.17 in1021.7 mb 0.00 in0.0 mm 0.00 in/hr0.0 mm/hr 0.00 in0.0 mm
08:33 AM 34.3°F1.3°C 26.6°F-3.0°C 73% 5.0 mph SSW8.0 kmh SSW 18.0 mph29.0 kmh 30.17 in1021.7 mb 0.00 in0.0 mm 0.00 in/hr0.0 mm/hr 0.00 in0.0 mm
08:34 AM 34.4°F1.3°C 26.7°F-2.9°C 73% 6.0 mph SW9.7 kmh SW 18.0 mph29.0 kmh 30.17 in1021.7 mb 0.00 in0.0 mm 0.00 in/hr0.0 mm/hr 0.00 in0.0 mm
08:35 AM 34.4°F1.3°C 26.7°F-2.9°C 73% 9.0 mph SW14.5 kmh SW 18.0 mph29.0 kmh 30.17 in1021.7 mb 0.00 in0.0 mm 0.00 in/hr0.0 mm/hr 0.00 in0.0 mm
08:38 AM 34.5°F1.4°C 26.8°F-2.9°C 73% 10.0 mph WSW16.1 kmh WSW 18.0 mph29.0 kmh 30.17 in1021.7 mb 0.00 in0.0 mm 0.00 in/hr0.0 mm/hr 0.00 in0.0 mm
08:39 AM 34.5°F1.4°C 26.8°F-2.9°C 73% 8.0 mph SW12.9 kmh SW 18.0 mph29.0 kmh 30.17 in1021.7 mb 0.00 in0.0 mm 0.00 in/hr0.0 mm/hr 0.00 in0.0 mm
08:40 AM 34.5°F1.4°C 26.8°F-2.9°C 73% 4.0 mph SW6.4 kmh SW 18.0 mph29.0 kmh 30.17 in1021.7 mb 0.00 in0.0 mm 0.00 in/hr0.0 mm/hr 0.00 in0.0 mm
08:43 AM 34.4°F1.3°C 26.7°F-2.9°C 73% 8.0 mph SW12.9 kmh SW 18.0 mph29.0 kmh 30.17 in1021.7 mb 0.00 in0.0 mm 0.00 in/hr0.0 mm/hr 0.00 in0.0 mm
08:44 AM 34.4°F1.3°C 26.7°F-2.9°C 73% 6.0 mph SSW9.7 kmh SSW 18.0 mph29.0 kmh 30.17 in1021.7 mb 0.00 in0.0 mm 0.00 in/hr0.0 mm/hr 0.00 in0.0 mm
08:45 AM 34.4°F1.3°C 26.3°F-3.2°C 72% 10.0 mph WSW16.1 kmh WSW 18.0 mph29.0 kmh 30.17 in1021.7 mb 0.00 in0.0 mm 0.00 in/hr0.0 mm/hr 0.00 in0.0 mm
08:48 AM 34.4°F1.3°C 26.7°F-2.9°C 73% 6.0 mph SW9.7 kmh SW 18.0 mph29.0 kmh 30.17 in1021.7 mb 0.00 in0.0 mm 0.00 in/hr0.0 mm/hr 0.00 in0.0 mm
08:49 AM 34.4°F1.3°C 26.7°F-2.9°C 73% 9.0 mph SW14.5 kmh SW 18.0 mph29.0 kmh 30.17 in1021.7 mb 0.00 in0.0 mm 0.00 in/hr0.0 mm/hr 0.00 in0.0 mm
08:50 AM 34.4°F1.3°C 26.7°F-2.9°C 73% 8.0 mph SSW12.9 kmh SSW 18.0 mph29.0 kmh 30.17 in1021.7 mb 0.00 in0.0 mm 0.00 in/hr0.0 mm/hr 0.00 in0.0 mm
08:53 AM 34.5°F1.4°C 26.8°F-2.9°C 73% 5.0 mph SW8.0 kmh SW 18.0 mph29.0 kmh 30.16 in1021.3 mb 0.00 in0.0 mm 0.00 in/hr0.0 mm/hr 0.00 in0.0 mm
08:54 AM 34.5°F1.4°C 26.8°F-2.9°C 73% 8.0 mph SW12.9 kmh SW 18.0 mph29.0 kmh 30.16 in1021.3 mb 0.00 in0.0 mm 0.00 in/hr0.0 mm/hr 0.00 in0.0 mm
08:55 AM 34.5°F1.4°C 26.8°F-2.9°C 73% 3.0 mph SW4.8 kmh SW 18.0 mph29.0 kmh 30.16 in1021.3 mb 0.00 in0.0 mm 0.00 in/hr0.0 mm/hr 0.00 in0.0 mm
08:58 AM 34.7°F1.5°C 27.0°F-2.8°C 73% 6.0 mph SW9.7 kmh SW 18.0 mph29.0 kmh 30.15 in1021.0 mb 0.00 in0.0 mm 0.00 in/hr0.0 mm/hr 0.00 in0.0 mm
08:59 AM 34.7°F1.5°C 27.0°F-2.8°C 73% 7.0 mph SW11.3 kmh SW 18.0 mph29.0 kmh 30.16 in1021.3 mb 0.00 in0.0 mm 0.00 in/hr0.0 mm/hr 0.00 in0.0 mm
09:00 AM 34.8°F1.6°C 27.0°F-2.8°C 73% 8.0 mph WSW12.9 kmh WSW 10.0 mph16.1 kmh 30.16 in1021.3 mb 0.00 in0.0 mm 0.00 in/hr0.0 mm/hr 0.00 in0.0 mm
09:03 AM 34.9°F1.6°C 26.8°F-2.9°C 72% 8.0 mph WSW12.9 kmh WSW 15.0 mph24.1 kmh 30.15 in1021.0 mb 0.00 in0.0 mm 0.00 in/hr0.0 mm/hr 0.00 in0.0 mm
09:04 AM 34.9°F1.6°C 26.8°F-2.9°C 72% 6.0 mph SW9.7 kmh SW 15.0 mph24.1 kmh 30.15 in1021.0 mb 0.00 in0.0 mm 0.00 in/hr0.0 mm/hr 0.00 in0.0 mm
09:05 AM 34.9°F1.6°C 26.8°F-2.9°C 72% 6.0 mph SW9.7 kmh SW 15.0 mph24.1 kmh 30.15 in1021.0 mb 0.00 in0.0 mm 0.00 in/hr0.0 mm/hr 0.00 in0.0 mm
09:08 AM 34.9°F1.6°C 26.8°F-2.9°C 72% 4.0 mph WSW6.4 kmh WSW 15.0 mph24.1 kmh 30.15 in1021.0 mb 0.00 in0.0 mm 0.00 in/hr0.0 mm/hr 0.00 in0.0 mm
09:09 AM 35.0°F1.7°C 26.9°F-2.8°C 72% 8.0 mph SW12.9 kmh SW 15.0 mph24.1 kmh 30.14 in1020.7 mb 0.00 in0.0 mm 0.00 in/hr0.0 mm/hr 0.00 in0.0 mm
09:10 AM 35.0°F1.7°C 26.9°F-2.8°C 72% 6.0 mph SW9.7 kmh SW 18.0 mph29.0 kmh 30.14 in1020.7 mb 0.00 in0.0 mm 0.00 in/hr0.0 mm/hr 0.00 in0.0 mm
09:13 AM 35.0°F1.7°C 26.9°F-2.8°C 72% 2.0 mph SW3.2 kmh SW 18.0 mph29.0 kmh 30.14 in1020.7 mb 0.00 in0.0 mm 0.00 in/hr0.0 mm/hr 0.00 in0.0 mm
09:14 AM 35.0°F1.7°C 26.9°F-2.8°C 72% 3.0 mph SW4.8 kmh SW 18.0 mph29.0 kmh 30.14 in1020.7 mb 0.00 in0.0 mm 0.00 in/hr0.0 mm/hr 0.00 in0.0 mm
09:15 AM 35.1°F1.7°C 27.0°F-2.8°C 72% 7.0 mph SW11.3 kmh SW 18.0 mph29.0 kmh 30.14 in1020.7 mb 0.00 in0.0 mm 0.00 in/hr0.0 mm/hr 0.00 in0.0 mm
09:18 AM 35.2°F1.8°C 26.8°F-2.9°C 71% 5.0 mph SW8.0 kmh SW 18.0 mph29.0 kmh 30.14 in1020.7 mb 0.00 in0.0 mm 0.00 in/hr0.0 mm/hr 0.00 in0.0 mm
09:19 AM 35.2°F1.8°C 26.8°F-2.9°C 71% 7.0 mph SW11.3 kmh SW 18.0 mph29.0 kmh 30.14 in1020.7 mb 0.00 in0.0 mm 0.00 in/hr0.0 mm/hr 0.00 in0.0 mm
09:20 AM 35.2°F1.8°C 26.8°F-2.9°C 71% 3.0 mph WSW4.8 kmh WSW 18.0 mph29.0 kmh 30.15 in1021.0 mb 0.00 in0.0 mm 0.00 in/hr0.0 mm/hr 0.00 in0.0 mm
09:23 AM 35.2°F1.8°C 26.8°F-2.9°C 71% 6.0 mph WSW9.7 kmh WSW 18.0 mph29.0 kmh 30.14 in1020.7 mb 0.00 in0.0 mm 0.00 in/hr0.0 mm/hr 0.00 in0.0 mm
09:24 AM 35.2°F1.8°C 26.8°F-2.9°C 71% 3.0 mph WSW4.8 kmh WSW 18.0 mph29.0 kmh 30.14 in1020.7 mb 0.00 in0.0 mm 0.00 in/hr0.0 mm/hr 0.00 in0.0 mm
09:25 AM 35.2°F1.8°C 26.8°F-2.9°C 71% 3.0 mph WSW4.8 kmh WSW 18.0 mph29.0 kmh 30.14 in1020.7 mb 0.00 in0.0 mm 0.00 in/hr0.0 mm/hr 0.00 in0.0 mm
09:28 AM 35.4°F1.9°C 27.0°F-2.8°C 71% 8.0 mph WSW12.9 kmh WSW 18.0 mph29.0 kmh 30.14 in1020.7 mb 0.00 in0.0 mm 0.00 in/hr0.0 mm/hr 0.00 in0.0 mm
09:29 AM 35.4°F1.9°C 27.0°F-2.8°C 71% 5.0 mph WSW8.0 kmh WSW 18.0 mph29.0 kmh 30.14 in1020.7 mb 0.00 in0.0 mm 0.00 in/hr0.0 mm/hr 0.00 in0.0 mm
09:30 AM 35.4°F1.9°C 27.0°F-2.8°C 71% 9.0 mph WSW14.5 kmh WSW 18.0 mph29.0 kmh 30.14 in1020.7 mb 0.00 in0.0 mm 0.00 in/hr0.0 mm/hr 0.00 in0.0 mm
09:33 AM 35.5°F1.9°C 27.4°F-2.6°C 72% 6.0 mph SW9.7 kmh SW 18.0 mph29.0 kmh 30.13 in1020.3 mb 0.00 in0.0 mm 0.00 in/hr0.0 mm/hr 0.00 in0.0 mm
09:34 AM 35.5°F1.9°C 27.4°F-2.6°C 72% 4.0 mph SW6.4 kmh SW 18.0 mph29.0 kmh 30.13 in1020.3 mb 0.00 in0.0 mm 0.00 in/hr0.0 mm/hr 0.00 in0.0 mm
09:35 AM 35.6°F2.0°C 27.5°F-2.5°C 72% 6.0 mph SW9.7 kmh SW 18.0 mph29.0 kmh 30.13 in1020.3 mb 0.00 in0.0 mm 0.00 in/hr0.0 mm/hr 0.00 in0.0 mm
09:38 AM 35.6°F2.0°C 27.5°F-2.5°C 72% Calm Calm 18.0 mph29.0 kmh 30.13 in1020.3 mb 0.00 in0.0 mm 0.00 in/hr0.0 mm/hr 0.00 in0.0 mm
09:39 AM 35.7°F2.1°C 27.6°F-2.4°C 72% 5.0 mph SW8.0 kmh SW 18.0 mph29.0 kmh 30.13 in1020.3 mb 0.00 in0.0 mm 0.00 in/hr0.0 mm/hr 0.00 in0.0 mm
09:40 AM 35.7°F2.1°C 28.9°F-1.7°C 76% 4.0 mph SW6.4 kmh SW 18.0 mph29.0 kmh 30.13 in1020.3 mb 0.00 in0.0 mm 0.00 in/hr0.0 mm/hr 0.00 in0.0 mm
09:43 AM 35.8°F2.1°C 27.7°F-2.4°C 72% 1.0 mph SW1.6 kmh SW 18.0 mph29.0 kmh 30.13 in1020.3 mb 0.00 in0.0 mm 0.00 in/hr0.0 mm/hr 0.00 in0.0 mm
09:44 AM 35.9°F2.2°C 27.8°F-2.3°C 72% 7.0 mph WSW11.3 kmh WSW 18.0 mph29.0 kmh 30.13 in1020.3 mb 0.00 in0.0 mm 0.00 in/hr0.0 mm/hr 0.00 in0.0 mm
09:45 AM 35.9°F2.2°C 27.8°F-2.3°C 72% 2.0 mph WSW3.2 kmh WSW 18.0 mph29.0 kmh 30.13 in1020.3 mb 0.00 in0.0 mm 0.00 in/hr0.0 mm/hr 0.00 in0.0 mm
09:48 AM 36.0°F2.2°C 27.9°F-2.3°C 72% 1.0 mph WSW1.6 kmh WSW 18.0 mph29.0 kmh 30.13 in1020.3 mb 0.00 in0.0 mm 0.00 in/hr0.0 mm/hr 0.00 in0.0 mm
09:49 AM 36.0°F2.2°C 27.9°F-2.3°C 72% Calm Calm 18.0 mph29.0 kmh 30.13 in1020.3 mb 0.00 in0.0 mm 0.00 in/hr0.0 mm/hr 0.00 in0.0 mm
09:50 AM 36.1°F2.3°C 28.0°F-2.2°C 72% 1.0 mph WSW1.6 kmh WSW 18.0 mph29.0 kmh 30.13 in1020.3 mb 0.00 in0.0 mm 0.00 in/hr0.0 mm/hr 0.00 in0.0 mm
09:53 AM 36.2°F2.3°C 28.4°F-2.0°C 73% 10.0 mph SSW16.1 kmh SSW 18.0 mph29.0 kmh 30.12 in1020.0 mb 0.00 in0.0 mm 0.00 in/hr0.0 mm/hr 0.00 in0.0 mm
09:54 AM 36.2°F2.3°C 28.4°F-2.0°C 73% 5.0 mph SW8.0 kmh SW 18.0 mph29.0 kmh 30.12 in1020.0 mb 0.00 in0.0 mm 0.00 in/hr0.0 mm/hr 0.00 in0.0 mm
09:55 AM 36.3°F2.4°C 28.5°F-1.9°C 73% 2.0 mph SW3.2 kmh SW 18.0 mph29.0 kmh 30.12 in1020.0 mb 0.00 in0.0 mm 0.00 in/hr0.0 mm/hr 0.00 in0.0 mm
09:58 AM 36.5°F2.5°C 29.0°F-1.7°C 74% Calm Calm 18.0 mph29.0 kmh 30.12 in1020.0 mb 0.00 in0.0 mm 0.00 in/hr0.0 mm/hr 0.00 in0.0 mm
09:59 AM 36.5°F2.5°C 29.0°F-1.7°C 74% 3.0 mph SW4.8 kmh SW 18.0 mph29.0 kmh 30.12 in1020.0 mb 0.00 in0.0 mm 0.00 in/hr0.0 mm/hr 0.00 in0.0 mm
10:00 AM 36.5°F2.5°C 29.0°F-1.7°C 74% 2.0 mph WSW3.2 kmh WSW 3.0 mph4.8 kmh 30.12 in1020.0 mb 0.00 in0.0 mm 0.00 in/hr0.0 mm/hr 0.00 in0.0 mm
10:03 AM 36.8°F2.7°C 29.0°F-1.7°C 73% 5.0 mph SW8.0 kmh SW 8.0 mph12.9 kmh 30.12 in1020.0 mb 0.00 in0.0 mm 0.00 in/hr0.0 mm/hr 0.00 in0.0 mm
10:04 AM 36.9°F2.7°C 29.1°F-1.6°C 73% 10.0 mph SW16.1 kmh SW 10.0 mph16.1 kmh 30.12 in1020.0 mb 0.00 in0.0 mm 0.00 in/hr0.0 mm/hr 0.00 in0.0 mm
10:05 AM 36.9°F2.7°C 29.1°F-1.6°C 73% 5.0 mph S8.0 kmh S 10.0 mph16.1 kmh 30.12 in1020.0 mb 0.00 in0.0 mm 0.00 in/hr0.0 mm/hr 0.00 in0.0 mm
10:08 AM 37.0°F2.8°C 28.8°F-1.8°C 72% 12.0 mph SSW19.3 kmh SSW 19.0 mph30.6 kmh 30.11 in1019.6 mb 0.00 in0.0 mm 0.00 in/hr0.0 mm/hr 0.00 in0.0 mm
10:09 AM 37.1°F2.8°C 28.6°F-1.9°C 71% 11.0 mph S17.7 kmh S 19.0 mph30.6 kmh 30.11 in1019.6 mb 0.00 in0.0 mm 0.00 in/hr0.0 mm/hr 0.00 in0.0 mm
10:10 AM 37.1°F2.8°C 28.6°F-1.9°C 71% 6.0 mph S9.7 kmh S 19.0 mph30.6 kmh 30.11 in1019.6 mb 0.00 in0.0 mm 0.00 in/hr0.0 mm/hr 0.00 in0.0 mm
10:13 AM 37.2°F2.9°C 28.7°F-1.8°C 71% 3.0 mph WNW4.8 kmh WNW 19.0 mph30.6 kmh 30.11 in1019.6 mb 0.00 in0.0 mm 0.00 in/hr0.0 mm/hr 0.00 in0.0 mm
10:14 AM 37.2°F2.9°C 28.7°F-1.8°C 71% 9.0 mph S14.5 kmh S 19.0 mph30.6 kmh 30.11 in1019.6 mb 0.00 in0.0 mm 0.00 in/hr0.0 mm/hr 0.00 in0.0 mm
10:15 AM 37.2°F2.9°C 28.7°F-1.8°C 71% 6.0 mph S9.7 kmh S 19.0 mph30.6 kmh 30.11 in1019.6 mb 0.00 in0.0 mm 0.00 in/hr0.0 mm/hr 0.00 in0.0 mm
10:18 AM 37.2°F2.9°C 28.7°F-1.8°C 71% 6.0 mph S9.7 kmh S 19.0 mph30.6 kmh 30.11 in1019.6 mb 0.00 in0.0 mm 0.00 in/hr0.0 mm/hr 0.00 in0.0 mm
10:19 AM 37.3°F2.9°C 28.8°F-1.8°C 71% 3.0 mph S4.8 kmh S 19.0 mph30.6 kmh 30.12 in1020.0 mb 0.00 in0.0 mm 0.00 in/hr0.0 mm/hr 0.00 in0.0 mm
10:20 AM 37.3°F2.9°C 28.4°F-2.0°C 70% 4.0 mph S6.4 kmh S 19.0 mph30.6 kmh 30.12 in1020.0 mb 0.00 in0.0 mm 0.00 in/hr0.0 mm/hr 0.00 in0.0 mm
10:23 AM 37.3°F2.9°C 28.4°F-2.0°C 70% 5.0 mph SW8.0 kmh SW 19.0 mph30.6 kmh 30.11 in1019.6 mb 0.00 in0.0 mm 0.00 in/hr0.0 mm/hr 0.00 in0.0 mm
10:24 AM 37.4°F3.0°C 28.5°F-1.9°C 70% 4.0 mph SSE6.4 kmh SSE 19.0 mph30.6 kmh 30.11 in1019.6 mb 0.00 in0.0 mm 0.00 in/hr0.0 mm/hr 0.00 in0.0 mm
10:25 AM 37.4°F3.0°C 28.5°F-1.9°C 70% 4.0 mph S6.4 kmh S 19.0 mph30.6 kmh 30.11 in1019.6 mb 0.00 in0.0 mm 0.00 in/hr0.0 mm/hr 0.00 in0.0 mm
10:28 AM 37.5°F3.1°C 28.6°F-1.9°C 70% 3.0 mph S4.8 kmh S 19.0 mph30.6 kmh 30.11 in1019.6 mb 0.00 in0.0 mm 0.00 in/hr0.0 mm/hr 0.00 in0.0 mm
10:29 AM 37.4°F3.0°C 28.9°F-1.7°C 71% 7.0 mph S11.3 kmh S 19.0 mph30.6 kmh 30.11 in1019.6 mb 0.00 in0.0 mm 0.00 in/hr0.0 mm/hr 0.00 in0.0 mm
10:30 AM 37.4°F3.0°C 28.5°F-1.9°C 70% 6.0 mph S9.7 kmh S 19.0 mph30.6 kmh 30.10 in1019.3 mb 0.00 in0.0 mm 0.00 in/hr0.0 mm/hr 0.00 in0.0 mm
10:33 AM 37.4°F3.0°C 28.5°F-1.9°C 70% 10.0 mph S16.1 kmh S 19.0 mph30.6 kmh 30.10 in1019.3 mb 0.00 in0.0 mm 0.00 in/hr0.0 mm/hr 0.00 in0.0 mm
10:34 AM 37.4°F3.0°C 28.5°F-1.9°C 70% 15.0 mph S24.1 kmh S 19.0 mph30.6 kmh 30.10 in1019.3 mb 0.00 in0.0 mm 0.00 in/hr0.0 mm/hr 0.00 in0.0 mm
10:35 AM 37.4°F3.0°C 28.5°F-1.9°C 70% 7.0 mph SSW11.3 kmh SSW 19.0 mph30.6 kmh 30.10 in1019.3 mb 0.00 in0.0 mm 0.00 in/hr0.0 mm/hr 0.00 in0.0 mm
10:38 AM 37.5°F3.1°C 28.6°F-1.9°C 70% 4.0 mph S6.4 kmh S 19.0 mph30.6 kmh 30.10 in1019.3 mb 0.00 in0.0 mm 0.00 in/hr0.0 mm/hr 0.00 in0.0 mm
10:39 AM 37.5°F3.1°C 28.6°F-1.9°C 70% 2.0 mph S3.2 kmh S 19.0 mph30.6 kmh 30.09 in1019.0 mb 0.00 in0.0 mm 0.00 in/hr0.0 mm/hr 0.00 in0.0 mm
10:40 AM 37.6°F3.1°C 28.7°F-1.8°C 70% 7.0 mph S11.3 kmh S 19.0 mph30.6 kmh 30.09 in1019.0 mb 0.00 in0.0 mm 0.00 in/hr0.0 mm/hr 0.00 in0.0 mm
10:43 AM 37.7°F3.2°C 29.2°F-1.6°C 71% 8.0 mph SSW12.9 kmh SSW 19.0 mph30.6 kmh 30.09 in1019.0 mb 0.00 in0.0 mm 0.00 in/hr0.0 mm/hr 0.00 in0.0 mm
10:44 AM 37.7°F3.2°C 29.2°F-1.6°C 71% 9.0 mph S14.5 kmh S 19.0 mph30.6 kmh 30.09 in1019.0 mb 0.00 in0.0 mm 0.00 in/hr0.0 mm/hr 0.00 in0.0 mm
10:45 AM 37.7°F3.2°C 29.2°F-1.6°C 71% 10.0 mph SSW16.1 kmh SSW 19.0 mph30.6 kmh 30.09 in1019.0 mb 0.00 in0.0 mm 0.00 in/hr0.0 mm/hr 0.00 in0.0 mm
10:48 AM 37.9°F3.3°C 29.0°F-1.7°C 70% 12.0 mph SSE19.3 kmh SSE 20.0 mph32.2 kmh 30.09 in1019.0 mb 0.00 in0.0 mm 0.00 in/hr0.0 mm/hr 0.00 in0.0 mm
10:49 AM 37.9°F3.3°C 29.0°F-1.7°C 70% 2.0 mph S3.2 kmh S 20.0 mph32.2 kmh 30.09 in1019.0 mb 0.00 in0.0 mm 0.00 in/hr0.0 mm/hr 0.00 in0.0 mm
10:50 AM 37.9°F3.3°C 28.7°F-1.8°C 69% 13.0 mph S20.9 kmh S 20.0 mph32.2 kmh 30.09 in1019.0 mb 0.00 in0.0 mm 0.00 in/hr0.0 mm/hr 0.00 in0.0 mm
10:53 AM 38.0°F3.3°C 28.8°F-1.8°C 69% 5.0 mph S8.0 kmh S 20.0 mph32.2 kmh 30.09 in1019.0 mb 0.00 in0.0 mm 0.00 in/hr0.0 mm/hr 0.00 in0.0 mm
10:54 AM 38.1°F3.4°C 28.8°F-1.8°C 69% 12.0 mph SW19.3 kmh SW 20.0 mph32.2 kmh 30.09 in1019.0 mb 0.00 in0.0 mm 0.00 in/hr0.0 mm/hr 0.00 in0.0 mm
10:55 AM 38.1°F3.4°C 28.5°F-1.9°C 68% 3.0 mph SW4.8 kmh SW 20.0 mph32.2 kmh 30.09 in1019.0 mb 0.00 in0.0 mm 0.00 in/hr0.0 mm/hr 0.00 in0.0 mm
10:58 AM 38.3°F3.5°C 29.0°F-1.7°C 69% 3.0 mph S4.8 kmh S 20.0 mph32.2 kmh 30.09 in1019.0 mb 0.00 in0.0 mm 0.00 in/hr0.0 mm/hr 0.00 in0.0 mm
10:59 AM 38.4°F3.6°C 29.1°F-1.6°C 69% 9.0 mph S14.5 kmh S 20.0 mph32.2 kmh 30.09 in1019.0 mb 0.00 in0.0 mm 0.00 in/hr0.0 mm/hr 0.00 in0.0 mm
11:00 AM 38.4°F3.6°C 28.8°F-1.8°C 68% 5.0 mph S8.0 kmh S 7.0 mph11.3 kmh 30.09 in1019.0 mb 0.00 in0.0 mm 0.00 in/hr0.0 mm/hr 0.00 in0.0 mm
11:03 AM 38.4°F3.6°C 28.4°F-2.0°C 67% 11.0 mph S17.7 kmh S 13.0 mph20.9 kmh 30.09 in1019.0 mb 0.00 in0.0 mm 0.00 in/hr0.0 mm/hr 0.00 in0.0 mm
11:04 AM 38.4°F3.6°C 28.4°F-2.0°C 67% 10.0 mph WSW16.1 kmh WSW 15.0 mph24.1 kmh 30.09 in1019.0 mb 0.00 in0.0 mm 0.00 in/hr0.0 mm/hr 0.00 in0.0 mm
11:05 AM 38.4°F3.6°C 28.4°F-2.0°C 67% 7.0 mph SW11.3 kmh SW 15.0 mph24.1 kmh 30.09 in1019.0 mb 0.00 in0.0 mm 0.00 in/hr0.0 mm/hr 0.00 in0.0 mm
11:08 AM 38.5°F3.6°C 28.5°F-1.9°C 67% 3.0 mph SSW4.8 kmh SSW 15.0 mph24.1 kmh 30.09 in1019.0 mb 0.00 in0.0 mm 0.00 in/hr0.0 mm/hr 0.00 in0.0 mm
11:09 AM 38.5°F3.6°C 28.9°F-1.7°C 68% 7.0 mph S11.3 kmh S 15.0 mph24.1 kmh 30.08 in1018.6 mb 0.00 in0.0 mm 0.00 in/hr0.0 mm/hr 0.00 in0.0 mm
11:10 AM 38.5°F3.6°C 28.9°F-1.7°C 68% 16.0 mph SW25.7 kmh SW 18.0 mph29.0 kmh 30.08 in1018.6 mb 0.00 in0.0 mm 0.00 in/hr0.0 mm/hr 0.00 in0.0 mm
11:13 AM 38.4°F3.6°C 28.8°F-1.8°C 68% 5.0 mph SW8.0 kmh SW 18.0 mph29.0 kmh 30.08 in1018.6 mb 0.00 in0.0 mm 0.00 in/hr0.0 mm/hr 0.00 in0.0 mm
11:14 AM 38.4°F3.6°C 28.8°F-1.8°C 68% 5.0 mph W8.0 kmh W 18.0 mph29.0 kmh 30.08 in1018.6 mb 0.00 in0.0 mm 0.00 in/hr0.0 mm/hr 0.00 in0.0 mm
11:15 AM 38.5°F3.6°C 29.2°F-1.6°C 69% 4.0 mph WSW6.4 kmh WSW 18.0 mph29.0 kmh 30.08 in1018.6 mb 0.00 in0.0 mm 0.00 in/hr0.0 mm/hr 0.00 in0.0 mm
11:18 AM 38.5°F3.6°C 29.2°F-1.6°C 69% 4.0 mph SW6.4 kmh SW 18.0 mph29.0 kmh 30.08 in1018.6 mb 0.00 in0.0 mm 0.00 in/hr0.0 mm/hr 0.00 in0.0 mm
11:19 AM 38.5°F3.6°C 29.2°F-1.6°C 69% 11.0 mph SSE17.7 kmh SSE 18.0 mph29.0 kmh 30.07 in1018.3 mb 0.00 in0.0 mm 0.00 in/hr0.0 mm/hr 0.00 in0.0 mm
11:20 AM 38.5°F3.6°C 29.2°F-1.6°C 69% 7.0 mph SSW11.3 kmh SSW 18.0 mph29.0 kmh 30.08 in1018.6 mb 0.00 in0.0 mm 0.00 in/hr0.0 mm/hr 0.00 in0.0 mm
11:23 AM 38.5°F3.6°C 29.6°F-1.3°C 70% 11.0 mph S17.7 kmh S 18.0 mph29.0 kmh 30.07 in1018.3 mb 0.00 in0.0 mm 0.00 in/hr0.0 mm/hr 0.00 in0.0 mm
11:24 AM 38.5°F3.6°C 29.6°F-1.3°C 70% 8.0 mph S12.9 kmh S 18.0 mph29.0 kmh 30.07 in1018.3 mb 0.00 in0.0 mm 0.00 in/hr0.0 mm/hr 0.00 in0.0 mm
11:25 AM 38.5°F3.6°C 29.6°F-1.3°C 70% 11.0 mph S17.7 kmh S 18.0 mph29.0 kmh 30.07 in1018.3 mb 0.00 in0.0 mm 0.00 in/hr0.0 mm/hr 0.00 in0.0 mm
11:28 AM 38.6°F3.7°C 30.0°F-1.1°C 71% 9.0 mph S14.5 kmh S 18.0 mph29.0 kmh 30.07 in1018.3 mb 0.00 in0.0 mm 0.00 in/hr0.0 mm/hr 0.00 in0.0 mm
11:29 AM 38.7°F3.7°C 30.1°F-1.1°C 71% 4.0 mph S6.4 kmh S 18.0 mph29.0 kmh 30.07 in1018.3 mb 0.00 in0.0 mm 0.00 in/hr0.0 mm/hr 0.00 in0.0 mm
11:30 AM 38.7°F3.7°C 30.1°F-1.1°C 71% 5.0 mph S8.0 kmh S 18.0 mph29.0 kmh 30.07 in1018.3 mb 0.00 in0.0 mm 0.00 in/hr0.0 mm/hr 0.00 in0.0 mm
11:33 AM 38.7°F3.7°C 30.1°F-1.1°C 71% 5.0 mph S8.0 kmh S 18.0 mph29.0 kmh 30.06 in1017.9 mb 0.00 in0.0 mm 0.00 in/hr0.0 mm/hr 0.00 in0.0 mm
11:34 AM 38.7°F3.7°C 30.1°F-1.1°C 71% 6.0 mph S9.7 kmh S 18.0 mph29.0 kmh 30.06 in1017.9 mb 0.00 in0.0 mm 0.00 in/hr0.0 mm/hr 0.00 in0.0 mm
11:35 AM 38.7°F3.7°C 30.1°F-1.1°C 71% 6.0 mph SW9.7 kmh SW 18.0 mph29.0 kmh 30.06 in1017.9 mb 0.00 in0.0 mm 0.00 in/hr0.0 mm/hr 0.00 in0.0 mm
11:38 AM 38.7°F3.7°C 30.5°F-0.8°C 72% 7.0 mph S11.3 kmh S 18.0 mph29.0 kmh 30.06 in1017.9 mb 0.00 in0.0 mm 0.00 in/hr0.0 mm/hr 0.00 in0.0 mm
11:39 AM 38.7°F3.7°C 30.8°F-0.7°C 73% Calm Calm 18.0 mph29.0 kmh 30.06 in1017.9 mb 0.00 in0.0 mm 0.00 in/hr0.0 mm/hr 0.00 in0.0 mm
11:40 AM 38.7°F3.7°C 30.8°F-0.7°C 73% 11.0 mph S17.7 kmh S 18.0 mph29.0 kmh 30.06 in1017.9 mb 0.00 in0.0 mm 0.00 in/hr0.0 mm/hr 0.00 in0.0 mm
11:43 AM 38.7°F3.7°C 30.8°F-0.7°C 73% 7.0 mph S11.3 kmh S 19.0 mph30.6 kmh 30.06 in1017.9 mb 0.00 in0.0 mm 0.00 in/hr0.0 mm/hr 0.00 in0.0 mm
11:44 AM 38.7°F3.7°C 30.8°F-0.7°C 73% 4.0 mph S6.4 kmh S 19.0 mph30.6 kmh 30.05 in1017.6 mb 0.00 in0.0 mm 0.00 in/hr0.0 mm/hr 0.00 in0.0 mm
11:45 AM 38.7°F3.7°C 30.8°F-0.7°C 73% 5.0 mph SW8.0 kmh SW 19.0 mph30.6 kmh 30.05 in1017.6 mb 0.00 in0.0 mm 0.00 in/hr0.0 mm/hr 0.00 in0.0 mm
11:48 AM 38.7°F3.7°C 31.1°F-0.5°C 74% 6.0 mph S9.7 kmh S 19.0 mph30.6 kmh 30.05 in1017.6 mb 0.00 in0.0 mm 0.00 in/hr0.0 mm/hr 0.00 in0.0 mm
11:49 AM 38.7°F3.7°C 31.1°F-0.5°C 74% 6.0 mph S9.7 kmh S 19.0 mph30.6 kmh 30.05 in1017.6 mb 0.00 in0.0 mm 0.00 in/hr0.0 mm/hr 0.00 in0.0 mm
11:50 AM 38.7°F3.7°C 31.1°F-0.5°C 74% 4.0 mph S6.4 kmh S 19.0 mph30.6 kmh 30.05 in1017.6 mb 0.00 in0.0 mm 0.00 in/hr0.0 mm/hr 0.00 in0.0 mm
11:53 AM 38.6°F3.7°C 31.4°F-0.3°C 75% 6.0 mph S9.7 kmh S 19.0 mph30.6 kmh 30.05 in1017.6 mb 0.00 in0.0 mm 0.00 in/hr0.0 mm/hr 0.00 in0.0 mm
11:54 AM 38.6°F3.7°C 31.4°F-0.3°C 75% 7.0 mph SSW11.3 kmh SSW 19.0 mph30.6 kmh 30.05 in1017.6 mb 0.00 in0.0 mm 0.00 in/hr0.0 mm/hr 0.00 in0.0 mm
11:55 AM 38.6°F3.7°C 31.4°F-0.3°C 75% 11.0 mph S17.7 kmh S 19.0 mph30.6 kmh 30.04 in1017.3 mb 0.00 in0.0 mm 0.00 in/hr0.0 mm/hr 0.00 in0.0 mm
11:58 AM 38.5°F3.6°C 31.6°F-0.2°C 76% 1.0 mph SSW1.6 kmh SSW 19.0 mph30.6 kmh 30.04 in1017.3 mb 0.00 in0.0 mm 0.00 in/hr0.0 mm/hr 0.00 in0.0 mm
11:59 AM 38.5°F3.6°C 31.9°F-0.1°C 77% 7.0 mph S11.3 kmh S 19.0 mph30.6 kmh 30.04 in1017.3 mb 0.00 in0.0 mm 0.00 in/hr0.0 mm/hr 0.00 in0.0 mm
12:00 PM 38.5°F3.6°C 31.6°F-0.2°C 76% 16.0 mph WSW25.7 kmh WSW 16.0 mph25.7 kmh 30.04 in1017.3 mb 0.00 in0.0 mm 0.00 in/hr0.0 mm/hr 0.00 in0.0 mm
12:03 PM 38.4°F3.6°C 31.5°F-0.3°C 76% 7.0 mph SW11.3 kmh SW 16.0 mph25.7 kmh 30.04 in1017.3 mb 0.00 in0.0 mm 0.00 in/hr0.0 mm/hr 0.00 in0.0 mm
12:04 PM 38.4°F3.6°C 31.8°F-0.1°C 77% 3.0 mph SW4.8 kmh SW 16.0 mph25.7 kmh 30.04 in1017.3 mb 0.00 in0.0 mm 0.00 in/hr0.0 mm/hr 0.00 in0.0 mm
12:05 PM 38.5°F3.6°C 31.9°F-0.1°C 77% 6.0 mph S9.7 kmh S 16.0 mph25.7 kmh 30.04 in1017.3 mb 0.00 in0.0 mm 0.00 in/hr0.0 mm/hr 0.00 in0.0 mm
12:08 PM 38.5°F3.6°C 31.9°F-0.1°C 77% 3.0 mph SSW4.8 kmh SSW 16.0 mph25.7 kmh 30.04 in1017.3 mb 0.00 in0.0 mm 0.00 in/hr0.0 mm/hr 0.00 in0.0 mm
12:09 PM 38.5°F3.6°C 31.9°F-0.1°C 77% 3.0 mph SSW4.8 kmh SSW 16.0 mph25.7 kmh 30.04 in1017.3 mb 0.00 in0.0 mm 0.00 in/hr0.0 mm/hr 0.00 in0.0 mm
12:10 PM 38.5°F3.6°C 31.9°F-0.1°C 77% 4.0 mph SSW6.4 kmh SSW 16.0 mph25.7 kmh 30.04 in1017.3 mb 0.01 in0.3 mm 0.60 in/hr15.2 mm/hr 0.01 in0.3 mm
12:13 PM 38.5°F3.6°C 31.9°F-0.1°C 77% Calm Calm 16.0 mph25.7 kmh 30.04 in1017.3 mb 0.01 in0.3 mm 0.00 in/hr0.0 mm/hr 0.01 in0.3 mm
12:14 PM 38.5°F3.6°C 32.3°F0.2°C 78% 5.0 mph S8.0 kmh S 16.0 mph25.7 kmh 30.04 in1017.3 mb 0.01 in0.3 mm 0.00 in/hr0.0 mm/hr 0.01 in0.3 mm
12:15 PM 38.5°F3.6°C 32.3°F0.2°C 78% 7.0 mph WSW11.3 kmh WSW 17.0 mph27.4 kmh 30.03 in1016.9 mb 0.01 in0.3 mm 0.00 in/hr0.0 mm/hr 0.01 in0.3 mm
12:18 PM 38.4°F3.6°C 32.2°F0.1°C 78% 4.0 mph S6.4 kmh S 17.0 mph27.4 kmh 30.03 in1016.9 mb 0.01 in0.3 mm 0.00 in/hr0.0 mm/hr 0.01 in0.3 mm
12:19 PM 38.4°F3.6°C 32.2°F0.1°C 78% 4.0 mph SW6.4 kmh SW 17.0 mph27.4 kmh 30.03 in1016.9 mb 0.01 in0.3 mm 0.00 in/hr0.0 mm/hr 0.01 in0.3 mm
12:20 PM 38.4°F3.6°C 32.2°F0.1°C 78% 8.0 mph SW12.9 kmh SW 17.0 mph27.4 kmh 30.03 in1016.9 mb 0.01 in0.3 mm 0.00 in/hr0.0 mm/hr 0.01 in0.3 mm
12:23 PM 38.4°F3.6°C 32.5°F0.3°C 79% 3.0 mph S4.8 kmh S 17.0 mph27.4 kmh 30.03 in1016.9 mb 0.01 in0.3 mm 0.00 in/hr0.0 mm/hr 0.01 in0.3 mm
12:24 PM 38.4°F3.6°C 32.5°F0.3°C 79% 2.0 mph S3.2 kmh S 17.0 mph27.4 kmh 30.03 in1016.9 mb 0.01 in0.3 mm 0.00 in/hr0.0 mm/hr 0.01 in0.3 mm
12:25 PM 38.4°F3.6°C 32.5°F0.3°C 79% 5.0 mph SW8.0 kmh SW 17.0 mph27.4 kmh 30.03 in1016.9 mb 0.01 in0.3 mm 0.00 in/hr0.0 mm/hr 0.01 in0.3 mm
12:28 PM 38.3°F3.5°C 32.4°F0.2°C 79% 2.0 mph SW3.2 kmh SW 17.0 mph27.4 kmh 30.02 in1016.6 mb 0.01 in0.3 mm 0.00 in/hr0.0 mm/hr 0.01 in0.3 mm
12:29 PM 38.3°F3.5°C 32.4°F0.2°C 79% 4.0 mph S6.4 kmh S 17.0 mph27.4 kmh 30.03 in1016.9 mb 0.01 in0.3 mm 0.00 in/hr0.0 mm/hr 0.01 in0.3 mm
12:30 PM 38.3°F3.5°C 32.4°F0.2°C 79% 4.0 mph SW6.4 kmh SW 17.0 mph27.4 kmh 30.02 in1016.6 mb 0.01 in0.3 mm 0.00 in/hr0.0 mm/hr 0.01 in0.3 mm
12:33 PM 38.3°F3.5°C 32.7°F0.4°C 80% 6.0 mph SW9.7 kmh SW 17.0 mph27.4 kmh 30.02 in1016.6 mb 0.01 in0.3 mm 0.00 in/hr0.0 mm/hr 0.01 in0.3 mm
12:34 PM 38.3°F3.5°C 32.7°F0.4°C 80% 11.0 mph SW17.7 kmh SW 17.0 mph27.4 kmh 30.02 in1016.6 mb 0.01 in0.3 mm 0.00 in/hr0.0 mm/hr 0.01 in0.3 mm
12:35 PM 38.3°F3.5°C 32.7°F0.4°C 80% 3.0 mph SSW4.8 kmh SSW 17.0 mph27.4 kmh 30.02 in1016.6 mb 0.01 in0.3 mm 0.00 in/hr0.0 mm/hr 0.01 in0.3 mm
12:38 PM 38.3°F3.5°C 32.7°F0.4°C 80% 2.0 mph SSW3.2 kmh SSW 17.0 mph27.4 kmh 30.01 in1016.3 mb 0.01 in0.3 mm 0.00 in/hr0.0 mm/hr 0.01 in0.3 mm
12:39 PM 38.3°F3.5°C 32.7°F0.4°C 80% 3.0 mph W4.8 kmh W 17.0 mph27.4 kmh 30.02 in1016.6 mb 0.01 in0.3 mm 0.00 in/hr0.0 mm/hr 0.01 in0.3 mm
12:40 PM 38.3°F3.5°C 33.0°F0.6°C 81% 2.0 mph WSW3.2 kmh WSW 17.0 mph27.4 kmh 30.02 in1016.6 mb 0.01 in0.3 mm 0.00 in/hr0.0 mm/hr 0.01 in0.3 mm
12:43 PM 38.4°F3.6°C 33.1°F0.6°C 81% 2.0 mph S3.2 kmh S 17.0 mph27.4 kmh 30.02 in1016.6 mb 0.01 in0.3 mm 0.00 in/hr0.0 mm/hr 0.01 in0.3 mm
12:44 PM 38.4°F3.6°C 33.1°F0.6°C 81% 2.0 mph SSW3.2 kmh SSW 17.0 mph27.4 kmh 30.02 in1016.6 mb 0.01 in0.3 mm 0.00 in/hr0.0 mm/hr 0.01 in0.3 mm
12:45 PM 38.4°F3.6°C 33.1°F0.6°C 81% 3.0 mph SSW4.8 kmh SSW 17.0 mph27.4 kmh 30.01 in1016.3 mb 0.01 in0.3 mm 0.00 in/hr0.0 mm/hr 0.01 in0.3 mm
12:48 PM 38.4°F3.6°C 33.4°F0.8°C 82% 7.0 mph SW11.3 kmh SW 17.0 mph27.4 kmh 30.01 in1016.3 mb 0.01 in0.3 mm 0.00 in/hr0.0 mm/hr 0.01 in0.3 mm
12:49 PM 38.4°F3.6°C 33.4°F0.8°C 82% 5.0 mph SW8.0 kmh SW 17.0 mph27.4 kmh 30.01 in1016.3 mb 0.01 in0.3 mm 0.00 in/hr0.0 mm/hr 0.01 in0.3 mm
12:50 PM 38.4°F3.6°C 33.4°F0.8°C 82% Calm Calm 17.0 mph27.4 kmh 30.01 in1016.3 mb 0.01 in0.3 mm 0.00 in/hr0.0 mm/hr 0.01 in0.3 mm
12:53 PM 38.5°F3.6°C 33.5°F0.8°C 82% 3.0 mph SW4.8 kmh SW 17.0 mph27.4 kmh 30.01 in1016.3 mb 0.01 in0.3 mm 0.00 in/hr0.0 mm/hr 0.01 in0.3 mm
12:54 PM 38.5°F3.6°C 33.8°F1.0°C 83% 4.0 mph SW6.4 kmh SW 17.0 mph27.4 kmh 30.01 in1016.3 mb 0.01 in0.3 mm 0.00 in/hr0.0 mm/hr 0.01 in0.3 mm
12:55 PM 38.5°F3.6°C 33.8°F1.0°C 83% 4.0 mph SW6.4 kmh SW 17.0 mph27.4 kmh 30.01 in1016.3 mb 0.01 in0.3 mm 0.00 in/hr0.0 mm/hr 0.01 in0.3 mm
12:58 PM 38.5°F3.6°C 33.8°F1.0°C 83% 4.0 mph SW6.4 kmh SW 17.0 mph27.4 kmh 30.01 in1016.3 mb 0.01 in0.3 mm 0.00 in/hr0.0 mm/hr 0.01 in0.3 mm
12:59 PM 38.5°F3.6°C 33.8°F1.0°C 83% 4.0 mph SW6.4 kmh SW 17.0 mph27.4 kmh 30.01 in1016.3 mb 0.01 in0.3 mm 0.00 in/hr0.0 mm/hr 0.01 in0.3 mm
01:00 PM 38.6°F3.7°C 33.9°F1.1°C 83% 4.0 mph WSW6.4 kmh WSW 7.0 mph11.3 kmh 30.01 in1016.3 mb 0.01 in0.3 mm 0.00 in/hr0.0 mm/hr 0.01 in0.3 mm
01:03 PM 38.7°F3.7°C 34.0°F1.1°C 83% 6.0 mph WSW9.7 kmh WSW 13.0 mph20.9 kmh 30.01 in1016.3 mb 0.01 in0.3 mm 0.00 in/hr0.0 mm/hr 0.01 in0.3 mm
01:04 PM 38.6°F3.7°C 33.9°F1.1°C 83% 9.0 mph WSW14.5 kmh WSW 13.0 mph20.9 kmh 30.01 in1016.3 mb 0.01 in0.3 mm 0.00 in/hr0.0 mm/hr 0.01 in0.3 mm
01:05 PM 38.7°F3.7°C 34.0°F1.1°C 83% 6.0 mph WSW9.7 kmh WSW 13.0 mph20.9 kmh 30.01 in1016.3 mb 0.01 in0.3 mm 0.00 in/hr0.0 mm/hr 0.01 in0.3 mm
01:08 PM 38.7°F3.7°C 34.3°F1.3°C 84% 3.0 mph SW4.8 kmh SW 13.0 mph20.9 kmh 30.01 in1016.3 mb 0.01 in0.3 mm 0.00 in/hr0.0 mm/hr 0.01 in0.3 mm
01:09 PM 38.7°F3.7°C 34.3°F1.3°C 84% 6.0 mph SSW9.7 kmh SSW 14.0 mph22.5 kmh 30.01 in1016.3 mb 0.02 in0.5 mm 0.60 in/hr15.2 mm/hr 0.02 in0.5 mm
01:10 PM 38.7°F3.7°C 34.3°F1.3°C 84% 9.0 mph SW14.5 kmh SW 14.0 mph22.5 kmh 30.01 in1016.3 mb 0.02 in0.5 mm 0.00 in/hr0.0 mm/hr 0.02 in0.5 mm
01:13 PM 38.8°F3.8°C 34.4°F1.3°C 84% 13.0 mph SW20.9 kmh SW 14.0 mph22.5 kmh 30.01 in1016.3 mb 0.02 in0.5 mm 0.00 in/hr0.0 mm/hr 0.02 in0.5 mm
01:14 PM 38.7°F3.7°C 34.3°F1.3°C 84% 6.0 mph SW9.7 kmh SW 14.0 mph22.5 kmh 30.01 in1016.3 mb 0.02 in0.5 mm 0.00 in/hr0.0 mm/hr 0.02 in0.5 mm
01:15 PM 38.8°F3.8°C 34.4°F1.3°C 84% 9.0 mph SW14.5 kmh SW 14.0 mph22.5 kmh 30.01 in1016.3 mb 0.02 in0.5 mm 0.00 in/hr0.0 mm/hr 0.02 in0.5 mm
01:18 PM 38.8°F3.8°C 34.4°F1.3°C 84% 9.0 mph SW14.5 kmh SW 14.0 mph22.5 kmh 30.00 in1015.9 mb 0.02 in0.5 mm 0.00 in/hr0.0 mm/hr 0.02 in0.5 mm
01:19 PM 38.8°F3.8°C 34.4°F1.3°C 84% 4.0 mph SW6.4 kmh SW 14.0 mph22.5 kmh 30.00 in1015.9 mb 0.02 in0.5 mm 0.00 in/hr0.0 mm/hr 0.02 in0.5 mm
01:20 PM 38.8°F3.8°C 34.4°F1.3°C 84% 5.0 mph SW8.0 kmh SW 14.0 mph22.5 kmh 30.00 in1015.9 mb 0.02 in0.5 mm 0.00 in/hr0.0 mm/hr 0.02 in0.5 mm
01:23 PM 38.8°F3.8°C 34.7°F1.5°C 85% 8.0 mph SSW12.9 kmh SSW 14.0 mph22.5 kmh 29.99 in1015.6 mb 0.02 in0.5 mm 0.00 in/hr0.0 mm/hr 0.02 in0.5 mm
01:24 PM 38.9°F3.8°C 34.8°F1.6°C 85% 6.0 mph SSW9.7 kmh SSW 14.0 mph22.5 kmh 30.00 in1015.9 mb 0.02 in0.5 mm 0.00 in/hr0.0 mm/hr 0.02 in0.5 mm
01:25 PM 38.9°F3.8°C 34.8°F1.6°C 85% 1.0 mph SSW1.6 kmh SSW 14.0 mph22.5 kmh 30.00 in1015.9 mb 0.02 in0.5 mm 0.00 in/hr0.0 mm/hr 0.02 in0.5 mm
01:28 PM 39.0°F3.9°C 34.9°F1.6°C 85% 5.0 mph SSW8.0 kmh SSW 14.0 mph22.5 kmh 30.00 in1015.9 mb 0.02 in0.5 mm 0.00 in/hr0.0 mm/hr 0.02 in0.5 mm
01:29 PM 39.0°F3.9°C 34.9°F1.6°C 85% 6.0 mph SW9.7 kmh SW 14.0 mph22.5 kmh 30.00 in1015.9 mb 0.02 in0.5 mm 0.00 in/hr0.0 mm/hr 0.02 in0.5 mm
01:30 PM 39.0°F3.9°C 34.9°F1.6°C 85% 1.0 mph SW1.6 kmh SW 14.0 mph22.5 kmh 30.00 in1015.9 mb 0.02 in0.5 mm 0.00 in/hr0.0 mm/hr 0.02 in0.5 mm
01:33 PM 38.9°F3.8°C 34.8°F1.6°C 85% 7.0 mph SW11.3 kmh SW 14.0 mph22.5 kmh 29.99 in1015.6 mb 0.02 in0.5 mm 0.00 in/hr0.0 mm/hr 0.02 in0.5 mm
01:34 PM 38.9°F3.8°C 34.8°F1.6°C 85% 5.0 mph SW8.0 kmh SW 14.0 mph22.5 kmh 29.99 in1015.6 mb 0.02 in0.5 mm 0.00 in/hr0.0 mm/hr 0.02 in0.5 mm
01:35 PM 38.9°F3.8°C 34.8°F1.6°C 85% 3.0 mph SW4.8 kmh SW 14.0 mph22.5 kmh 30.00 in1015.9 mb 0.02 in0.5 mm 0.00 in/hr0.0 mm/hr 0.02 in0.5 mm
01:38 PM 38.9°F3.8°C 35.1°F1.7°C 86% 4.0 mph SW6.4 kmh SW 14.0 mph22.5 kmh 30.00 in1015.9 mb 0.02 in0.5 mm 0.00 in/hr0.0 mm/hr 0.02 in0.5 mm
01:39 PM 38.9°F3.8°C 35.1°F1.7°C 86% 3.0 mph SW4.8 kmh SW 14.0 mph22.5 kmh 30.00 in1015.9 mb 0.02 in0.5 mm 0.00 in/hr0.0 mm/hr 0.02 in0.5 mm
01:40 PM 39.0°F3.9°C 35.2°F1.8°C 86% 2.0 mph SW3.2 kmh SW 14.0 mph22.5 kmh 30.00 in1015.9 mb 0.02 in0.5 mm 0.00 in/hr0.0 mm/hr 0.02 in0.5 mm
01:43 PM 39.0°F3.9°C 35.2°F1.8°C 86% 2.0 mph SW3.2 kmh SW 14.0 mph22.5 kmh 30.00 in1015.9 mb 0.02 in0.5 mm 0.00 in/hr0.0 mm/hr 0.02 in0.5 mm
01:44 PM 39.0°F3.9°C 35.2°F1.8°C 86% 2.0 mph SW3.2 kmh SW 14.0 mph22.5 kmh 30.00 in1015.9 mb 0.02 in0.5 mm 0.00 in/hr0.0 mm/hr 0.02 in0.5 mm
01:45 PM 39.0°F3.9°C 35.2°F1.8°C 86% 4.0 mph SW6.4 kmh SW 14.0 mph22.5 kmh 30.00 in1015.9 mb 0.02 in0.5 mm 0.00 in/hr0.0 mm/hr 0.02 in0.5 mm
01:48 PM 38.9°F3.8°C 35.1°F1.7°C 86% 4.0 mph SW6.4 kmh SW 14.0 mph22.5 kmh 29.99 in1015.6 mb 0.02 in0.5 mm 0.00 in/hr0.0 mm/hr 0.02 in0.5 mm
01:49 PM 38.9°F3.8°C 35.4°F1.9°C 87% 5.0 mph WSW8.0 kmh WSW 14.0 mph22.5 kmh 29.99 in1015.6 mb 0.02 in0.5 mm 0.00 in/hr0.0 mm/hr 0.02 in0.5 mm
01:50 PM 38.9°F3.8°C 35.4°F1.9°C 87% 1.0 mph WSW1.6 kmh WSW 14.0 mph22.5 kmh 30.00 in1015.9 mb 0.02 in0.5 mm 0.00 in/hr0.0 mm/hr 0.02 in0.5 mm
01:53 PM 38.9°F3.8°C 35.4°F1.9°C 87% 4.0 mph WSW6.4 kmh WSW 14.0 mph22.5 kmh 29.99 in1015.6 mb 0.02 in0.5 mm 0.00 in/hr0.0 mm/hr 0.02 in0.5 mm
01:54 PM 38.9°F3.8°C 35.4°F1.9°C 87% 3.0 mph SW4.8 kmh SW 14.0 mph22.5 kmh 29.99 in1015.6 mb 0.02 in0.5 mm 0.00 in/hr0.0 mm/hr 0.02 in0.5 mm
01:55 PM 38.8°F3.8°C 35.3°F1.8°C 87% 9.0 mph SW14.5 kmh SW 14.0 mph22.5 kmh 29.99 in1015.6 mb 0.02 in0.5 mm 0.00 in/hr0.0 mm/hr 0.02 in0.5 mm
01:58 PM 38.7°F3.7°C 35.2°F1.8°C 87% 8.0 mph SW12.9 kmh SW 14.0 mph22.5 kmh 29.99 in1015.6 mb 0.02 in0.5 mm 0.00 in/hr0.0 mm/hr 0.02 in0.5 mm
01:59 PM 38.8°F3.8°C 35.3°F1.8°C 87% 4.0 mph SW6.4 kmh SW 14.0 mph22.5 kmh 29.99 in1015.6 mb 0.02 in0.5 mm 0.00 in/hr0.0 mm/hr 0.02 in0.5 mm
02:00 PM 38.8°F3.8°C 35.6°F2.0°C 88% 4.0 mph SW6.4 kmh SW 7.0 mph11.3 kmh 29.99 in1015.6 mb 0.01 in0.3 mm 0.00 in/hr0.0 mm/hr 0.02 in0.5 mm
02:03 PM 38.9°F3.8°C 35.7°F2.1°C 88% 8.0 mph WSW12.9 kmh WSW 14.0 mph22.5 kmh 29.98 in1015.2 mb 0.01 in0.3 mm 0.00 in/hr0.0 mm/hr 0.02 in0.5 mm
02:04 PM 38.9°F3.8°C 35.7°F2.1°C 88% 8.0 mph SW12.9 kmh SW 14.0 mph22.5 kmh 29.99 in1015.6 mb 0.01 in0.3 mm 0.00 in/hr0.0 mm/hr 0.02 in0.5 mm
02:05 PM 38.8°F3.8°C 35.6°F2.0°C 88% 2.0 mph SW3.2 kmh SW 14.0 mph22.5 kmh 29.98 in1015.2 mb 0.01 in0.3 mm 0.00 in/hr0.0 mm/hr 0.02 in0.5 mm
02:08 PM 38.8°F3.8°C 35.6°F2.0°C 88% Calm Calm 14.0 mph22.5 kmh 29.98 in1015.2 mb 0.01 in0.3 mm 0.00 in/hr0.0 mm/hr 0.02 in0.5 mm
02:09 PM 38.9°F3.8°C 35.7°F2.1°C 88% 5.0 mph SW8.0 kmh SW 14.0 mph22.5 kmh 29.98 in1015.2 mb 0.01 in0.3 mm 0.00 in/hr0.0 mm/hr 0.02 in0.5 mm
02:10 PM 38.9°F3.8°C 35.7°F2.1°C 88% 1.0 mph SW1.6 kmh SW 14.0 mph22.5 kmh 29.98 in1015.2 mb 0.01 in0.3 mm 0.00 in/hr0.0 mm/hr 0.02 in0.5 mm
02:13 PM 38.9°F3.8°C 35.7°F2.1°C 88% 6.0 mph SW9.7 kmh SW 14.0 mph22.5 kmh 29.98 in1015.2 mb 0.01 in0.3 mm 0.00 in/hr0.0 mm/hr 0.02 in0.5 mm
02:14 PM 38.9°F3.8°C 35.7°F2.1°C 88% 3.0 mph SW4.8 kmh SW 14.0 mph22.5 kmh 29.98 in1015.2 mb 0.01 in0.3 mm 0.00 in/hr0.0 mm/hr 0.02 in0.5 mm
02:15 PM 38.9°F3.8°C 35.7°F2.1°C 88% Calm Calm 14.0 mph22.5 kmh 29.98 in1015.2 mb 0.01 in0.3 mm 0.00 in/hr0.0 mm/hr 0.02 in0.5 mm
02:18 PM 39.0°F3.9°C 36.0°F2.2°C 89% 3.0 mph SW4.8 kmh SW 14.0 mph22.5 kmh 29.98 in1015.2 mb 0.01 in0.3 mm 0.00 in/hr0.0 mm/hr 0.02 in0.5 mm
02:19 PM 39.0°F3.9°C 36.0°F2.2°C 89% 1.0 mph SW1.6 kmh SW 14.0 mph22.5 kmh 29.98 in1015.2 mb 0.01 in0.3 mm 0.00 in/hr0.0 mm/hr 0.02 in0.5 mm
02:20 PM 39.0°F3.9°C 36.0°F2.2°C 89% 7.0 mph SSW11.3 kmh SSW 14.0 mph22.5 kmh 29.98 in1015.2 mb 0.01 in0.3 mm 0.00 in/hr0.0 mm/hr 0.02 in0.5 mm
02:23 PM 39.0°F3.9°C 36.0°F2.2°C 89% 5.0 mph SW8.0 kmh SW 14.0 mph22.5 kmh 29.98 in1015.2 mb 0.01 in0.3 mm 0.00 in/hr0.0 mm/hr 0.02 in0.5 mm
02:24 PM 38.9°F3.8°C 35.9°F2.2°C 89% 7.0 mph SW11.3 kmh SW 14.0 mph22.5 kmh 29.98 in1015.2 mb 0.01 in0.3 mm 0.00 in/hr0.0 mm/hr 0.02 in0.5 mm
02:25 PM 38.9°F3.8°C 35.9°F2.2°C 89% 7.0 mph SW11.3 kmh SW 14.0 mph22.5 kmh 29.98 in1015.2 mb 0.01 in0.3 mm 0.00 in/hr0.0 mm/hr 0.02 in0.5 mm
02:28 PM 38.9°F3.8°C 35.9°F2.2°C 89% 2.0 mph SW3.2 kmh SW 14.0 mph22.5 kmh 29.98 in1015.2 mb 0.01 in0.3 mm 0.00 in/hr0.0 mm/hr 0.02 in0.5 mm
02:29 PM 38.9°F3.8°C 35.9°F2.2°C 89% 4.0 mph SW6.4 kmh SW 14.0 mph22.5 kmh 29.98 in1015.2 mb 0.01 in0.3 mm 0.00 in/hr0.0 mm/hr 0.02 in0.5 mm
02:30 PM 38.9°F3.8°C 35.9°F2.2°C 89% 7.0 mph SW11.3 kmh SW 14.0 mph22.5 kmh 29.98 in1015.2 mb 0.01 in0.3 mm 0.00 in/hr0.0 mm/hr 0.02 in0.5 mm
02:33 PM 38.9°F3.8°C 35.9°F2.2°C 89% 2.0 mph WSW3.2 kmh WSW 14.0 mph22.5 kmh 29.98 in1015.2 mb 0.01 in0.3 mm 0.00 in/hr0.0 mm/hr 0.02 in0.5 mm
02:34 PM 38.9°F3.8°C 35.9°F2.2°C 89% 5.0 mph WSW8.0 kmh WSW 14.0 mph22.5 kmh 29.98 in1015.2 mb 0.01 in0.3 mm 0.00 in/hr0.0 mm/hr 0.02 in0.5 mm
02:35 PM 38.9°F3.8°C 35.9°F2.2°C 89% 4.0 mph WSW6.4 kmh WSW 14.0 mph22.5 kmh 29.98 in1015.2 mb 0.01 in0.3 mm 0.00 in/hr0.0 mm/hr 0.02 in0.5 mm
02:38 PM 38.9°F3.8°C 36.2°F2.3°C 90% 2.0 mph WSW3.2 kmh WSW 14.0 mph22.5 kmh 29.98 in1015.2 mb 0.02 in0.5 mm 0.20 in/hr5.1 mm/hr 0.03 in0.8 mm
02:39 PM 38.9°F3.8°C 36.2°F2.3°C 90% 1.0 mph SW1.6 kmh SW 14.0 mph22.5 kmh 29.98 in1015.2 mb 0.02 in0.5 mm 0.00 in/hr0.0 mm/hr 0.03 in0.8 mm
02:40 PM 38.9°F3.8°C 36.2°F2.3°C 90% 1.0 mph SW1.6 kmh SW 14.0 mph22.5 kmh 29.98 in1015.2 mb 0.02 in0.5 mm 0.00 in/hr0.0 mm/hr 0.03 in0.8 mm
02:43 PM 38.9°F3.8°C 36.2°F2.3°C 90% 2.0 mph SW3.2 kmh SW 14.0 mph22.5 kmh 29.98 in1015.2 mb 0.02 in0.5 mm 0.00 in/hr0.0 mm/hr 0.03 in0.8 mm
02:44 PM 38.9°F3.8°C 36.2°F2.3°C 90% Calm Calm 14.0 mph22.5 kmh 29.97 in1014.9 mb 0.02 in0.5 mm 0.00 in/hr0.0 mm/hr 0.03 in0.8 mm
02:45 PM 39.0°F3.9°C 36.3°F2.4°C 90% 3.0 mph SW4.8 kmh SW 14.0 mph22.5 kmh 29.98 in1015.2 mb 0.02 in0.5 mm 0.00 in/hr0.0 mm/hr 0.03 in0.8 mm
02:48 PM 39.0°F3.9°C 36.3°F2.4°C 90% 6.0 mph SW9.7 kmh SW 14.0 mph22.5 kmh 29.97 in1014.9 mb 0.02 in0.5 mm 0.00 in/hr0.0 mm/hr 0.03 in0.8 mm
02:49 PM 38.9°F3.8°C 36.2°F2.3°C 90% 7.0 mph SW11.3 kmh SW 14.0 mph22.5 kmh 29.97 in1014.9 mb 0.02 in0.5 mm 0.00 in/hr0.0 mm/hr 0.03 in0.8 mm
02:50 PM 39.0°F3.9°C 36.3°F2.4°C 90% Calm Calm 14.0 mph22.5 kmh 29.97 in1014.9 mb 0.02 in0.5 mm 0.00 in/hr0.0 mm/hr 0.03 in0.8 mm
02:53 PM 39.0°F3.9°C 36.3°F2.4°C 90% Calm Calm 14.0 mph22.5 kmh 29.97 in1014.9 mb 0.02 in0.5 mm 0.00 in/hr0.0 mm/hr 0.03 in0.8 mm
02:54 PM 39.0°F3.9°C 36.3°F2.4°C 90% 2.0 mph SW3.2 kmh SW 14.0 mph22.5 kmh 29.97 in1014.9 mb 0.02 in0.5 mm 0.00 in/hr0.0 mm/hr 0.03 in0.8 mm
02:55 PM 39.1°F3.9°C 36.4°F2.4°C 90% 5.0 mph SW8.0 kmh SW 14.0 mph22.5 kmh 29.97 in1014.9 mb 0.02 in0.5 mm 0.00 in/hr0.0 mm/hr 0.03 in0.8 mm
02:58 PM 39.2°F4.0°C 36.5°F2.5°C 90% 6.0 mph SW9.7 kmh SW 14.0 mph22.5 kmh 29.97 in1014.9 mb 0.02 in0.5 mm 0.00 in/hr0.0 mm/hr 0.03 in0.8 mm
02:59 PM 39.2°F4.0°C 36.5°F2.5°C 90% 3.0 mph SW4.8 kmh SW 14.0 mph22.5 kmh 29.97 in1014.9 mb 0.02 in0.5 mm 0.00 in/hr0.0 mm/hr 0.03 in0.8 mm
03:00 PM 39.2°F4.0°C 36.5°F2.5°C 90% 3.0 mph SW4.8 kmh SW 4.0 mph6.4 kmh 29.97 in1014.9 mb 0.01 in0.3 mm 0.00 in/hr0.0 mm/hr 0.03 in0.8 mm
03:03 PM 39.3°F4.1°C 36.6°F2.6°C 90% 2.0 mph SW3.2 kmh SW 8.0 mph12.9 kmh 29.97 in1014.9 mb 0.01 in0.3 mm 0.00 in/hr0.0 mm/hr 0.03 in0.8 mm
03:04 PM 39.3°F4.1°C 36.6°F2.6°C 90% 1.0 mph SW1.6 kmh SW 8.0 mph12.9 kmh 29.97 in1014.9 mb 0.01 in0.3 mm 0.00 in/hr0.0 mm/hr 0.03 in0.8 mm
03:05 PM 39.4°F4.1°C 36.7°F2.6°C 90% 4.0 mph SW6.4 kmh SW 9.0 mph14.5 kmh 29.97 in1014.9 mb 0.01 in0.3 mm 0.00 in/hr0.0 mm/hr 0.03 in0.8 mm
03:08 PM 39.5°F4.2°C 37.1°F2.8°C 91% 4.0 mph SW6.4 kmh SW 9.0 mph14.5 kmh 29.97 in1014.9 mb 0.01 in0.3 mm 0.00 in/hr0.0 mm/hr 0.03 in0.8 mm
03:09 PM 39.5°F4.2°C 37.1°F2.8°C 91% Calm Calm 9.0 mph14.5 kmh 29.97 in1014.9 mb 0.01 in0.3 mm 0.00 in/hr0.0 mm/hr 0.03 in0.8 mm
03:10 PM 39.6°F4.2°C 37.2°F2.9°C 91% 3.0 mph SW4.8 kmh SW 9.0 mph14.5 kmh 29.97 in1014.9 mb 0.01 in0.3 mm 0.00 in/hr0.0 mm/hr 0.03 in0.8 mm
03:13 PM 39.6°F4.2°C 37.2°F2.9°C 91% 7.0 mph SW11.3 kmh SW 9.0 mph14.5 kmh 29.97 in1014.9 mb 0.01 in0.3 mm 0.00 in/hr0.0 mm/hr 0.03 in0.8 mm
03:14 PM 39.7°F4.3°C 37.3°F2.9°C 91% 7.0 mph SW11.3 kmh SW 10.0 mph16.1 kmh 29.97 in1014.9 mb 0.01 in0.3 mm 0.00 in/hr0.0 mm/hr 0.03 in0.8 mm
03:15 PM 39.7°F4.3°C 37.3°F2.9°C 91% 5.0 mph SW8.0 kmh SW 10.0 mph16.1 kmh 29.97 in1014.9 mb 0.01 in0.3 mm 0.00 in/hr0.0 mm/hr 0.03 in0.8 mm
03:18 PM 39.7°F4.3°C 37.3°F2.9°C 91% Calm Calm 10.0 mph16.1 kmh 29.97 in1014.9 mb 0.01 in0.3 mm 0.00 in/hr0.0 mm/hr 0.03 in0.8 mm
03:19 PM 39.7°F4.3°C 37.3°F2.9°C 91% 2.0 mph SW3.2 kmh SW 10.0 mph16.1 kmh 29.97 in1014.9 mb 0.01 in0.3 mm 0.00 in/hr0.0 mm/hr 0.03 in0.8 mm
03:20 PM 39.8°F4.3°C 37.4°F3.0°C 91% Calm Calm 10.0 mph16.1 kmh 29.97 in1014.9 mb 0.01 in0.3 mm 0.00 in/hr0.0 mm/hr 0.03 in0.8 mm
03:23 PM 39.8°F4.3°C 37.4°F3.0°C 91% 3.0 mph SW4.8 kmh SW 10.0 mph16.1 kmh 29.97 in1014.9 mb 0.01 in0.3 mm 0.00 in/hr0.0 mm/hr 0.03 in0.8 mm
03:24 PM 39.9°F4.4°C 37.5°F3.1°C 91% 1.0 mph SW1.6 kmh SW 10.0 mph16.1 kmh 29.98 in1015.2 mb 0.01 in0.3 mm 0.00 in/hr0.0 mm/hr 0.03 in0.8 mm
03:25 PM 39.9°F4.4°C 37.5°F3.1°C 91% 3.0 mph SW4.8 kmh SW 10.0 mph16.1 kmh 29.98 in1015.2 mb 0.01 in0.3 mm 0.00 in/hr0.0 mm/hr 0.03 in0.8 mm
03:28 PM 40.0°F4.4°C 37.6°F3.1°C 91% 5.0 mph SW8.0 kmh SW 10.0 mph16.1 kmh 29.97 in1014.9 mb 0.01 in0.3 mm 0.00 in/hr0.0 mm/hr 0.03 in0.8 mm
03:29 PM 40.0°F4.4°C 37.6°F3.1°C 91% 3.0 mph SW4.8 kmh SW 10.0 mph16.1 kmh 29.97 in1014.9 mb 0.01 in0.3 mm 0.00 in/hr0.0 mm/hr 0.03 in0.8 mm
03:30 PM 40.0°F4.4°C 37.6°F3.1°C 91% 7.0 mph SW11.3 kmh SW 10.0 mph16.1 kmh 29.97 in1014.9 mb 0.01 in0.3 mm 0.00 in/hr0.0 mm/hr 0.03 in0.8 mm
03:33 PM 40.1°F4.5°C 37.7°F3.2°C 91% 2.0 mph SW3.2 kmh SW 10.0 mph16.1 kmh 29.97 in1014.9 mb 0.01 in0.3 mm 0.00 in/hr0.0 mm/hr 0.03 in0.8 mm
03:34 PM 40.1°F4.5°C 37.7°F3.2°C 91% 4.0 mph SW6.4 kmh SW 10.0 mph16.1 kmh 29.97 in1014.9 mb 0.01 in0.3 mm 0.00 in/hr0.0 mm/hr 0.03 in0.8 mm
03:35 PM 40.1°F4.5°C 37.7°F3.2°C 91% 3.0 mph SW4.8 kmh SW 10.0 mph16.1 kmh 29.97 in1014.9 mb 0.01 in0.3 mm 0.00 in/hr0.0 mm/hr 0.03 in0.8 mm
03:38 PM 40.2°F4.6°C 37.8°F3.2°C 91% 1.0 mph SW1.6 kmh SW 10.0 mph16.1 kmh 29.97 in1014.9 mb 0.02 in0.5 mm 0.20 in/hr5.1 mm/hr 0.04 in1.0 mm
03:39 PM 40.2°F4.6°C 37.8°F3.2°C 91% 4.0 mph SW6.4 kmh SW 10.0 mph16.1 kmh 29.97 in1014.9 mb 0.02 in0.5 mm 0.00 in/hr0.0 mm/hr 0.04 in1.0 mm
03:40 PM 40.3°F4.6°C 37.9°F3.3°C 91% Calm Calm 10.0 mph16.1 kmh 29.97 in1014.9 mb 0.02 in0.5 mm 0.00 in/hr0.0 mm/hr 0.04 in1.0 mm
03:43 PM 40.4°F4.7°C 38.0°F3.3°C 91% 2.0 mph SW3.2 kmh SW 10.0 mph16.1 kmh 29.97 in1014.9 mb 0.02 in0.5 mm 0.00 in/hr0.0 mm/hr 0.04 in1.0 mm
03:44 PM 40.4°F4.7°C 38.0°F3.3°C 91% 2.0 mph SW3.2 kmh SW 10.0 mph16.1 kmh 29.96 in1014.6 mb 0.02 in0.5 mm 0.00 in/hr0.0 mm/hr 0.04 in1.0 mm
03:45 PM 40.4°F4.7°C 38.0°F3.3°C 91% 1.0 mph SW1.6 kmh SW 10.0 mph16.1 kmh 29.97 in1014.9 mb 0.02 in0.5 mm 0.00 in/hr0.0 mm/hr 0.04 in1.0 mm
03:48 PM 40.5°F4.7°C 38.1°F3.4°C 91% 5.0 mph SW8.0 kmh SW 10.0 mph16.1 kmh 29.97 in1014.9 mb 0.02 in0.5 mm 0.00 in/hr0.0 mm/hr 0.04 in1.0 mm
03:49 PM 40.5°F4.7°C 38.1°F3.4°C 91% 6.0 mph SSW9.7 kmh SSW 10.0 mph16.1 kmh 29.97 in1014.9 mb 0.02 in0.5 mm 0.00 in/hr0.0 mm/hr 0.04 in1.0 mm
03:50 PM 40.5°F4.7°C 38.1°F3.4°C 91% 5.0 mph SSW8.0 kmh SSW 10.0 mph16.1 kmh 29.97 in1014.9 mb 0.02 in0.5 mm 0.00 in/hr0.0 mm/hr 0.04 in1.0 mm
03:53 PM 40.6°F4.8°C 38.2°F3.4°C 91% 6.0 mph SSW9.7 kmh SSW 10.0 mph16.1 kmh 29.97 in1014.9 mb 0.02 in0.5 mm 0.00 in/hr0.0 mm/hr 0.04 in1.0 mm
03:54 PM 40.7°F4.8°C 38.3°F3.5°C 91% 1.0 mph SSW1.6 kmh SSW 10.0 mph16.1 kmh 29.97 in1014.9 mb 0.02 in0.5 mm 0.00 in/hr0.0 mm/hr 0.04 in1.0 mm
03:55 PM 40.7°F4.8°C 38.3°F3.5°C 91% 1.0 mph SSW1.6 kmh SSW 10.0 mph16.1 kmh 29.97 in1014.9 mb 0.02 in0.5 mm 0.00 in/hr0.0 mm/hr 0.04 in1.0 mm
03:58 PM 40.7°F4.8°C 38.3°F3.5°C 91% 3.0 mph SSW4.8 kmh SSW 10.0 mph16.1 kmh 29.97 in1014.9 mb 0.02 in0.5 mm 0.00 in/hr0.0 mm/hr 0.04 in1.0 mm
03:59 PM 40.8°F4.9°C 38.4°F3.6°C 91% 1.0 mph S1.6 kmh S 10.0 mph16.1 kmh 29.96 in1014.6 mb 0.02 in0.5 mm 0.00 in/hr0.0 mm/hr 0.04 in1.0 mm
04:00 PM 40.8°F4.9°C 38.4°F3.6°C 91% 5.0 mph S8.0 kmh S 5.0 mph8.0 kmh 29.97 in1014.9 mb 0.01 in0.3 mm 0.00 in/hr0.0 mm/hr 0.04 in1.0 mm
04:03 PM 40.8°F4.9°C 38.4°F3.6°C 91% 6.0 mph S9.7 kmh S 10.0 mph16.1 kmh 29.96 in1014.6 mb 0.01 in0.3 mm 0.00 in/hr0.0 mm/hr 0.04 in1.0 mm
04:04 PM 40.8°F4.9°C 38.4°F3.6°C 91% 7.0 mph S11.3 kmh S 10.0 mph16.1 kmh 29.96 in1014.6 mb 0.01 in0.3 mm 0.00 in/hr0.0 mm/hr 0.04 in1.0 mm
04:05 PM 40.8°F4.9°C 38.4°F3.6°C 91% 8.0 mph S12.9 kmh S 11.0 mph17.7 kmh 29.96 in1014.6 mb 0.01 in0.3 mm 0.00 in/hr0.0 mm/hr 0.04 in1.0 mm
04:08 PM 40.8°F4.9°C 38.4°F3.6°C 91% 8.0 mph SSW12.9 kmh SSW 14.0 mph22.5 kmh 29.96 in1014.6 mb 0.01 in0.3 mm 0.00 in/hr0.0 mm/hr 0.04 in1.0 mm
04:09 PM 40.8°F4.9°C 38.4°F3.6°C 91% 8.0 mph S12.9 kmh S 14.0 mph22.5 kmh 29.96 in1014.6 mb 0.01 in0.3 mm 0.00 in/hr0.0 mm/hr 0.04 in1.0 mm
04:10 PM 40.8°F4.9°C 38.4°F3.6°C 91% 8.0 mph SSW12.9 kmh SSW 14.0 mph22.5 kmh 29.96 in1014.6 mb 0.01 in0.3 mm 0.00 in/hr0.0 mm/hr 0.04 in1.0 mm
04:13 PM 40.8°F4.9°C 38.4°F3.6°C 91% Calm Calm 14.0 mph22.5 kmh 29.96 in1014.6 mb 0.01 in0.3 mm 0.00 in/hr0.0 mm/hr 0.04 in1.0 mm
04:14 PM 40.8°F4.9°C 38.4°F3.6°C 91% 7.0 mph SSW11.3 kmh SSW 14.0 mph22.5 kmh 29.96 in1014.6 mb 0.01 in0.3 mm 0.00 in/hr0.0 mm/hr 0.04 in1.0 mm
04:15 PM 40.8°F4.9°C 38.4°F3.6°C 91% 4.0 mph SSW6.4 kmh SSW 14.0 mph22.5 kmh 29.96 in1014.6 mb 0.01 in0.3 mm 0.00 in/hr0.0 mm/hr 0.04 in1.0 mm
04:18 PM 40.8°F4.9°C 38.4°F3.6°C 91% 5.0 mph S8.0 kmh S 14.0 mph22.5 kmh 29.96 in1014.6 mb 0.01 in0.3 mm 0.00 in/hr0.0 mm/hr 0.04 in1.0 mm
04:19 PM 40.8°F4.9°C 38.4°F3.6°C 91% 3.0 mph S4.8 kmh S 14.0 mph22.5 kmh 29.96 in1014.6 mb 0.01 in0.3 mm 0.00 in/hr0.0 mm/hr 0.04 in1.0 mm
04:20 PM 40.8°F4.9°C 38.4°F3.6°C 91% 5.0 mph S8.0 kmh S 14.0 mph22.5 kmh 29.96 in1014.6 mb 0.01 in0.3 mm 0.00 in/hr0.0 mm/hr 0.04 in1.0 mm
04:23 PM 40.8°F4.9°C 38.7°F3.7°C 92% 2.0 mph S3.2 kmh S 14.0 mph22.5 kmh 29.96 in1014.6 mb 0.01 in0.3 mm 0.00 in/hr0.0 mm/hr 0.04 in1.0 mm
04:24 PM 40.8°F4.9°C 38.7°F3.7°C 92% 5.0 mph SSW8.0 kmh SSW 14.0 mph22.5 kmh 29.96 in1014.6 mb 0.01 in0.3 mm 0.00 in/hr0.0 mm/hr 0.04 in1.0 mm
04:25 PM 40.8°F4.9°C 38.7°F3.7°C 92% 9.0 mph SSW14.5 kmh SSW 14.0 mph22.5 kmh 29.96 in1014.6 mb 0.01 in0.3 mm 0.00 in/hr0.0 mm/hr 0.04 in1.0 mm
04:28 PM 40.9°F4.9°C 38.8°F3.8°C 92% 4.0 mph S6.4 kmh S 15.0 mph24.1 kmh 29.96 in1014.6 mb 0.01 in0.3 mm 0.00 in/hr0.0 mm/hr 0.04 in1.0 mm
04:29 PM 40.9°F4.9°C 38.8°F3.8°C 92% 11.0 mph S17.7 kmh S 15.0 mph24.1 kmh 29.96 in1014.6 mb 0.01 in0.3 mm 0.00 in/hr0.0 mm/hr 0.04 in1.0 mm
04:30 PM 40.9°F4.9°C 38.8°F3.8°C 92% 6.0 mph S9.7 kmh S 15.0 mph24.1 kmh 29.97 in1014.9 mb 0.01 in0.3 mm 0.00 in/hr0.0 mm/hr 0.04 in1.0 mm
04:33 PM 40.9°F4.9°C 38.8°F3.8°C 92% 8.0 mph S12.9 kmh S 15.0 mph24.1 kmh 29.96 in1014.6 mb 0.01 in0.3 mm 0.00 in/hr0.0 mm/hr 0.04 in1.0 mm
04:34 PM 40.9°F4.9°C 38.8°F3.8°C 92% 7.0 mph S11.3 kmh S 15.0 mph24.1 kmh 29.96 in1014.6 mb 0.01 in0.3 mm 0.00 in/hr0.0 mm/hr 0.04 in1.0 mm
04:35 PM 40.9°F4.9°C 38.8°F3.8°C 92% 9.0 mph S14.5 kmh S 15.0 mph24.1 kmh 29.96 in1014.6 mb 0.01 in0.3 mm 0.00 in/hr0.0 mm/hr 0.04 in1.0 mm
04:38 PM 41.0°F5.0°C 38.9°F3.8°C 92% 4.0 mph S6.4 kmh S 15.0 mph24.1 kmh 29.97 in1014.9 mb 0.01 in0.3 mm 0.00 in/hr0.0 mm/hr 0.04 in1.0 mm
04:39 PM 41.0°F5.0°C 38.9°F3.8°C 92% 3.0 mph S4.8 kmh S 15.0 mph24.1 kmh 29.97 in1014.9 mb 0.01 in0.3 mm 0.00 in/hr0.0 mm/hr 0.04 in1.0 mm
04:40 PM 41.0°F5.0°C 38.9°F3.8°C 92% 7.0 mph S11.3 kmh S 15.0 mph24.1 kmh 29.97 in1014.9 mb 0.01 in0.3 mm 0.00 in/hr0.0 mm/hr 0.04 in1.0 mm
04:43 PM 41.0°F5.0°C 38.9°F3.8°C 92% 11.0 mph S17.7 kmh S 15.0 mph24.1 kmh 29.97 in1014.9 mb 0.01 in0.3 mm 0.00 in/hr0.0 mm/hr 0.04 in1.0 mm
04:44 PM 41.0°F5.0°C 38.9°F3.8°C 92% 6.0 mph SSW9.7 kmh SSW 15.0 mph24.1 kmh 29.97 in1014.9 mb 0.01 in0.3 mm 0.00 in/hr0.0 mm/hr 0.04 in1.0 mm
04:45 PM 41.0°F5.0°C 38.9°F3.8°C 92% 4.0 mph SSW6.4 kmh SSW 15.0 mph24.1 kmh 29.97 in1014.9 mb 0.01 in0.3 mm 0.00 in/hr0.0 mm/hr 0.04 in1.0 mm
04:48 PM 41.1°F5.1°C 39.0°F3.9°C 92% 6.0 mph SSW9.7 kmh SSW 15.0 mph24.1 kmh 29.96 in1014.6 mb 0.01 in0.3 mm 0.00 in/hr0.0 mm/hr 0.04 in1.0 mm
04:49 PM 41.1°F5.1°C 39.0°F3.9°C 92% 10.0 mph SSW16.1 kmh SSW 15.0 mph24.1 kmh 29.97 in1014.9 mb 0.01 in0.3 mm 0.00 in/hr0.0 mm/hr 0.04 in1.0 mm
04:50 PM 41.0°F5.0°C 38.9°F3.8°C 92% 5.0 mph S8.0 kmh S 15.0 mph24.1 kmh 29.97 in1014.9 mb 0.01 in0.3 mm 0.00 in/hr0.0 mm/hr 0.04 in1.0 mm
04:53 PM 41.1°F5.1°C 39.0°F3.9°C 92% 3.0 mph S4.8 kmh S 15.0 mph24.1 kmh 29.97 in1014.9 mb 0.01 in0.3 mm 0.00 in/hr0.0 mm/hr 0.04 in1.0 mm
04:54 PM 41.1°F5.1°C 39.0°F3.9°C 92% 7.0 mph S11.3 kmh S 15.0 mph24.1 kmh 29.97 in1014.9 mb 0.01 in0.3 mm 0.00 in/hr0.0 mm/hr 0.04 in1.0 mm
04:55 PM 41.1°F5.1°C 39.0°F3.9°C 92% 6.0 mph S9.7 kmh S 15.0 mph24.1 kmh 29.97 in1014.9 mb 0.01 in0.3 mm 0.00 in/hr0.0 mm/hr 0.04 in1.0 mm
04:58 PM 41.1°F5.1°C 39.0°F3.9°C 92% 7.0 mph S11.3 kmh S 15.0 mph24.1 kmh 29.96 in1014.6 mb 0.01 in0.3 mm 0.00 in/hr0.0 mm/hr 0.04 in1.0 mm
04:59 PM 41.1°F5.1°C 39.0°F3.9°C 92% 5.0 mph S8.0 kmh S 15.0 mph24.1 kmh 29.97 in1014.9 mb 0.01 in0.3 mm 0.00 in/hr0.0 mm/hr 0.04 in1.0 mm
05:00 PM 41.1°F5.1°C 39.0°F3.9°C 92% 5.0 mph S8.0 kmh S 5.0 mph8.0 kmh 29.97 in1014.9 mb 0.00 in0.0 mm 0.00 in/hr0.0 mm/hr 0.04 in1.0 mm
05:03 PM 41.1°F5.1°C 39.0°F3.9°C 92% 1.0 mph S1.6 kmh S 5.0 mph8.0 kmh 29.97 in1014.9 mb 0.00 in0.0 mm 0.00 in/hr0.0 mm/hr 0.04 in1.0 mm
05:04 PM 41.1°F5.1°C 39.0°F3.9°C 92% 1.0 mph S1.6 kmh S 5.0 mph8.0 kmh 29.97 in1014.9 mb 0.00 in0.0 mm 0.00 in/hr0.0 mm/hr 0.04 in1.0 mm
05:05 PM 41.1°F5.1°C 39.0°F3.9°C 92% 4.0 mph SSW6.4 kmh SSW 8.0 mph12.9 kmh 29.97 in1014.9 mb 0.00 in0.0 mm 0.00 in/hr0.0 mm/hr 0.04 in1.0 mm
05:08 PM 41.2°F5.1°C 39.1°F3.9°C 92% 2.0 mph SSW3.2 kmh SSW 8.0 mph12.9 kmh 29.97 in1014.9 mb 0.00 in0.0 mm 0.00 in/hr0.0 mm/hr 0.04 in1.0 mm
05:09 PM 41.2°F5.1°C 39.1°F3.9°C 92% 4.0 mph SSW6.4 kmh SSW 8.0 mph12.9 kmh 29.97 in1014.9 mb 0.00 in0.0 mm 0.00 in/hr0.0 mm/hr 0.04 in1.0 mm
05:10 PM 41.2°F5.1°C 39.1°F3.9°C 92% 1.0 mph SSW1.6 kmh SSW 8.0 mph12.9 kmh 29.97 in1014.9 mb 0.00 in0.0 mm 0.00 in/hr0.0 mm/hr 0.04 in1.0 mm
05:13 PM 41.2°F5.1°C 39.1°F3.9°C 92% 2.0 mph SW3.2 kmh SW 11.0 mph17.7 kmh 29.97 in1014.9 mb 0.00 in0.0 mm 0.00 in/hr0.0 mm/hr 0.04 in1.0 mm
05:14 PM 41.2°F5.1°C 39.1°F3.9°C 92% 7.0 mph SW11.3 kmh SW 11.0 mph17.7 kmh 29.97 in1014.9 mb 0.00 in0.0 mm 0.00 in/hr0.0 mm/hr 0.04 in1.0 mm
05:15 PM 41.2°F5.1°C 39.1°F3.9°C 92% 4.0 mph SW6.4 kmh SW 11.0 mph17.7 kmh 29.97 in1014.9 mb 0.00 in0.0 mm 0.00 in/hr0.0 mm/hr 0.04 in1.0 mm
05:18 PM 41.2°F5.1°C 39.1°F3.9°C 92% 2.0 mph SW3.2 kmh SW 11.0 mph17.7 kmh 29.97 in1014.9 mb 0.00 in0.0 mm 0.00 in/hr0.0 mm/hr 0.04 in1.0 mm
05:19 PM 41.2°F5.1°C 39.1°F3.9°C 92% 3.0 mph SW4.8 kmh SW 11.0 mph17.7 kmh 29.96 in1014.6 mb 0.00 in0.0 mm 0.00 in/hr0.0 mm/hr 0.04 in1.0 mm
05:20 PM 41.2°F5.1°C 39.1°F3.9°C 92% 1.0 mph SW1.6 kmh SW 11.0 mph17.7 kmh 29.96 in1014.6 mb 0.00 in0.0 mm 0.00 in/hr0.0 mm/hr 0.04 in1.0 mm
05:23 PM 41.1°F5.1°C 39.0°F3.9°C 92% 2.0 mph SW3.2 kmh SW 11.0 mph17.7 kmh 29.96 in1014.6 mb 0.00 in0.0 mm 0.00 in/hr0.0 mm/hr 0.04 in1.0 mm
05:24 PM 41.1°F5.1°C 39.0°F3.9°C 92% 2.0 mph SW3.2 kmh SW 11.0 mph17.7 kmh 29.96 in1014.6 mb 0.00 in0.0 mm 0.00 in/hr0.0 mm/hr 0.04 in1.0 mm
05:25 PM 41.1°F5.1°C 39.0°F3.9°C 92% 2.0 mph SW3.2 kmh SW 11.0 mph17.7 kmh 29.96 in1014.6 mb 0.00 in0.0 mm 0.00 in/hr0.0 mm/hr 0.04 in1.0 mm
05:28 PM 41.1°F5.1°C 39.0°F3.9°C 92% 4.0 mph SW6.4 kmh SW 11.0 mph17.7 kmh 29.96 in1014.6 mb 0.01 in0.3 mm 0.20 in/hr5.1 mm/hr 0.05 in1.3 mm
05:29 PM 41.1°F5.1°C 39.0°F3.9°C 92% 4.0 mph SW6.4 kmh SW 11.0 mph17.7 kmh 29.96 in1014.6 mb 0.01 in0.3 mm 0.00 in/hr0.0 mm/hr 0.05 in1.3 mm
05:30 PM 41.1°F5.1°C 39.0°F3.9°C 92% 4.0 mph SW6.4 kmh SW 11.0 mph17.7 kmh 29.96 in1014.6 mb 0.01 in0.3 mm 0.00 in/hr0.0 mm/hr 0.05 in1.3 mm
05:33 PM 41.2°F5.1°C 39.1°F3.9°C 92% 3.0 mph SW4.8 kmh SW 11.0 mph17.7 kmh 29.96 in1014.6 mb 0.01 in0.3 mm 0.00 in/hr0.0 mm/hr 0.05 in1.3 mm
05:34 PM 41.2°F5.1°C 39.1°F3.9°C 92% 7.0 mph SW11.3 kmh SW 11.0 mph17.7 kmh 29.97 in1014.9 mb 0.01 in0.3 mm 0.00 in/hr0.0 mm/hr 0.05 in1.3 mm
05:35 PM 41.2°F5.1°C 39.1°F3.9°C 92% 6.0 mph SW9.7 kmh SW 11.0 mph17.7 kmh 29.97 in1014.9 mb 0.01 in0.3 mm 0.00 in/hr0.0 mm/hr 0.05 in1.3 mm
05:38 PM 41.3°F5.2°C 39.2°F4.0°C 92% 4.0 mph SW6.4 kmh SW 11.0 mph17.7 kmh 29.97 in1014.9 mb 0.01 in0.3 mm 0.00 in/hr0.0 mm/hr 0.05 in1.3 mm
05:39 PM 41.3°F5.2°C 39.2°F4.0°C 92% 6.0 mph SW9.7 kmh SW 11.0 mph17.7 kmh 29.97 in1014.9 mb 0.01 in0.3 mm 0.00 in/hr0.0 mm/hr 0.05 in1.3 mm
05:40 PM 41.4°F5.2°C 39.3°F4.1°C 92% 2.0 mph SW3.2 kmh SW 11.0 mph17.7 kmh 29.97 in1014.9 mb 0.01 in0.3 mm 0.00 in/hr0.0 mm/hr 0.05 in1.3 mm
05:43 PM 41.4°F5.2°C 39.3°F4.1°C 92% 5.0 mph SW8.0 kmh SW 11.0 mph17.7 kmh 29.97 in1014.9 mb 0.01 in0.3 mm 0.00 in/hr0.0 mm/hr 0.05 in1.3 mm
05:44 PM 41.5°F5.3°C 39.4°F4.1°C 92% 3.0 mph SW4.8 kmh SW 11.0 mph17.7 kmh 29.97 in1014.9 mb 0.01 in0.3 mm 0.00 in/hr0.0 mm/hr 0.05 in1.3 mm
05:45 PM 41.5°F5.3°C 39.4°F4.1°C 92% 2.0 mph SW3.2 kmh SW 11.0 mph17.7 kmh 29.96 in1014.6 mb 0.01 in0.3 mm 0.00 in/hr0.0 mm/hr 0.05 in1.3 mm
05:48 PM 41.5°F5.3°C 39.4°F4.1°C 92% Calm Calm 11.0 mph17.7 kmh 29.97 in1014.9 mb 0.01 in0.3 mm 0.00 in/hr0.0 mm/hr 0.05 in1.3 mm
05:49 PM 41.5°F5.3°C 39.4°F4.1°C 92% 2.0 mph SW3.2 kmh SW 11.0 mph17.7 kmh 29.97 in1014.9 mb 0.01 in0.3 mm 0.00 in/hr0.0 mm/hr 0.05 in1.3 mm
05:50 PM 41.6°F5.3°C 39.2°F4.0°C 91% Calm Calm 11.0 mph17.7 kmh 29.97 in1014.9 mb 0.01 in0.3 mm 0.00 in/hr0.0 mm/hr 0.05 in1.3 mm
05:53 PM 41.5°F5.3°C 39.1°F3.9°C 91% 1.0 mph SW1.6 kmh SW 11.0 mph17.7 kmh 29.96 in1014.6 mb 0.01 in0.3 mm 0.00 in/hr0.0 mm/hr 0.05 in1.3 mm
05:54 PM 41.5°F5.3°C 39.1°F3.9°C 91% 2.0 mph SW3.2 kmh SW 11.0 mph17.7 kmh 29.96 in1014.6 mb 0.01 in0.3 mm 0.00 in/hr0.0 mm/hr 0.05 in1.3 mm
05:55 PM 41.5°F5.3°C 39.1°F3.9°C 91% 3.0 mph SW4.8 kmh SW 11.0 mph17.7 kmh 29.96 in1014.6 mb 0.01 in0.3 mm 0.00 in/hr0.0 mm/hr 0.05 in1.3 mm
05:58 PM 41.6°F5.3°C 39.2°F4.0°C 91% 5.0 mph SW8.0 kmh SW 11.0 mph17.7 kmh 29.96 in1014.6 mb 0.01 in0.3 mm 0.00 in/hr0.0 mm/hr 0.05 in1.3 mm
05:59 PM 41.5°F5.3°C 39.1°F3.9°C 91% 5.0 mph SW8.0 kmh SW 11.0 mph17.7 kmh 29.97 in1014.9 mb 0.01 in0.3 mm 0.00 in/hr0.0 mm/hr 0.05 in1.3 mm
06:00 PM 41.5°F5.3°C 39.1°F3.9°C 91% 4.0 mph SW6.4 kmh SW 7.0 mph11.3 kmh 29.96 in1014.6 mb 0.01 in0.3 mm 0.00 in/hr0.0 mm/hr 0.05 in1.3 mm
06:03 PM 41.6°F5.3°C 39.2°F4.0°C 91% 3.0 mph SW4.8 kmh SW 8.0 mph12.9 kmh 29.97 in1014.9 mb 0.01 in0.3 mm 0.00 in/hr0.0 mm/hr 0.05 in1.3 mm
06:04 PM 41.6°F5.3°C 39.2°F4.0°C 91% 7.0 mph SW11.3 kmh SW 12.0 mph19.3 kmh 29.97 in1014.9 mb 0.01 in0.3 mm 0.00 in/hr0.0 mm/hr 0.05 in1.3 mm
06:05 PM 41.6°F5.3°C 39.2°F4.0°C 91% 5.0 mph SW8.0 kmh SW 12.0 mph19.3 kmh 29.97 in1014.9 mb 0.01 in0.3 mm 0.00 in/hr0.0 mm/hr 0.05 in1.3 mm
06:08 PM 41.7°F5.4°C 39.3°F4.1°C 91% 6.0 mph SW9.7 kmh SW 12.0 mph19.3 kmh 29.97 in1014.9 mb 0.02 in0.5 mm 0.20 in/hr5.1 mm/hr 0.06 in1.5 mm
06:09 PM 41.7°F5.4°C 39.3°F4.1°C 91% 7.0 mph SW11.3 kmh SW 12.0 mph19.3 kmh 29.97 in1014.9 mb 0.02 in0.5 mm 0.00 in/hr0.0 mm/hr 0.06 in1.5 mm
06:10 PM 41.7°F5.4°C 39.3°F4.1°C 91% 6.0 mph SW9.7 kmh SW 12.0 mph19.3 kmh 29.97 in1014.9 mb 0.02 in0.5 mm 0.00 in/hr0.0 mm/hr 0.06 in1.5 mm
06:13 PM 41.8°F5.4°C 39.4°F4.1°C 91% 6.0 mph SW9.7 kmh SW 12.0 mph19.3 kmh 29.97 in1014.9 mb 0.02 in0.5 mm 0.00 in/hr0.0 mm/hr 0.06 in1.5 mm
06:14 PM 41.8°F5.4°C 39.4°F4.1°C 91% 6.0 mph SW9.7 kmh SW 12.0 mph19.3 kmh 29.97 in1014.9 mb 0.02 in0.5 mm 0.00 in/hr0.0 mm/hr 0.06 in1.5 mm
06:15 PM 41.8°F5.4°C 39.4°F4.1°C 91% 4.0 mph SW6.4 kmh SW 12.0 mph19.3 kmh 29.97 in1014.9 mb 0.02 in0.5 mm 0.00 in/hr0.0 mm/hr 0.06 in1.5 mm
06:18 PM 41.8°F5.4°C 39.4°F4.1°C 91% 6.0 mph SW9.7 kmh SW 12.0 mph19.3 kmh 29.97 in1014.9 mb 0.02 in0.5 mm 0.00 in/hr0.0 mm/hr 0.06 in1.5 mm
06:19 PM 41.8°F5.4°C 39.4°F4.1°C 91% 3.0 mph SW4.8 kmh SW 12.0 mph19.3 kmh 29.97 in1014.9 mb 0.02 in0.5 mm 0.00 in/hr0.0 mm/hr 0.06 in1.5 mm
06:20 PM 41.8°F5.4°C 39.4°F4.1°C 91% 2.0 mph SW3.2 kmh SW 12.0 mph19.3 kmh 29.97 in1014.9 mb 0.02 in0.5 mm 0.00 in/hr0.0 mm/hr 0.06 in1.5 mm
06:23 PM 41.9°F5.5°C 39.5°F4.2°C 91% 8.0 mph SW12.9 kmh SW 12.0 mph19.3 kmh 29.97 in1014.9 mb 0.02 in0.5 mm 0.00 in/hr0.0 mm/hr 0.06 in1.5 mm
06:24 PM 41.8°F5.4°C 39.4°F4.1°C 91% 5.0 mph SW8.0 kmh SW 12.0 mph19.3 kmh 29.97 in1014.9 mb 0.02 in0.5 mm 0.00 in/hr0.0 mm/hr 0.06 in1.5 mm
06:25 PM 41.9°F5.5°C 39.5°F4.2°C 91% 6.0 mph SW9.7 kmh SW 12.0 mph19.3 kmh 29.97 in1014.9 mb 0.02 in0.5 mm 0.00 in/hr0.0 mm/hr 0.06 in1.5 mm
06:28 PM 41.9°F5.5°C 39.5°F4.2°C 91% 7.0 mph SW11.3 kmh SW 13.0 mph20.9 kmh 29.97 in1014.9 mb 0.02 in0.5 mm 0.00 in/hr0.0 mm/hr 0.06 in1.5 mm
06:29 PM 41.9°F5.5°C 39.5°F4.2°C 91% 3.0 mph SW4.8 kmh SW 13.0 mph20.9 kmh 29.97 in1014.9 mb 0.02 in0.5 mm 0.00 in/hr0.0 mm/hr 0.06 in1.5 mm
06:30 PM 41.9°F5.5°C 39.5°F4.2°C 91% 3.0 mph SW4.8 kmh SW 13.0 mph20.9 kmh 29.97 in1014.9 mb 0.02 in0.5 mm 0.00 in/hr0.0 mm/hr 0.06 in1.5 mm
06:33 PM 41.9°F5.5°C 39.5°F4.2°C 91% 2.0 mph SW3.2 kmh SW 13.0 mph20.9 kmh 29.97 in1014.9 mb 0.02 in0.5 mm 0.00 in/hr0.0 mm/hr 0.06 in1.5 mm
06:34 PM 41.9°F5.5°C 39.5°F4.2°C 91% 2.0 mph SW3.2 kmh SW 13.0 mph20.9 kmh 29.96 in1014.6 mb 0.02 in0.5 mm 0.00 in/hr0.0 mm/hr 0.06 in1.5 mm
06:35 PM 41.9°F5.5°C 39.5°F4.2°C 91% 4.0 mph SW6.4 kmh SW 13.0 mph20.9 kmh 29.97 in1014.9 mb 0.02 in0.5 mm 0.00 in/hr0.0 mm/hr 0.06 in1.5 mm
06:38 PM 41.9°F5.5°C 39.5°F4.2°C 91% 2.0 mph SW3.2 kmh SW 13.0 mph20.9 kmh 29.96 in1014.6 mb 0.03 in0.8 mm 0.20 in/hr5.1 mm/hr 0.07 in1.8 mm
06:39 PM 41.9°F5.5°C 39.5°F4.2°C 91% 2.0 mph SW3.2 kmh SW 13.0 mph20.9 kmh 29.96 in1014.6 mb 0.03 in0.8 mm 0.00 in/hr0.0 mm/hr 0.07 in1.8 mm
06:40 PM 41.9°F5.5°C 39.5°F4.2°C 91% 5.0 mph SW8.0 kmh SW 13.0 mph20.9 kmh 29.97 in1014.9 mb 0.03 in0.8 mm 0.00 in/hr0.0 mm/hr 0.07 in1.8 mm
06:43 PM 41.9°F5.5°C 39.5°F4.2°C 91% 9.0 mph SW14.5 kmh SW 13.0 mph20.9 kmh 29.96 in1014.6 mb 0.03 in0.8 mm 0.00 in/hr0.0 mm/hr 0.07 in1.8 mm
06:44 PM 41.9°F5.5°C 39.5°F4.2°C 91% 3.0 mph SW4.8 kmh SW 13.0 mph20.9 kmh 29.96 in1014.6 mb 0.03 in0.8 mm 0.00 in/hr0.0 mm/hr 0.07 in1.8 mm
06:45 PM 41.9°F5.5°C 39.5°F4.2°C 91% 3.0 mph SW4.8 kmh SW 13.0 mph20.9 kmh 29.97 in1014.9 mb 0.03 in0.8 mm 0.00 in/hr0.0 mm/hr 0.07 in1.8 mm
06:48 PM 41.9°F5.5°C 39.5°F4.2°C 91% 1.0 mph SW1.6 kmh SW 13.0 mph20.9 kmh 29.96 in1014.6 mb 0.03 in0.8 mm 0.00 in/hr0.0 mm/hr 0.07 in1.8 mm
06:49 PM 41.9°F5.5°C 39.5°F4.2°C 91% 7.0 mph SW11.3 kmh SW 13.0 mph20.9 kmh 29.96 in1014.6 mb 0.03 in0.8 mm 0.00 in/hr0.0 mm/hr 0.07 in1.8 mm
06:50 PM 41.9°F5.5°C 39.5°F4.2°C 91% 7.0 mph SW11.3 kmh SW 13.0 mph20.9 kmh 29.96 in1014.6 mb 0.03 in0.8 mm 0.00 in/hr0.0 mm/hr 0.07 in1.8 mm
06:53 PM 41.9°F5.5°C 39.5°F4.2°C 91% Calm Calm 13.0 mph20.9 kmh 29.96 in1014.6 mb 0.03 in0.8 mm 0.00 in/hr0.0 mm/hr 0.07 in1.8 mm
06:54 PM 41.9°F5.5°C 39.5°F4.2°C 91% 2.0 mph SW3.2 kmh SW 13.0 mph20.9 kmh 29.96 in1014.6 mb 0.03 in0.8 mm 0.00 in/hr0.0 mm/hr 0.07 in1.8 mm
06:55 PM 41.9°F5.5°C 39.5°F4.2°C 91% 5.0 mph SW8.0 kmh SW 13.0 mph20.9 kmh 29.96 in1014.6 mb 0.03 in0.8 mm 0.00 in/hr0.0 mm/hr 0.07 in1.8 mm
06:58 PM 41.9°F5.5°C 39.5°F4.2°C 91% 5.0 mph SW8.0 kmh SW 13.0 mph20.9 kmh 29.96 in1014.6 mb 0.04 in1.0 mm 0.20 in/hr5.1 mm/hr 0.08 in2.0 mm
06:59 PM 41.9°F5.5°C 39.5°F4.2°C 91% 3.0 mph SW4.8 kmh SW 13.0 mph20.9 kmh 29.96 in1014.6 mb 0.04 in1.0 mm 0.00 in/hr0.0 mm/hr 0.08 in2.0 mm
07:00 PM 41.9°F5.5°C 39.5°F4.2°C 91% 6.0 mph SW9.7 kmh SW 6.0 mph9.7 kmh 29.96 in1014.6 mb 0.03 in0.8 mm 0.00 in/hr0.0 mm/hr 0.08 in2.0 mm
07:03 PM 42.0°F5.6°C 39.6°F4.2°C 91% 2.0 mph SW3.2 kmh SW 10.0 mph16.1 kmh 29.96 in1014.6 mb 0.03 in0.8 mm 0.00 in/hr0.0 mm/hr 0.08 in2.0 mm
07:04 PM 42.0°F5.6°C 39.6°F4.2°C 91% 3.0 mph SW4.8 kmh SW 10.0 mph16.1 kmh 29.96 in1014.6 mb 0.03 in0.8 mm 0.00 in/hr0.0 mm/hr 0.08 in2.0 mm
07:05 PM 42.1°F5.6°C 39.7°F4.3°C 91% 4.0 mph SW6.4 kmh SW 10.0 mph16.1 kmh 29.96 in1014.6 mb 0.03 in0.8 mm 0.00 in/hr0.0 mm/hr 0.08 in2.0 mm
07:08 PM 42.1°F5.6°C 39.7°F4.3°C 91% 5.0 mph SW8.0 kmh SW 10.0 mph16.1 kmh 29.96 in1014.6 mb 0.03 in0.8 mm 0.00 in/hr0.0 mm/hr 0.08 in2.0 mm
07:09 PM 42.1°F5.6°C 39.7°F4.3°C 91% Calm Calm 10.0 mph16.1 kmh 29.96 in1014.6 mb 0.03 in0.8 mm 0.00 in/hr0.0 mm/hr 0.08 in2.0 mm
07:10 PM 42.1°F5.6°C 39.7°F4.3°C 91% 3.0 mph SW4.8 kmh SW 10.0 mph16.1 kmh 29.96 in1014.6 mb 0.03 in0.8 mm 0.00 in/hr0.0 mm/hr 0.08 in2.0 mm
07:13 PM 42.1°F5.6°C 39.7°F4.3°C 91% 3.0 mph SW4.8 kmh SW 10.0 mph16.1 kmh 29.96 in1014.6 mb 0.03 in0.8 mm 0.00 in/hr0.0 mm/hr 0.08 in2.0 mm
07:14 PM 42.1°F5.6°C 39.7°F4.3°C 91% 2.0 mph SW3.2 kmh SW 10.0 mph16.1 kmh 29.96 in1014.6 mb 0.03 in0.8 mm 0.00 in/hr0.0 mm/hr 0.08 in2.0 mm
07:15 PM 42.1°F5.6°C 39.7°F4.3°C 91% 4.0 mph SW6.4 kmh SW 10.0 mph16.1 kmh 29.96 in1014.6 mb 0.03 in0.8 mm 0.00 in/hr0.0 mm/hr 0.08 in2.0 mm
07:18 PM 42.2°F5.7°C 39.8°F4.3°C 91% 2.0 mph SW3.2 kmh SW 10.0 mph16.1 kmh 29.96 in1014.6 mb 0.03 in0.8 mm 0.00 in/hr0.0 mm/hr 0.08 in2.0 mm
07:19 PM 42.2°F5.7°C 39.8°F4.3°C 91% 1.0 mph SW1.6 kmh SW 10.0 mph16.1 kmh 29.96 in1014.6 mb 0.03 in0.8 mm 0.00 in/hr0.0 mm/hr 0.08 in2.0 mm
07:20 PM 42.2°F5.7°C 39.8°F4.3°C 91% 6.0 mph SW9.7 kmh SW 10.0 mph16.1 kmh 29.96 in1014.6 mb 0.03 in0.8 mm 0.00 in/hr0.0 mm/hr 0.08 in2.0 mm
07:23 PM 42.2°F5.7°C 39.8°F4.3°C 91% 3.0 mph SW4.8 kmh SW 10.0 mph16.1 kmh 29.96 in1014.6 mb 0.03 in0.8 mm 0.00 in/hr0.0 mm/hr 0.08 in2.0 mm
07:24 PM 42.3°F5.7°C 39.9°F4.4°C 91% 8.0 mph SW12.9 kmh SW 10.0 mph16.1 kmh 29.96 in1014.6 mb 0.03 in0.8 mm 0.00 in/hr0.0 mm/hr 0.08 in2.0 mm
07:25 PM 42.3°F5.7°C 39.9°F4.4°C 91% 5.0 mph SW8.0 kmh SW 10.0 mph16.1 kmh 29.96 in1014.6 mb 0.03 in0.8 mm 0.00 in/hr0.0 mm/hr 0.08 in2.0 mm
07:28 PM 42.4°F5.8°C 40.0°F4.4°C 91% 7.0 mph SW11.3 kmh SW 10.0 mph16.1 kmh 29.96 in1014.6 mb 0.03 in0.8 mm 0.00 in/hr0.0 mm/hr 0.08 in2.0 mm
07:29 PM 42.4°F5.8°C 40.0°F4.4°C 91% 11.0 mph SW17.7 kmh SW 11.0 mph17.7 kmh 29.96 in1014.6 mb 0.03 in0.8 mm 0.00 in/hr0.0 mm/hr 0.08 in2.0 mm
07:30 PM 42.4°F5.8°C 40.0°F4.4°C 91% 7.0 mph SW11.3 kmh SW 11.0 mph17.7 kmh 29.96 in1014.6 mb 0.03 in0.8 mm 0.00 in/hr0.0 mm/hr 0.08 in2.0 mm
07:33 PM 42.5°F5.8°C 40.1°F4.5°C 91% 5.0 mph SW8.0 kmh SW 11.0 mph17.7 kmh 29.96 in1014.6 mb 0.03 in0.8 mm 0.00 in/hr0.0 mm/hr 0.08 in2.0 mm
07:34 PM 42.5°F5.8°C 40.1°F4.5°C 91% 9.0 mph SW14.5 kmh SW 11.0 mph17.7 kmh 29.96 in1014.6 mb 0.03 in0.8 mm 0.00 in/hr0.0 mm/hr 0.08 in2.0 mm
07:35 PM 42.6°F5.9°C 40.2°F4.6°C 91% 5.0 mph SW8.0 kmh SW 11.0 mph17.7 kmh 29.96 in1014.6 mb 0.03 in0.8 mm 0.00 in/hr0.0 mm/hr 0.08 in2.0 mm
07:38 PM 42.6°F5.9°C 39.9°F4.4°C 90% 4.0 mph SW6.4 kmh SW 11.0 mph17.7 kmh 29.96 in1014.6 mb 0.04 in1.0 mm 0.20 in/hr5.1 mm/hr 0.09 in2.3 mm
07:39 PM 42.6°F5.9°C 39.9°F4.4°C 90% 8.0 mph SW12.9 kmh SW 11.0 mph17.7 kmh 29.96 in1014.6 mb 0.04 in1.0 mm 0.00 in/hr0.0 mm/hr 0.09 in2.3 mm
07:40 PM 42.6°F5.9°C 39.9°F4.4°C 90% 10.0 mph WSW16.1 kmh WSW 11.0 mph17.7 kmh 29.96 in1014.6 mb 0.04 in1.0 mm 0.00 in/hr0.0 mm/hr 0.09 in2.3 mm
07:43 PM 42.7°F5.9°C 40.0°F4.4°C 90% 4.0 mph WSW6.4 kmh WSW 11.0 mph17.7 kmh 29.96 in1014.6 mb 0.04 in1.0 mm 0.00 in/hr0.0 mm/hr 0.09 in2.3 mm
07:44 PM 42.7°F5.9°C 40.0°F4.4°C 90% 4.0 mph WSW6.4 kmh WSW 11.0 mph17.7 kmh 29.96 in1014.6 mb 0.04 in1.0 mm 0.00 in/hr0.0 mm/hr 0.09 in2.3 mm
07:45 PM 42.7°F5.9°C 40.0°F4.4°C 90% Calm Calm 11.0 mph17.7 kmh 29.96 in1014.6 mb 0.04 in1.0 mm 0.00 in/hr0.0 mm/hr 0.09 in2.3 mm
07:48 PM 42.7°F5.9°C 40.0°F4.4°C 90% 1.0 mph WSW1.6 kmh WSW 11.0 mph17.7 kmh 29.96 in1014.6 mb 0.04 in1.0 mm 0.00 in/hr0.0 mm/hr 0.09 in2.3 mm
07:49 PM 42.7°F5.9°C 40.0°F4.4°C 90% 3.0 mph WSW4.8 kmh WSW 11.0 mph17.7 kmh 29.96 in1014.6 mb 0.04 in1.0 mm 0.00 in/hr0.0 mm/hr 0.09 in2.3 mm
07:50 PM 42.7°F5.9°C 40.0°F4.4°C 90% 2.0 mph WSW3.2 kmh WSW 11.0 mph17.7 kmh 29.96 in1014.6 mb 0.04 in1.0 mm 0.00 in/hr0.0 mm/hr 0.09 in2.3 mm
07:53 PM 42.7°F5.9°C 40.0°F4.4°C 90% 6.0 mph WSW9.7 kmh WSW 11.0 mph17.7 kmh 29.96 in1014.6 mb 0.04 in1.0 mm 0.00 in/hr0.0 mm/hr 0.09 in2.3 mm
07:54 PM 42.6°F5.9°C 39.9°F4.4°C 90% 5.0 mph WSW8.0 kmh WSW 11.0 mph17.7 kmh 29.96 in1014.6 mb 0.04 in1.0 mm 0.00 in/hr0.0 mm/hr 0.09 in2.3 mm
07:55 PM 42.6°F5.9°C 39.9°F4.4°C 90% 6.0 mph WSW9.7 kmh WSW 11.0 mph17.7 kmh 29.96 in1014.6 mb 0.04 in1.0 mm 0.00 in/hr0.0 mm/hr 0.09 in2.3 mm
07:58 PM 42.6°F5.9°C 39.9°F4.4°C 90% 4.0 mph WSW6.4 kmh WSW 11.0 mph17.7 kmh 29.96 in1014.6 mb 0.04 in1.0 mm 0.00 in/hr0.0 mm/hr 0.09 in2.3 mm
07:59 PM 42.6°F5.9°C 39.9°F4.4°C 90% 1.0 mph WSW1.6 kmh WSW 11.0 mph17.7 kmh 29.96 in1014.6 mb 0.04 in1.0 mm 0.00 in/hr0.0 mm/hr 0.09 in2.3 mm
08:00 PM 42.6°F5.9°C 39.9°F4.4°C 90% 4.0 mph WSW6.4 kmh WSW 5.0 mph8.0 kmh 29.96 in1014.6 mb 0.01 in0.3 mm 0.00 in/hr0.0 mm/hr 0.09 in2.3 mm
08:03 PM 42.6°F5.9°C 39.9°F4.4°C 90% 5.0 mph WSW8.0 kmh WSW 8.0 mph12.9 kmh 29.96 in1014.6 mb 0.01 in0.3 mm 0.00 in/hr0.0 mm/hr 0.09 in2.3 mm
08:04 PM 42.6°F5.9°C 39.9°F4.4°C 90% 3.0 mph WSW4.8 kmh WSW 8.0 mph12.9 kmh 29.96 in1014.6 mb 0.01 in0.3 mm 0.00 in/hr0.0 mm/hr 0.09 in2.3 mm
08:05 PM 42.6°F5.9°C 39.9°F4.4°C 90% 2.0 mph WSW3.2 kmh WSW 8.0 mph12.9 kmh 29.96 in1014.6 mb 0.01 in0.3 mm 0.00 in/hr0.0 mm/hr 0.09 in2.3 mm
08:08 PM 42.7°F5.9°C 40.0°F4.4°C 90% 2.0 mph WSW3.2 kmh WSW 8.0 mph12.9 kmh 29.95 in1014.2 mb 0.01 in0.3 mm 0.00 in/hr0.0 mm/hr 0.09 in2.3 mm
08:09 PM 42.7°F5.9°C 40.0°F4.4°C 90% Calm Calm 8.0 mph12.9 kmh 29.95 in1014.2 mb 0.01 in0.3 mm 0.00 in/hr0.0 mm/hr 0.09 in2.3 mm
08:10 PM 42.7°F5.9°C 40.3°F4.6°C 91% Calm Calm 8.0 mph12.9 kmh 29.95 in1014.2 mb 0.01 in0.3 mm 0.00 in/hr0.0 mm/hr 0.09 in2.3 mm
08:13 PM 42.7°F5.9°C 40.0°F4.4°C 90% 3.0 mph WSW4.8 kmh WSW 8.0 mph12.9 kmh 29.96 in1014.6 mb 0.01 in0.3 mm 0.00 in/hr0.0 mm/hr 0.09 in2.3 mm
08:14 PM 42.7°F5.9°C 40.0°F4.4°C 90% 6.0 mph WSW9.7 kmh WSW 8.0 mph12.9 kmh 29.96 in1014.6 mb 0.01 in0.3 mm 0.00 in/hr0.0 mm/hr 0.09 in2.3 mm
08:15 PM 42.7°F5.9°C 40.0°F4.4°C 90% 7.0 mph WSW11.3 kmh WSW 8.0 mph12.9 kmh 29.96 in1014.6 mb 0.01 in0.3 mm 0.00 in/hr0.0 mm/hr 0.09 in2.3 mm
08:18 PM 42.8°F6.0°C 40.4°F4.7°C 91% Calm Calm 8.0 mph12.9 kmh 29.96 in1014.6 mb 0.02 in0.5 mm 0.20 in/hr5.1 mm/hr 0.10 in2.5 mm
08:19 PM 42.8°F6.0°C 40.4°F4.7°C 91% Calm Calm 8.0 mph12.9 kmh 29.95 in1014.2 mb 0.02 in0.5 mm 0.00 in/hr0.0 mm/hr 0.10 in2.5 mm
08:20 PM 42.8°F6.0°C 40.4°F4.7°C 91% 6.0 mph WSW9.7 kmh WSW 8.0 mph12.9 kmh 29.95 in1014.2 mb 0.02 in0.5 mm 0.00 in/hr0.0 mm/hr 0.10 in2.5 mm
08:23 PM 42.8°F6.0°C 40.4°F4.7°C 91% 2.0 mph WSW3.2 kmh WSW 8.0 mph12.9 kmh 29.96 in1014.6 mb 0.02 in0.5 mm 0.00 in/hr0.0 mm/hr 0.10 in2.5 mm
08:24 PM 42.8°F6.0°C 40.4°F4.7°C 91% 3.0 mph WSW4.8 kmh WSW 8.0 mph12.9 kmh 29.96 in1014.6 mb 0.02 in0.5 mm 0.00 in/hr0.0 mm/hr 0.10 in2.5 mm
08:25 PM 42.8°F6.0°C 40.4°F4.7°C 91% 5.0 mph WSW8.0 kmh WSW 8.0 mph12.9 kmh 29.96 in1014.6 mb 0.02 in0.5 mm 0.00 in/hr0.0 mm/hr 0.10 in2.5 mm
08:28 PM 42.8°F6.0°C 40.4°F4.7°C 91% 4.0 mph WSW6.4 kmh WSW 8.0 mph12.9 kmh 29.95 in1014.2 mb 0.02 in0.5 mm 0.00 in/hr0.0 mm/hr 0.10 in2.5 mm
08:29 PM 42.8°F6.0°C 40.4°F4.7°C 91% 4.0 mph WSW6.4 kmh WSW 8.0 mph12.9 kmh 29.95 in1014.2 mb 0.02 in0.5 mm 0.00 in/hr0.0 mm/hr 0.10 in2.5 mm
08:30 PM 42.8°F6.0°C 40.4°F4.7°C 91% Calm Calm 8.0 mph12.9 kmh 29.95 in1014.2 mb 0.02 in0.5 mm 0.00 in/hr0.0 mm/hr 0.10 in2.5 mm
08:33 PM 42.7°F5.9°C 40.3°F4.6°C 91% 2.0 mph WSW3.2 kmh WSW 8.0 mph12.9 kmh 29.95 in1014.2 mb 0.02 in0.5 mm 0.00 in/hr0.0 mm/hr 0.10 in2.5 mm
08:34 PM 42.8°F6.0°C 40.4°F4.7°C 91% 5.0 mph WSW8.0 kmh WSW 8.0 mph12.9 kmh 29.95 in1014.2 mb 0.02 in0.5 mm 0.00 in/hr0.0 mm/hr 0.10 in2.5 mm
08:35 PM 42.8°F6.0°C 40.4°F4.7°C 91% 1.0 mph WSW1.6 kmh WSW 8.0 mph12.9 kmh 29.95 in1014.2 mb 0.02 in0.5 mm 0.00 in/hr0.0 mm/hr 0.10 in2.5 mm
08:38 PM 42.8°F6.0°C 40.4°F4.7°C 91% 1.0 mph WSW1.6 kmh WSW 8.0 mph12.9 kmh 29.95 in1014.2 mb 0.02 in0.5 mm 0.00 in/hr0.0 mm/hr 0.10 in2.5 mm
08:39 PM 42.8°F6.0°C 40.4°F4.7°C 91% 1.0 mph WSW1.6 kmh WSW 8.0 mph12.9 kmh 29.95 in1014.2 mb 0.02 in0.5 mm 0.00 in/hr0.0 mm/hr 0.10 in2.5 mm
08:40 PM 42.7°F5.9°C 40.3°F4.6°C 91% Calm Calm 8.0 mph12.9 kmh 29.95 in1014.2 mb 0.02 in0.5 mm 0.00 in/hr0.0 mm/hr 0.10 in2.5 mm
08:43 PM 42.7°F5.9°C 40.3°F4.6°C 91% 4.0 mph WSW6.4 kmh WSW 8.0 mph12.9 kmh 29.95 in1014.2 mb 0.02 in0.5 mm 0.00 in/hr0.0 mm/hr 0.10 in2.5 mm
08:44 PM 42.7°F5.9°C 40.3°F4.6°C 91% 2.0 mph WSW3.2 kmh WSW 8.0 mph12.9 kmh 29.95 in1014.2 mb 0.02 in0.5 mm 0.00 in/hr0.0 mm/hr 0.10 in2.5 mm
08:45 PM 42.7°F5.9°C 40.3°F4.6°C 91% 2.0 mph WSW3.2 kmh WSW 8.0 mph12.9 kmh 29.95 in1014.2 mb 0.02 in0.5 mm 0.00 in/hr0.0 mm/hr 0.10 in2.5 mm
08:48 PM 42.7°F5.9°C 40.3°F4.6°C 91% 1.0 mph WSW1.6 kmh WSW 8.0 mph12.9 kmh 29.95 in1014.2 mb 0.02 in0.5 mm 0.00 in/hr0.0 mm/hr 0.10 in2.5 mm
08:49 PM 42.7°F5.9°C 40.3°F4.6°C 91% 2.0 mph WSW3.2 kmh WSW 8.0 mph12.9 kmh 29.95 in1014.2 mb 0.02 in0.5 mm 0.00 in/hr0.0 mm/hr 0.10 in2.5 mm
08:50 PM 42.7°F5.9°C 40.3°F4.6°C 91% Calm Calm 8.0 mph12.9 kmh 29.95 in1014.2 mb 0.02 in0.5 mm 0.00 in/hr0.0 mm/hr 0.10 in2.5 mm
08:53 PM 42.6°F5.9°C 40.2°F4.6°C 91% 2.0 mph WSW3.2 kmh WSW 8.0 mph12.9 kmh 29.95 in1014.2 mb 0.02 in0.5 mm 0.00 in/hr0.0 mm/hr 0.10 in2.5 mm
08:54 PM 42.6°F5.9°C 40.2°F4.6°C 91% 2.0 mph WSW3.2 kmh WSW 8.0 mph12.9 kmh 29.95 in1014.2 mb 0.02 in0.5 mm 0.00 in/hr0.0 mm/hr 0.10 in2.5 mm
08:55 PM 42.6°F5.9°C 40.2°F4.6°C 91% 5.0 mph WSW8.0 kmh WSW 8.0 mph12.9 kmh 29.95 in1014.2 mb 0.02 in0.5 mm 0.00 in/hr0.0 mm/hr 0.10 in2.5 mm
08:58 PM 42.6°F5.9°C 40.2°F4.6°C 91% 1.0 mph WSW1.6 kmh WSW 8.0 mph12.9 kmh 29.95 in1014.2 mb 0.03 in0.8 mm 0.20 in/hr5.1 mm/hr 0.11 in2.8 mm
08:59 PM 42.6°F5.9°C 40.2°F4.6°C 91% Calm Calm 8.0 mph12.9 kmh 29.95 in1014.2 mb 0.03 in0.8 mm 0.00 in/hr0.0 mm/hr 0.11 in2.8 mm
09:00 PM 42.6°F5.9°C 40.2°F4.6°C 91% Calm Calm 1.0 mph1.6 kmh 29.95 in1014.2 mb 0.02 in0.5 mm 0.00 in/hr0.0 mm/hr 0.11 in2.8 mm
09:03 PM 42.6°F5.9°C 40.4°F4.7°C 92% 2.0 mph WSW3.2 kmh WSW 5.0 mph8.0 kmh 29.95 in1014.2 mb 0.02 in0.5 mm 0.00 in/hr0.0 mm/hr 0.11 in2.8 mm
09:04 PM 42.6°F5.9°C 40.4°F4.7°C 92% 1.0 mph WSW1.6 kmh WSW 5.0 mph8.0 kmh 29.95 in1014.2 mb 0.02 in0.5 mm 0.00 in/hr0.0 mm/hr 0.11 in2.8 mm
09:05 PM 42.6°F5.9°C 40.4°F4.7°C 92% 1.0 mph WSW1.6 kmh WSW 5.0 mph8.0 kmh 29.95 in1014.2 mb 0.02 in0.5 mm 0.00 in/hr0.0 mm/hr 0.11 in2.8 mm
09:08 PM 42.6°F5.9°C 40.4°F4.7°C 92% Calm Calm 5.0 mph8.0 kmh 29.95 in1014.2 mb 0.02 in0.5 mm 0.00 in/hr0.0 mm/hr 0.11 in2.8 mm
09:09 PM 42.6°F5.9°C 40.4°F4.7°C 92% Calm Calm 5.0 mph8.0 kmh 29.95 in1014.2 mb 0.02 in0.5 mm 0.00 in/hr0.0 mm/hr 0.11 in2.8 mm
09:10 PM 42.6°F5.9°C 40.4°F4.7°C 92% 1.0 mph WSW1.6 kmh WSW 5.0 mph8.0 kmh 29.95 in1014.2 mb 0.02 in0.5 mm 0.00 in/hr0.0 mm/hr 0.11 in2.8 mm
09:13 PM 42.6°F5.9°C 40.4°F4.7°C 92% 5.0 mph WSW8.0 kmh WSW 5.0 mph8.0 kmh 29.95 in1014.2 mb 0.02 in0.5 mm 0.00 in/hr0.0 mm/hr 0.11 in2.8 mm
09:14 PM 42.6°F5.9°C 40.4°F4.7°C 92% 1.0 mph WSW1.6 kmh WSW 5.0 mph8.0 kmh 29.95 in1014.2 mb 0.02 in0.5 mm 0.00 in/hr0.0 mm/hr 0.11 in2.8 mm
09:15 PM 42.6°F5.9°C 40.4°F4.7°C 92% 3.0 mph WSW4.8 kmh WSW 5.0 mph8.0 kmh 29.95 in1014.2 mb 0.02 in0.5 mm 0.00 in/hr0.0 mm/hr 0.11 in2.8 mm
09:18 PM 42.6°F5.9°C 40.4°F4.7°C 92% 3.0 mph WSW4.8 kmh WSW 7.0 mph11.3 kmh 29.95 in1014.2 mb 0.02 in0.5 mm 0.00 in/hr0.0 mm/hr 0.11 in2.8 mm
09:19 PM 42.7°F5.9°C 40.5°F4.7°C 92% 3.0 mph WSW4.8 kmh WSW 7.0 mph11.3 kmh 29.95 in1014.2 mb 0.02 in0.5 mm 0.00 in/hr0.0 mm/hr 0.11 in2.8 mm
09:20 PM 42.6°F5.9°C 40.4°F4.7°C 92% 3.0 mph WSW4.8 kmh WSW 8.0 mph12.9 kmh 29.95 in1014.2 mb 0.03 in0.8 mm 0.60 in/hr15.2 mm/hr 0.12 in3.0 mm
09:23 PM 42.7°F5.9°C 40.5°F4.7°C 92% 4.0 mph WSW6.4 kmh WSW 8.0 mph12.9 kmh 29.95 in1014.2 mb 0.03 in0.8 mm 0.00 in/hr0.0 mm/hr 0.12 in3.0 mm
09:24 PM 42.7°F5.9°C 40.5°F4.7°C 92% Calm Calm 8.0 mph12.9 kmh 29.95 in1014.2 mb 0.03 in0.8 mm 0.00 in/hr0.0 mm/hr 0.12 in3.0 mm
09:25 PM 42.8°F6.0°C 40.6°F4.8°C 92% 5.0 mph WSW8.0 kmh WSW 8.0 mph12.9 kmh 29.95 in1014.2 mb 0.03 in0.8 mm 0.00 in/hr0.0 mm/hr 0.12 in3.0 mm
09:28 PM 42.8°F6.0°C 40.6°F4.8°C 92% Calm Calm 8.0 mph12.9 kmh 29.95 in1014.2 mb 0.03 in0.8 mm 0.00 in/hr0.0 mm/hr 0.12 in3.0 mm
09:29 PM 42.8°F6.0°C 40.6°F4.8°C 92% Calm Calm 8.0 mph12.9 kmh 29.95 in1014.2 mb 0.03 in0.8 mm 0.00 in/hr0.0 mm/hr 0.12 in3.0 mm
09:30 PM 42.8°F6.0°C 40.6°F4.8°C 92% 2.0 mph WSW3.2 kmh WSW 8.0 mph12.9 kmh 29.95 in1014.2 mb 0.03 in0.8 mm 0.00 in/hr0.0 mm/hr 0.12 in3.0 mm
09:33 PM 42.8°F6.0°C 40.6°F4.8°C 92% 4.0 mph WSW6.4 kmh WSW 8.0 mph12.9 kmh 29.95 in1014.2 mb 0.03 in0.8 mm 0.00 in/hr0.0 mm/hr 0.12 in3.0 mm
09:34 PM 42.8°F6.0°C 40.6°F4.8°C 92% 3.0 mph WSW4.8 kmh WSW 8.0 mph12.9 kmh 29.95 in1014.2 mb 0.03 in0.8 mm 0.00 in/hr0.0 mm/hr 0.12 in3.0 mm
09:35 PM 42.8°F6.0°C 40.6°F4.8°C 92% 2.0 mph WSW3.2 kmh WSW 8.0 mph12.9 kmh 29.95 in1014.2 mb 0.03 in0.8 mm 0.00 in/hr0.0 mm/hr 0.12 in3.0 mm
09:38 PM 42.8°F6.0°C 40.6°F4.8°C 92% 5.0 mph WSW8.0 kmh WSW 8.0 mph12.9 kmh 29.95 in1014.2 mb 0.03 in0.8 mm 0.00 in/hr0.0 mm/hr 0.12 in3.0 mm
09:39 PM 42.8°F6.0°C 40.6°F4.8°C 92% 2.0 mph WSW3.2 kmh WSW 8.0 mph12.9 kmh 29.95 in1014.2 mb 0.03 in0.8 mm 0.00 in/hr0.0 mm/hr 0.12 in3.0 mm
09:40 PM 42.8°F6.0°C 40.6°F4.8°C 92% 1.0 mph WSW1.6 kmh WSW 8.0 mph12.9 kmh 29.95 in1014.2 mb 0.03 in0.8 mm 0.00 in/hr0.0 mm/hr 0.12 in3.0 mm
09:43 PM 42.8°F6.0°C 40.6°F4.8°C 92% 1.0 mph WSW1.6 kmh WSW 8.0 mph12.9 kmh 29.95 in1014.2 mb 0.03 in0.8 mm 0.00 in/hr0.0 mm/hr 0.12 in3.0 mm
09:44 PM 42.8°F6.0°C 40.6°F4.8°C 92% Calm Calm 8.0 mph12.9 kmh 29.95 in1014.2 mb 0.03 in0.8 mm 0.00 in/hr0.0 mm/hr 0.12 in3.0 mm
09:45 PM 42.8°F6.0°C 40.6°F4.8°C 92% 4.0 mph WSW6.4 kmh WSW 8.0 mph12.9 kmh 29.95 in1014.2 mb 0.03 in0.8 mm 0.00 in/hr0.0 mm/hr 0.12 in3.0 mm
09:48 PM 42.8°F6.0°C 40.6°F4.8°C 92% Calm Calm 8.0 mph12.9 kmh 29.95 in1014.2 mb 0.03 in0.8 mm 0.00 in/hr0.0 mm/hr 0.12 in3.0 mm
09:49 PM 42.8°F6.0°C 40.6°F4.8°C 92% Calm Calm 8.0 mph12.9 kmh 29.95 in1014.2 mb 0.03 in0.8 mm 0.00 in/hr0.0 mm/hr 0.12 in3.0 mm
09:50 PM 42.7°F5.9°C 40.5°F4.7°C 92% 2.0 mph WSW3.2 kmh WSW 8.0 mph12.9 kmh 29.95 in1014.2 mb 0.03 in0.8 mm 0.00 in/hr0.0 mm/hr 0.12 in3.0 mm
09:53 PM 42.7°F5.9°C 40.5°F4.7°C 92% Calm Calm 8.0 mph12.9 kmh 29.95 in1014.2 mb 0.03 in0.8 mm 0.00 in/hr0.0 mm/hr 0.12 in3.0 mm
09:54 PM 42.8°F6.0°C 40.6°F4.8°C 92% 3.0 mph WSW4.8 kmh WSW 8.0 mph12.9 kmh 29.95 in1014.2 mb 0.03 in0.8 mm 0.00 in/hr0.0 mm/hr 0.12 in3.0 mm
09:55 PM 42.8°F6.0°C 40.6°F4.8°C 92% Calm Calm 8.0 mph12.9 kmh 29.95 in1014.2 mb 0.03 in0.8 mm 0.00 in/hr0.0 mm/hr 0.12 in3.0 mm
09:58 PM 42.8°F6.0°C 40.6°F4.8°C 92% 1.0 mph WSW1.6 kmh WSW 8.0 mph12.9 kmh 29.95 in1014.2 mb 0.03 in0.8 mm 0.00 in/hr0.0 mm/hr 0.12 in3.0 mm
09:59 PM 42.8°F6.0°C 40.6°F4.8°C 92% 3.0 mph WSW4.8 kmh WSW 8.0 mph12.9 kmh 29.95 in1014.2 mb 0.03 in0.8 mm 0.00 in/hr0.0 mm/hr 0.12 in3.0 mm
10:00 PM 42.8°F6.0°C 40.6°F4.8°C 92% Calm Calm 2.0 mph3.2 kmh 29.95 in1014.2 mb 0.01 in0.3 mm 0.00 in/hr0.0 mm/hr 0.12 in3.0 mm
10:03 PM 42.9°F6.1°C 40.7°F4.8°C 92% Calm Calm 3.0 mph4.8 kmh 29.95 in1014.2 mb 0.01 in0.3 mm 0.00 in/hr0.0 mm/hr 0.12 in3.0 mm
10:04 PM 42.9°F6.1°C 40.7°F4.8°C 92% Calm Calm 3.0 mph4.8 kmh 29.95 in1014.2 mb 0.01 in0.3 mm 0.00 in/hr0.0 mm/hr 0.12 in3.0 mm
10:05 PM 42.8°F6.0°C 40.9°F4.9°C 93% 3.0 mph WSW4.8 kmh WSW 3.0 mph4.8 kmh 29.95 in1014.2 mb 0.01 in0.3 mm 0.00 in/hr0.0 mm/hr 0.12 in3.0 mm
10:08 PM 42.9°F6.1°C 41.0°F5.0°C 93% Calm Calm 3.0 mph4.8 kmh 29.95 in1014.2 mb 0.01 in0.3 mm 0.00 in/hr0.0 mm/hr 0.12 in3.0 mm
10:09 PM 42.9°F6.1°C 41.0°F5.0°C 93% Calm Calm 3.0 mph4.8 kmh 29.95 in1014.2 mb 0.01 in0.3 mm 0.00 in/hr0.0 mm/hr 0.12 in3.0 mm
10:10 PM 43.0°F6.1°C 41.1°F5.1°C 93% 1.0 mph WSW1.6 kmh WSW 4.0 mph6.4 kmh 29.94 in1013.9 mb 0.01 in0.3 mm 0.00 in/hr0.0 mm/hr 0.12 in3.0 mm
10:13 PM 43.0°F6.1°C 41.1°F5.1°C 93% Calm Calm 4.0 mph6.4 kmh 29.95 in1014.2 mb 0.01 in0.3 mm 0.00 in/hr0.0 mm/hr 0.12 in3.0 mm
10:14 PM 43.0°F6.1°C 41.1°F5.1°C 93% 2.0 mph WSW3.2 kmh WSW 5.0 mph8.0 kmh 29.95 in1014.2 mb 0.01 in0.3 mm 0.00 in/hr0.0 mm/hr 0.12 in3.0 mm
10:15 PM 43.0°F6.1°C 41.1°F5.1°C 93% Calm Calm 5.0 mph8.0 kmh 29.94 in1013.9 mb 0.02 in0.5 mm 0.60 in/hr15.2 mm/hr 0.13 in3.3 mm
10:18 PM 43.0°F6.1°C 41.1°F5.1°C 93% Calm Calm 5.0 mph8.0 kmh 29.94 in1013.9 mb 0.02 in0.5 mm 0.00 in/hr0.0 mm/hr 0.13 in3.3 mm
10:19 PM 43.0°F6.1°C 41.1°F5.1°C 93% Calm Calm 5.0 mph8.0 kmh 29.94 in1013.9 mb 0.02 in0.5 mm 0.00 in/hr0.0 mm/hr 0.13 in3.3 mm
10:20 PM 43.0°F6.1°C 41.1°F5.1°C 93% 1.0 mph WSW1.6 kmh WSW 5.0 mph8.0 kmh 29.95 in1014.2 mb 0.02 in0.5 mm 0.00 in/hr0.0 mm/hr 0.13 in3.3 mm
10:23 PM 43.1°F6.2°C 41.2°F5.1°C 93% Calm Calm 5.0 mph8.0 kmh 29.95 in1014.2 mb 0.02 in0.5 mm 0.00 in/hr0.0 mm/hr 0.13 in3.3 mm
10:24 PM 43.2°F6.2°C 41.3°F5.2°C 93% Calm Calm 5.0 mph8.0 kmh 29.95 in1014.2 mb 0.02 in0.5 mm 0.00 in/hr0.0 mm/hr 0.13 in3.3 mm
10:25 PM 43.2°F6.2°C 41.3°F5.2°C 93% Calm Calm 5.0 mph8.0 kmh 29.95 in1014.2 mb 0.02 in0.5 mm 0.00 in/hr0.0 mm/hr 0.13 in3.3 mm
10:28 PM 43.2°F6.2°C 41.3°F5.2°C 93% 1.0 mph WSW1.6 kmh WSW 5.0 mph8.0 kmh 29.95 in1014.2 mb 0.02 in0.5 mm 0.00 in/hr0.0 mm/hr 0.13 in3.3 mm
10:29 PM 43.3°F6.3°C 41.4°F5.2°C 93% 1.0 mph WSW1.6 kmh WSW 5.0 mph8.0 kmh 29.95 in1014.2 mb 0.02 in0.5 mm 0.00 in/hr0.0 mm/hr 0.13 in3.3 mm
10:30 PM 43.3°F6.3°C 41.4°F5.2°C 93% Calm Calm 5.0 mph8.0 kmh 29.95 in1014.2 mb 0.02 in0.5 mm 0.00 in/hr0.0 mm/hr 0.13 in3.3 mm
10:33 PM 43.3°F6.3°C 41.4°F5.2°C 93% 2.0 mph WSW3.2 kmh WSW 5.0 mph8.0 kmh 29.95 in1014.2 mb 0.02 in0.5 mm 0.00 in/hr0.0 mm/hr 0.13 in3.3 mm
10:34 PM 43.3°F6.3°C 41.4°F5.2°C 93% 3.0 mph WSW4.8 kmh WSW 5.0 mph8.0 kmh 29.95 in1014.2 mb 0.02 in0.5 mm 0.00 in/hr0.0 mm/hr 0.13 in3.3 mm
10:35 PM 43.3°F6.3°C 41.4°F5.2°C 93% 1.0 mph WSW1.6 kmh WSW 5.0 mph8.0 kmh 29.95 in1014.2 mb 0.02 in0.5 mm 0.00 in/hr0.0 mm/hr 0.13 in3.3 mm
10:38 PM 43.4°F6.3°C 41.5°F5.3°C 93% 1.0 mph WSW1.6 kmh WSW 5.0 mph8.0 kmh 29.95 in1014.2 mb 0.02 in0.5 mm 0.00 in/hr0.0 mm/hr 0.13 in3.3 mm
10:39 PM 43.4°F6.3°C 41.5°F5.3°C 93% 5.0 mph WSW8.0 kmh WSW 6.0 mph9.7 kmh 29.95 in1014.2 mb 0.02 in0.5 mm 0.00 in/hr0.0 mm/hr 0.13 in3.3 mm
10:40 PM 43.4°F6.3°C 41.5°F5.3°C 93% 1.0 mph WSW1.6 kmh WSW 6.0 mph9.7 kmh 29.95 in1014.2 mb 0.02 in0.5 mm 0.00 in/hr0.0 mm/hr 0.13 in3.3 mm
10:43 PM 43.5°F6.4°C 41.6°F5.3°C 93% Calm Calm 6.0 mph9.7 kmh 29.95 in1014.2 mb 0.02 in0.5 mm 0.00 in/hr0.0 mm/hr 0.13 in3.3 mm
10:44 PM 43.5°F6.4°C 41.6°F5.3°C 93% 3.0 mph WSW4.8 kmh WSW 6.0 mph9.7 kmh 29.95 in1014.2 mb 0.02 in0.5 mm 0.00 in/hr0.0 mm/hr 0.13 in3.3 mm
10:45 PM 43.5°F6.4°C 41.6°F5.3°C 93% 1.0 mph WSW1.6 kmh WSW 6.0 mph9.7 kmh 29.95 in1014.2 mb 0.02 in0.5 mm 0.00 in/hr0.0 mm/hr 0.13 in3.3 mm
10:48 PM 43.6°F6.4°C 41.7°F5.4°C 93% 3.0 mph WSW4.8 kmh WSW 6.0 mph9.7 kmh 29.95 in1014.2 mb 0.03 in0.8 mm 0.20 in/hr5.1 mm/hr 0.14 in3.6 mm
10:49 PM 43.6°F6.4°C 41.7°F5.4°C 93% 2.0 mph WSW3.2 kmh WSW 6.0 mph9.7 kmh 29.95 in1014.2 mb 0.03 in0.8 mm 0.00 in/hr0.0 mm/hr 0.14 in3.6 mm
10:50 PM 43.6°F6.4°C 41.7°F5.4°C 93% Calm Calm 6.0 mph9.7 kmh 29.95 in1014.2 mb 0.03 in0.8 mm 0.00 in/hr0.0 mm/hr 0.14 in3.6 mm
10:53 PM 43.6°F6.4°C 41.7°F5.4°C 93% Calm Calm 6.0 mph9.7 kmh 29.95 in1014.2 mb 0.03 in0.8 mm 0.00 in/hr0.0 mm/hr 0.14 in3.6 mm
10:54 PM 43.6°F6.4°C 41.7°F5.4°C 93% Calm Calm 6.0 mph9.7 kmh 29.95 in1014.2 mb 0.03 in0.8 mm 0.00 in/hr0.0 mm/hr 0.14 in3.6 mm
10:55 PM 43.6°F6.4°C 41.7°F5.4°C 93% 2.0 mph WSW3.2 kmh WSW 6.0 mph9.7 kmh 29.95 in1014.2 mb 0.03 in0.8 mm 0.00 in/hr0.0 mm/hr 0.14 in3.6 mm
10:58 PM 43.5°F6.4°C 41.6°F5.3°C 93% 1.0 mph WSW1.6 kmh WSW 6.0 mph9.7 kmh 29.95 in1014.2 mb 0.03 in0.8 mm 0.00 in/hr0.0 mm/hr 0.14 in3.6 mm
10:59 PM 43.5°F6.4°C 41.6°F5.3°C 93% Calm Calm 6.0 mph9.7 kmh 29.95 in1014.2 mb 0.03 in0.8 mm 0.00 in/hr0.0 mm/hr 0.14 in3.6 mm
11:00 PM 43.5°F6.4°C 41.6°F5.3°C 93% Calm Calm -- 29.95 in1014.2 mb 0.02 in0.5 mm 0.00 in/hr0.0 mm/hr 0.14 in3.6 mm
11:03 PM 43.5°F6.4°C 41.6°F5.3°C 93% Calm Calm 1.0 mph1.6 kmh 29.95 in1014.2 mb 0.02 in0.5 mm 0.00 in/hr0.0 mm/hr 0.14 in3.6 mm
11:04 PM 43.5°F6.4°C 41.6°F5.3°C 93% Calm Calm 3.0 mph4.8 kmh 29.95 in1014.2 mb 0.02 in0.5 mm 0.00 in/hr0.0 mm/hr 0.14 in3.6 mm
11:05 PM 43.5°F6.4°C 41.6°F5.3°C 93% Calm Calm 3.0 mph4.8 kmh 29.95 in1014.2 mb 0.02 in0.5 mm 0.00 in/hr0.0 mm/hr 0.14 in3.6 mm
11:08 PM 43.5°F6.4°C 41.6°F5.3°C 93% Calm Calm 4.0 mph6.4 kmh 29.95 in1014.2 mb 0.02 in0.5 mm 0.00 in/hr0.0 mm/hr 0.14 in3.6 mm
11:09 PM 43.5°F6.4°C 41.6°F5.3°C 93% 1.0 mph WSW1.6 kmh WSW 4.0 mph6.4 kmh 29.95 in1014.2 mb 0.02 in0.5 mm 0.00 in/hr0.0 mm/hr 0.14 in3.6 mm
11:10 PM 43.5°F6.4°C 41.6°F5.3°C 93% 3.0 mph WSW4.8 kmh WSW 6.0 mph9.7 kmh 29.95 in1014.2 mb 0.02 in0.5 mm 0.00 in/hr0.0 mm/hr 0.14 in3.6 mm
11:13 PM 43.6°F6.4°C 41.7°F5.4°C 93% 3.0 mph WSW4.8 kmh WSW 6.0 mph9.7 kmh 29.95 in1014.2 mb 0.02 in0.5 mm 0.00 in/hr0.0 mm/hr 0.14 in3.6 mm
11:14 PM 43.6°F6.4°C 41.7°F5.4°C 93% 1.0 mph WSW1.6 kmh WSW 6.0 mph9.7 kmh 29.95 in1014.2 mb 0.02 in0.5 mm 0.00 in/hr0.0 mm/hr 0.14 in3.6 mm
11:15 PM 43.6°F6.4°C 41.7°F5.4°C 93% 4.0 mph WSW6.4 kmh WSW 6.0 mph9.7 kmh 29.95 in1014.2 mb 0.02 in0.5 mm 0.00 in/hr0.0 mm/hr 0.14 in3.6 mm
11:18 PM 43.6°F6.4°C 41.7°F5.4°C 93% 2.0 mph WSW3.2 kmh WSW 7.0 mph11.3 kmh 29.95 in1014.2 mb 0.02 in0.5 mm 0.00 in/hr0.0 mm/hr 0.14 in3.6 mm
11:19 PM 43.6°F6.4°C 41.7°F5.4°C 93% Calm Calm 7.0 mph11.3 kmh 29.95 in1014.2 mb 0.02 in0.5 mm 0.00 in/hr0.0 mm/hr 0.14 in3.6 mm
11:20 PM 43.6°F6.4°C 41.7°F5.4°C 93% 2.0 mph WSW3.2 kmh WSW 7.0 mph11.3 kmh 29.95 in1014.2 mb 0.02 in0.5 mm 0.00 in/hr0.0 mm/hr 0.14 in3.6 mm
11:23 PM 43.6°F6.4°C 41.7°F5.4°C 93% Calm Calm 7.0 mph11.3 kmh 29.95 in1014.2 mb 0.02 in0.5 mm 0.00 in/hr0.0 mm/hr 0.14 in3.6 mm
11:24 PM 43.6°F6.4°C 41.7°F5.4°C 93% Calm Calm 7.0 mph11.3 kmh 29.95 in1014.2 mb 0.02 in0.5 mm 0.00 in/hr0.0 mm/hr 0.14 in3.6 mm
11:25 PM 43.5°F6.4°C 41.6°F5.3°C 93% 3.0 mph WSW4.8 kmh WSW 7.0 mph11.3 kmh 29.95 in1014.2 mb 0.02 in0.5 mm 0.00 in/hr0.0 mm/hr 0.14 in3.6 mm
11:28 PM 43.5°F6.4°C 41.6°F5.3°C 93% Calm Calm 7.0 mph11.3 kmh 29.96 in1014.6 mb 0.02 in0.5 mm 0.00 in/hr0.0 mm/hr 0.14 in3.6 mm
11:29 PM 43.5°F6.4°C 41.6°F5.3°C 93% 2.0 mph WSW3.2 kmh WSW 7.0 mph11.3 kmh 29.96 in1014.6 mb 0.02 in0.5 mm 0.00 in/hr0.0 mm/hr 0.14 in3.6 mm
11:30 PM 43.5°F6.4°C 41.6°F5.3°C 93% 4.0 mph WSW6.4 kmh WSW 7.0 mph11.3 kmh 29.96 in1014.6 mb 0.02 in0.5 mm 0.00 in/hr0.0 mm/hr 0.14 in3.6 mm
11:33 PM 43.4°F6.3°C 41.5°F5.3°C 93% 1.0 mph WSW1.6 kmh WSW 7.0 mph11.3 kmh 29.95 in1014.2 mb 0.02 in0.5 mm 0.00 in/hr0.0 mm/hr 0.14 in3.6 mm
11:34 PM 43.4°F6.3°C 41.5°F5.3°C 93% Calm Calm 7.0 mph11.3 kmh 29.95 in1014.2 mb 0.02 in0.5 mm 0.00 in/hr0.0 mm/hr 0.14 in3.6 mm
11:35 PM 43.4°F6.3°C 41.5°F5.3°C 93% Calm Calm 7.0 mph11.3 kmh 29.96 in1014.6 mb 0.02 in0.5 mm 0.00 in/hr0.0 mm/hr 0.14 in3.6 mm
11:38 PM 43.4°F6.3°C 41.5°F5.3°C 93% Calm Calm 7.0 mph11.3 kmh 29.96 in1014.6 mb 0.02 in0.5 mm 0.00 in/hr0.0 mm/hr 0.14 in3.6 mm
11:39 PM 43.4°F6.3°C 41.5°F5.3°C 93% Calm Calm 7.0 mph11.3 kmh 29.96 in1014.6 mb 0.02 in0.5 mm 0.00 in/hr0.0 mm/hr 0.14 in3.6 mm
11:40 PM 43.4°F6.3°C 41.5°F5.3°C 93% Calm Calm 7.0 mph11.3 kmh 29.96 in1014.6 mb 0.02 in0.5 mm 0.00 in/hr0.0 mm/hr 0.14 in3.6 mm
11:43 PM 43.5°F6.4°C 41.6°F5.3°C 93% 6.0 mph SW9.7 kmh SW 9.0 mph14.5 kmh 29.96 in1014.6 mb 0.02 in0.5 mm 0.00 in/hr0.0 mm/hr 0.14 in3.6 mm
11:44 PM 43.5°F6.4°C 41.6°F5.3°C 93% 2.0 mph SW3.2 kmh SW 9.0 mph14.5 kmh 29.96 in1014.6 mb 0.02 in0.5 mm 0.00 in/hr0.0 mm/hr 0.14 in3.6 mm
11:45 PM 43.5°F6.4°C 41.6°F5.3°C 93% 2.0 mph SW3.2 kmh SW 9.0 mph14.5 kmh 29.96 in1014.6 mb 0.02 in0.5 mm 0.00 in/hr0.0 mm/hr 0.14 in3.6 mm
11:48 PM 43.5°F6.4°C 41.6°F5.3°C 93% Calm Calm 9.0 mph14.5 kmh 29.96 in1014.6 mb 0.02 in0.5 mm 0.00 in/hr0.0 mm/hr 0.14 in3.6 mm
11:49 PM 43.6°F6.4°C 41.7°F5.4°C 93% 2.0 mph SW3.2 kmh SW 9.0 mph14.5 kmh 29.96 in1014.6 mb 0.02 in0.5 mm 0.00 in/hr0.0 mm/hr 0.14 in3.6 mm
11:50 PM 43.5°F6.4°C 41.6°F5.3°C 93% 4.0 mph SW6.4 kmh SW 9.0 mph14.5 kmh 29.96 in1014.6 mb 0.02 in0.5 mm 0.00 in/hr0.0 mm/hr 0.14 in3.6 mm
11:53 PM 43.7°F6.5°C 41.8°F5.4°C 93% 8.0 mph SW12.9 kmh SW 9.0 mph14.5 kmh 29.96 in1014.6 mb 0.02 in0.5 mm 0.00 in/hr0.0 mm/hr 0.14 in3.6 mm
11:54 PM 43.7°F6.5°C 41.8°F5.4°C 93% 3.0 mph SW4.8 kmh SW 9.0 mph14.5 kmh 29.96 in1014.6 mb 0.02 in0.5 mm 0.00 in/hr0.0 mm/hr 0.14 in3.6 mm
11:55 PM 43.7°F6.5°C 41.8°F5.4°C 93% 4.0 mph SW6.4 kmh SW 9.0 mph14.5 kmh 29.96 in1014.6 mb 0.02 in0.5 mm 0.00 in/hr0.0 mm/hr 0.14 in3.6 mm
11:58 PM 43.8°F6.6°C 41.9°F5.5°C 93% Calm Calm 9.0 mph14.5 kmh 29.96 in1014.6 mb 0.02 in0.5 mm 0.00 in/hr0.0 mm/hr 0.14 in3.6 mm
11:59 PM 43.8°F6.6°C 41.9°F5.5°C 93% Calm Calm 9.0 mph14.5 kmh 29.96 in1014.6 mb 0.02 in0.5 mm 0.00 in/hr0.0 mm/hr 0.14 in3.6 mm